PWSweather.com
Personal Weather Stations
Station Observations
OPENSRS
Liberty Village, Toronto, ON M6K 3M1

Liberty VillageToronto, ON M6K 3M1

Lat: 43.63831, Lon: -79.42566

Elevation: 303

Station Type: Davis Instruments Vantage Pro 2

weather.opensrs.com

High Low Average
Temperature 58.5°F14.7°C 37.6°F3.1°C 47.4°F8.6°C
Dew Point 37.5°F3.1°C 27.1°F-2.7°C 31.2°F-0.4°C
Winds 10.0 mph 16.1 kmh Calm Calm 4.0 mph SE6.4 kmh SE
Wind Gusts 12.0 mph19.3 kmh 2.0 mph3.2 kmh 9.0 mph14.5 kmh
Humidity 69% 34% 54%
Pressure 30.29 in1025.7 mb 30.16 in1021.3 mb -
Precipitation 0.00 in0.0 mm - -
Hour Temp Dew Point Humidity Winds Wind Gusts Pressure Precip Precip Rate Daily Precip Total
12:00 AM 42.3°F5.7°C 27.3°F-2.6°C 55% 3.0 mph N4.8 kmh N 3.0 mph4.8 kmh 30.22 in1023.4 mb 0.00 in0.0 mm 0.00 in/hr0.0 mm/hr 0.00 in0.0 mm
12:03 AM 42.3°F5.7°C 27.3°F-2.6°C 55% 6.0 mph N9.7 kmh N 8.0 mph12.9 kmh 30.22 in1023.4 mb 0.00 in0.0 mm 0.00 in/hr0.0 mm/hr 0.00 in0.0 mm
12:04 AM 42.3°F5.7°C 27.3°F-2.6°C 55% 3.0 mph NNE4.8 kmh NNE 8.0 mph12.9 kmh 30.22 in1023.4 mb 0.00 in0.0 mm 0.00 in/hr0.0 mm/hr 0.00 in0.0 mm
12:05 AM 42.3°F5.7°C 27.3°F-2.6°C 55% 1.0 mph N1.6 kmh N 8.0 mph12.9 kmh 30.22 in1023.4 mb 0.00 in0.0 mm 0.00 in/hr0.0 mm/hr 0.00 in0.0 mm
12:08 AM 42.1°F5.6°C 27.1°F-2.7°C 55% 5.0 mph N8.0 kmh N 8.0 mph12.9 kmh 30.22 in1023.4 mb 0.00 in0.0 mm 0.00 in/hr0.0 mm/hr 0.00 in0.0 mm
12:09 AM 42.1°F5.6°C 27.6°F-2.4°C 56% 4.0 mph N6.4 kmh N 8.0 mph12.9 kmh 30.22 in1023.4 mb 0.00 in0.0 mm 0.00 in/hr0.0 mm/hr 0.00 in0.0 mm
12:10 AM 42.1°F5.6°C 27.6°F-2.4°C 56% 6.0 mph N9.7 kmh N 8.0 mph12.9 kmh 30.22 in1023.4 mb 0.00 in0.0 mm 0.00 in/hr0.0 mm/hr 0.00 in0.0 mm
12:13 AM 42.1°F5.6°C 27.6°F-2.4°C 56% 4.0 mph N6.4 kmh N 9.0 mph14.5 kmh 30.22 in1023.4 mb 0.00 in0.0 mm 0.00 in/hr0.0 mm/hr 0.00 in0.0 mm
12:14 AM 42.0°F5.6°C 27.5°F-2.5°C 56% 3.0 mph N4.8 kmh N 9.0 mph14.5 kmh 30.22 in1023.4 mb 0.00 in0.0 mm 0.00 in/hr0.0 mm/hr 0.00 in0.0 mm
12:15 AM 42.0°F5.6°C 27.5°F-2.5°C 56% 5.0 mph N8.0 kmh N 9.0 mph14.5 kmh 30.22 in1023.4 mb 0.00 in0.0 mm 0.00 in/hr0.0 mm/hr 0.00 in0.0 mm
12:18 AM 41.9°F5.5°C 27.4°F-2.6°C 56% 3.0 mph N4.8 kmh N 9.0 mph14.5 kmh 30.22 in1023.4 mb 0.00 in0.0 mm 0.00 in/hr0.0 mm/hr 0.00 in0.0 mm
12:19 AM 41.9°F5.5°C 27.4°F-2.6°C 56% 6.0 mph N9.7 kmh N 9.0 mph14.5 kmh 30.22 in1023.4 mb 0.00 in0.0 mm 0.00 in/hr0.0 mm/hr 0.00 in0.0 mm
12:20 AM 41.9°F5.5°C 27.4°F-2.6°C 56% 6.0 mph N9.7 kmh N 9.0 mph14.5 kmh 30.22 in1023.4 mb 0.00 in0.0 mm 0.00 in/hr0.0 mm/hr 0.00 in0.0 mm
12:23 AM 41.9°F5.5°C 27.8°F-2.3°C 57% 4.0 mph N6.4 kmh N 9.0 mph14.5 kmh 30.22 in1023.4 mb 0.00 in0.0 mm 0.00 in/hr0.0 mm/hr 0.00 in0.0 mm
12:24 AM 41.9°F5.5°C 27.8°F-2.3°C 57% 4.0 mph N6.4 kmh N 9.0 mph14.5 kmh 30.22 in1023.4 mb 0.00 in0.0 mm 0.00 in/hr0.0 mm/hr 0.00 in0.0 mm
12:25 AM 41.9°F5.5°C 27.8°F-2.3°C 57% 5.0 mph NNE8.0 kmh NNE 9.0 mph14.5 kmh 30.22 in1023.4 mb 0.00 in0.0 mm 0.00 in/hr0.0 mm/hr 0.00 in0.0 mm
12:28 AM 41.9°F5.5°C 27.4°F-2.6°C 56% 4.0 mph NNE6.4 kmh NNE 9.0 mph14.5 kmh 30.22 in1023.4 mb 0.00 in0.0 mm 0.00 in/hr0.0 mm/hr 0.00 in0.0 mm
12:29 AM 41.9°F5.5°C 27.4°F-2.6°C 56% 5.0 mph NNE8.0 kmh NNE 9.0 mph14.5 kmh 30.22 in1023.4 mb 0.00 in0.0 mm 0.00 in/hr0.0 mm/hr 0.00 in0.0 mm
12:30 AM 41.9°F5.5°C 27.8°F-2.3°C 57% 6.0 mph NNE9.7 kmh NNE 9.0 mph14.5 kmh 30.22 in1023.4 mb 0.00 in0.0 mm 0.00 in/hr0.0 mm/hr 0.00 in0.0 mm
12:33 AM 41.9°F5.5°C 27.8°F-2.3°C 57% 5.0 mph NNE8.0 kmh NNE 9.0 mph14.5 kmh 30.22 in1023.4 mb 0.00 in0.0 mm 0.00 in/hr0.0 mm/hr 0.00 in0.0 mm
12:34 AM 41.8°F5.4°C 27.7°F-2.4°C 57% 5.0 mph NNE8.0 kmh NNE 9.0 mph14.5 kmh 30.22 in1023.4 mb 0.00 in0.0 mm 0.00 in/hr0.0 mm/hr 0.00 in0.0 mm
12:35 AM 41.8°F5.4°C 27.7°F-2.4°C 57% 5.0 mph NE8.0 kmh NE 9.0 mph14.5 kmh 30.22 in1023.4 mb 0.00 in0.0 mm 0.00 in/hr0.0 mm/hr 0.00 in0.0 mm
12:38 AM 41.8°F5.4°C 27.7°F-2.4°C 57% 4.0 mph NE6.4 kmh NE 9.0 mph14.5 kmh 30.22 in1023.4 mb 0.00 in0.0 mm 0.00 in/hr0.0 mm/hr 0.00 in0.0 mm
12:39 AM 41.8°F5.4°C 27.7°F-2.4°C 57% 5.0 mph NNE8.0 kmh NNE 9.0 mph14.5 kmh 30.22 in1023.4 mb 0.00 in0.0 mm 0.00 in/hr0.0 mm/hr 0.00 in0.0 mm
12:40 AM 41.8°F5.4°C 27.7°F-2.4°C 57% 4.0 mph NNE6.4 kmh NNE 9.0 mph14.5 kmh 30.22 in1023.4 mb 0.00 in0.0 mm 0.00 in/hr0.0 mm/hr 0.00 in0.0 mm
12:43 AM 41.7°F5.4°C 27.6°F-2.4°C 57% 3.0 mph NNE4.8 kmh NNE 9.0 mph14.5 kmh 30.22 in1023.4 mb 0.00 in0.0 mm 0.00 in/hr0.0 mm/hr 0.00 in0.0 mm
12:44 AM 41.7°F5.4°C 27.6°F-2.4°C 57% 5.0 mph NNE8.0 kmh NNE 9.0 mph14.5 kmh 30.22 in1023.4 mb 0.00 in0.0 mm 0.00 in/hr0.0 mm/hr 0.00 in0.0 mm
12:45 AM 41.7°F5.4°C 27.6°F-2.4°C 57% 3.0 mph NNE4.8 kmh NNE 9.0 mph14.5 kmh 30.22 in1023.4 mb 0.00 in0.0 mm 0.00 in/hr0.0 mm/hr 0.00 in0.0 mm
12:48 AM 41.6°F5.3°C 27.9°F-2.3°C 58% 4.0 mph NNE6.4 kmh NNE 9.0 mph14.5 kmh 30.22 in1023.4 mb 0.00 in0.0 mm 0.00 in/hr0.0 mm/hr 0.00 in0.0 mm
12:49 AM 41.6°F5.3°C 27.9°F-2.3°C 58% 3.0 mph NNE4.8 kmh NNE 9.0 mph14.5 kmh 30.22 in1023.4 mb 0.00 in0.0 mm 0.00 in/hr0.0 mm/hr 0.00 in0.0 mm
12:50 AM 41.6°F5.3°C 27.9°F-2.3°C 58% 4.0 mph NNE6.4 kmh NNE 9.0 mph14.5 kmh 30.22 in1023.4 mb 0.00 in0.0 mm 0.00 in/hr0.0 mm/hr 0.00 in0.0 mm
12:53 AM 41.6°F5.3°C 27.9°F-2.3°C 58% 4.0 mph NNE6.4 kmh NNE 9.0 mph14.5 kmh 30.22 in1023.4 mb 0.00 in0.0 mm 0.00 in/hr0.0 mm/hr 0.00 in0.0 mm
12:54 AM 41.6°F5.3°C 27.9°F-2.3°C 58% 3.0 mph NNE4.8 kmh NNE 9.0 mph14.5 kmh 30.22 in1023.4 mb 0.00 in0.0 mm 0.00 in/hr0.0 mm/hr 0.00 in0.0 mm
12:55 AM 41.6°F5.3°C 27.9°F-2.3°C 58% 6.0 mph N9.7 kmh N 9.0 mph14.5 kmh 30.22 in1023.4 mb 0.00 in0.0 mm 0.00 in/hr0.0 mm/hr 0.00 in0.0 mm
12:58 AM 41.5°F5.3°C 27.8°F-2.3°C 58% 1.0 mph NNE1.6 kmh NNE 9.0 mph14.5 kmh 30.22 in1023.4 mb 0.00 in0.0 mm 0.00 in/hr0.0 mm/hr 0.00 in0.0 mm
12:59 AM 41.5°F5.3°C 27.8°F-2.3°C 58% 3.0 mph N4.8 kmh N 9.0 mph14.5 kmh 30.22 in1023.4 mb 0.00 in0.0 mm 0.00 in/hr0.0 mm/hr 0.00 in0.0 mm
01:00 AM 41.5°F5.3°C 27.8°F-2.3°C 58% 2.0 mph N3.2 kmh N 2.0 mph3.2 kmh 30.22 in1023.4 mb 0.00 in0.0 mm 0.00 in/hr0.0 mm/hr 0.00 in0.0 mm
01:03 AM 41.5°F5.3°C 27.8°F-2.3°C 58% 1.0 mph N1.6 kmh N 4.0 mph6.4 kmh 30.22 in1023.4 mb 0.00 in0.0 mm 0.00 in/hr0.0 mm/hr 0.00 in0.0 mm
01:04 AM 41.5°F5.3°C 27.8°F-2.3°C 58% 2.0 mph NNE3.2 kmh NNE 5.0 mph8.0 kmh 30.22 in1023.4 mb 0.00 in0.0 mm 0.00 in/hr0.0 mm/hr 0.00 in0.0 mm
01:05 AM 41.4°F5.2°C 27.8°F-2.3°C 58% 6.0 mph NNE9.7 kmh NNE 6.0 mph9.7 kmh 30.22 in1023.4 mb 0.00 in0.0 mm 0.00 in/hr0.0 mm/hr 0.00 in0.0 mm
01:08 AM 41.4°F5.2°C 27.8°F-2.3°C 58% 2.0 mph NNE3.2 kmh NNE 6.0 mph9.7 kmh 30.22 in1023.4 mb 0.00 in0.0 mm 0.00 in/hr0.0 mm/hr 0.00 in0.0 mm
01:09 AM 41.4°F5.2°C 27.8°F-2.3°C 58% 2.0 mph NNE3.2 kmh NNE 6.0 mph9.7 kmh 30.22 in1023.4 mb 0.00 in0.0 mm 0.00 in/hr0.0 mm/hr 0.00 in0.0 mm
01:10 AM 41.4°F5.2°C 28.2°F-2.1°C 59% 4.0 mph NNE6.4 kmh NNE 6.0 mph9.7 kmh 30.22 in1023.4 mb 0.00 in0.0 mm 0.00 in/hr0.0 mm/hr 0.00 in0.0 mm
01:13 AM 41.3°F5.2°C 28.1°F-2.2°C 59% 2.0 mph NNE3.2 kmh NNE 6.0 mph9.7 kmh 30.22 in1023.4 mb 0.00 in0.0 mm 0.00 in/hr0.0 mm/hr 0.00 in0.0 mm
01:14 AM 41.3°F5.2°C 28.1°F-2.2°C 59% 2.0 mph NNE3.2 kmh NNE 6.0 mph9.7 kmh 30.22 in1023.4 mb 0.00 in0.0 mm 0.00 in/hr0.0 mm/hr 0.00 in0.0 mm
01:15 AM 41.2°F5.1°C 28.0°F-2.2°C 59% 2.0 mph NNE3.2 kmh NNE 6.0 mph9.7 kmh 30.22 in1023.4 mb 0.00 in0.0 mm 0.00 in/hr0.0 mm/hr 0.00 in0.0 mm
01:18 AM 41.1°F5.1°C 27.9°F-2.3°C 59% 4.0 mph NNE6.4 kmh NNE 6.0 mph9.7 kmh 30.22 in1023.4 mb 0.00 in0.0 mm 0.00 in/hr0.0 mm/hr 0.00 in0.0 mm
01:19 AM 41.1°F5.1°C 27.9°F-2.3°C 59% 3.0 mph NNE4.8 kmh NNE 6.0 mph9.7 kmh 30.22 in1023.4 mb 0.00 in0.0 mm 0.00 in/hr0.0 mm/hr 0.00 in0.0 mm
01:20 AM 41.1°F5.1°C 27.9°F-2.3°C 59% 1.0 mph NNE1.6 kmh NNE 6.0 mph9.7 kmh 30.22 in1023.4 mb 0.00 in0.0 mm 0.00 in/hr0.0 mm/hr 0.00 in0.0 mm
01:23 AM 41.1°F5.1°C 27.9°F-2.3°C 59% 5.0 mph NNE8.0 kmh NNE 6.0 mph9.7 kmh 30.22 in1023.4 mb 0.00 in0.0 mm 0.00 in/hr0.0 mm/hr 0.00 in0.0 mm
01:24 AM 41.1°F5.1°C 27.9°F-2.3°C 59% 6.0 mph NNE9.7 kmh NNE 6.0 mph9.7 kmh 30.22 in1023.4 mb 0.00 in0.0 mm 0.00 in/hr0.0 mm/hr 0.00 in0.0 mm
01:25 AM 41.1°F5.1°C 29.1°F-1.6°C 62% 1.0 mph NNE1.6 kmh NNE 6.0 mph9.7 kmh 30.22 in1023.4 mb 0.00 in0.0 mm 0.00 in/hr0.0 mm/hr 0.00 in0.0 mm
01:28 AM 41.1°F5.1°C 29.1°F-1.6°C 62% 3.0 mph NNE4.8 kmh NNE 6.0 mph9.7 kmh 30.22 in1023.4 mb 0.00 in0.0 mm 0.00 in/hr0.0 mm/hr 0.00 in0.0 mm
01:29 AM 41.1°F5.1°C 27.9°F-2.3°C 59% 4.0 mph NNE6.4 kmh NNE 6.0 mph9.7 kmh 30.22 in1023.4 mb 0.00 in0.0 mm 0.00 in/hr0.0 mm/hr 0.00 in0.0 mm
01:30 AM 41.1°F5.1°C 27.9°F-2.3°C 59% 4.0 mph NNE6.4 kmh NNE 6.0 mph9.7 kmh 30.22 in1023.4 mb 0.00 in0.0 mm 0.00 in/hr0.0 mm/hr 0.00 in0.0 mm
01:33 AM 41.0°F5.0°C 27.8°F-2.3°C 59% 4.0 mph NNE6.4 kmh NNE 6.0 mph9.7 kmh 30.22 in1023.4 mb 0.00 in0.0 mm 0.00 in/hr0.0 mm/hr 0.00 in0.0 mm
01:34 AM 41.1°F5.1°C 27.9°F-2.3°C 59% 3.0 mph N4.8 kmh N 7.0 mph11.3 kmh 30.22 in1023.4 mb 0.00 in0.0 mm 0.00 in/hr0.0 mm/hr 0.00 in0.0 mm
01:35 AM 41.0°F5.0°C 27.8°F-2.3°C 59% 3.0 mph NNE4.8 kmh NNE 7.0 mph11.3 kmh 30.22 in1023.4 mb 0.00 in0.0 mm 0.00 in/hr0.0 mm/hr 0.00 in0.0 mm
01:38 AM 41.0°F5.0°C 27.8°F-2.3°C 59% 2.0 mph NNE3.2 kmh NNE 7.0 mph11.3 kmh 30.22 in1023.4 mb 0.00 in0.0 mm 0.00 in/hr0.0 mm/hr 0.00 in0.0 mm
01:39 AM 41.0°F5.0°C 27.8°F-2.3°C 59% 2.0 mph NNE3.2 kmh NNE 7.0 mph11.3 kmh 30.22 in1023.4 mb 0.00 in0.0 mm 0.00 in/hr0.0 mm/hr 0.00 in0.0 mm
01:40 AM 41.0°F5.0°C 27.8°F-2.3°C 59% 2.0 mph NNE3.2 kmh NNE 7.0 mph11.3 kmh 30.22 in1023.4 mb 0.00 in0.0 mm 0.00 in/hr0.0 mm/hr 0.00 in0.0 mm
01:43 AM 41.0°F5.0°C 27.8°F-2.3°C 59% 2.0 mph NNE3.2 kmh NNE 7.0 mph11.3 kmh 30.22 in1023.4 mb 0.00 in0.0 mm 0.00 in/hr0.0 mm/hr 0.00 in0.0 mm
01:44 AM 41.0°F5.0°C 27.8°F-2.3°C 59% 3.0 mph NNE4.8 kmh NNE 7.0 mph11.3 kmh 30.22 in1023.4 mb 0.00 in0.0 mm 0.00 in/hr0.0 mm/hr 0.00 in0.0 mm
01:45 AM 41.0°F5.0°C 27.8°F-2.3°C 59% 3.0 mph NNE4.8 kmh NNE 7.0 mph11.3 kmh 30.22 in1023.4 mb 0.00 in0.0 mm 0.00 in/hr0.0 mm/hr 0.00 in0.0 mm
01:48 AM 40.9°F4.9°C 28.1°F-2.2°C 60% 3.0 mph N4.8 kmh N 7.0 mph11.3 kmh 30.22 in1023.4 mb 0.00 in0.0 mm 0.00 in/hr0.0 mm/hr 0.00 in0.0 mm
01:49 AM 40.8°F4.9°C 28.0°F-2.2°C 60% 3.0 mph N4.8 kmh N 7.0 mph11.3 kmh 30.22 in1023.4 mb 0.00 in0.0 mm 0.00 in/hr0.0 mm/hr 0.00 in0.0 mm
01:50 AM 40.8°F4.9°C 28.0°F-2.2°C 60% Calm Calm 7.0 mph11.3 kmh 30.22 in1023.4 mb 0.00 in0.0 mm 0.00 in/hr0.0 mm/hr 0.00 in0.0 mm
01:53 AM 40.8°F4.9°C 28.0°F-2.2°C 60% 1.0 mph NNE1.6 kmh NNE 7.0 mph11.3 kmh 30.22 in1023.4 mb 0.00 in0.0 mm 0.00 in/hr0.0 mm/hr 0.00 in0.0 mm
01:54 AM 40.8°F4.9°C 28.0°F-2.2°C 60% 1.0 mph NNE1.6 kmh NNE 7.0 mph11.3 kmh 30.22 in1023.4 mb 0.00 in0.0 mm 0.00 in/hr0.0 mm/hr 0.00 in0.0 mm
01:55 AM 40.8°F4.9°C 28.0°F-2.2°C 60% 1.0 mph NNE1.6 kmh NNE 7.0 mph11.3 kmh 30.22 in1023.4 mb 0.00 in0.0 mm 0.00 in/hr0.0 mm/hr 0.00 in0.0 mm
01:58 AM 40.7°F4.8°C 27.9°F-2.3°C 60% 1.0 mph N1.6 kmh N 7.0 mph11.3 kmh 30.22 in1023.4 mb 0.00 in0.0 mm 0.00 in/hr0.0 mm/hr 0.00 in0.0 mm
01:59 AM 40.7°F4.8°C 27.9°F-2.3°C 60% 2.0 mph N3.2 kmh N 7.0 mph11.3 kmh 30.22 in1023.4 mb 0.00 in0.0 mm 0.00 in/hr0.0 mm/hr 0.00 in0.0 mm
02:00 AM 40.6°F4.8°C 27.8°F-2.3°C 60% 6.0 mph N9.7 kmh N 7.0 mph11.3 kmh 30.22 in1023.4 mb 0.00 in0.0 mm 0.00 in/hr0.0 mm/hr 0.00 in0.0 mm
02:03 AM 40.6°F4.8°C 27.8°F-2.3°C 60% 2.0 mph NNE3.2 kmh NNE 7.0 mph11.3 kmh 30.22 in1023.4 mb 0.00 in0.0 mm 0.00 in/hr0.0 mm/hr 0.00 in0.0 mm
02:04 AM 40.6°F4.8°C 27.8°F-2.3°C 60% 4.0 mph NNE6.4 kmh NNE 8.0 mph12.9 kmh 30.22 in1023.4 mb 0.00 in0.0 mm 0.00 in/hr0.0 mm/hr 0.00 in0.0 mm
02:05 AM 40.6°F4.8°C 27.8°F-2.3°C 60% 4.0 mph NNE6.4 kmh NNE 8.0 mph12.9 kmh 30.22 in1023.4 mb 0.00 in0.0 mm 0.00 in/hr0.0 mm/hr 0.00 in0.0 mm
02:08 AM 40.6°F4.8°C 28.2°F-2.1°C 61% 4.0 mph N6.4 kmh N 8.0 mph12.9 kmh 30.22 in1023.4 mb 0.00 in0.0 mm 0.00 in/hr0.0 mm/hr 0.00 in0.0 mm
02:09 AM 40.6°F4.8°C 28.2°F-2.1°C 61% 4.0 mph N6.4 kmh N 8.0 mph12.9 kmh 30.22 in1023.4 mb 0.00 in0.0 mm 0.00 in/hr0.0 mm/hr 0.00 in0.0 mm
02:10 AM 40.5°F4.7°C 28.1°F-2.2°C 61% 2.0 mph N3.2 kmh N 8.0 mph12.9 kmh 30.22 in1023.4 mb 0.00 in0.0 mm 0.00 in/hr0.0 mm/hr 0.00 in0.0 mm
02:13 AM 40.5°F4.7°C 28.1°F-2.2°C 61% 4.0 mph N6.4 kmh N 8.0 mph12.9 kmh 30.22 in1023.4 mb 0.00 in0.0 mm 0.00 in/hr0.0 mm/hr 0.00 in0.0 mm
02:14 AM 40.5°F4.7°C 28.1°F-2.2°C 61% 1.0 mph NNE1.6 kmh NNE 8.0 mph12.9 kmh 30.22 in1023.4 mb 0.00 in0.0 mm 0.00 in/hr0.0 mm/hr 0.00 in0.0 mm
02:15 AM 40.5°F4.7°C 28.1°F-2.2°C 61% 5.0 mph NNE8.0 kmh NNE 8.0 mph12.9 kmh 30.22 in1023.4 mb 0.00 in0.0 mm 0.00 in/hr0.0 mm/hr 0.00 in0.0 mm
02:18 AM 40.5°F4.7°C 28.1°F-2.2°C 61% 3.0 mph NNE4.8 kmh NNE 8.0 mph12.9 kmh 30.22 in1023.4 mb 0.00 in0.0 mm 0.00 in/hr0.0 mm/hr 0.00 in0.0 mm
02:19 AM 40.5°F4.7°C 28.1°F-2.2°C 61% 4.0 mph NNE6.4 kmh NNE 8.0 mph12.9 kmh 30.22 in1023.4 mb 0.00 in0.0 mm 0.00 in/hr0.0 mm/hr 0.00 in0.0 mm
02:20 AM 40.4°F4.7°C 28.0°F-2.2°C 61% Calm Calm 8.0 mph12.9 kmh 30.22 in1023.4 mb 0.00 in0.0 mm 0.00 in/hr0.0 mm/hr 0.00 in0.0 mm
02:23 AM 40.4°F4.7°C 28.0°F-2.2°C 61% 4.0 mph NNE6.4 kmh NNE 8.0 mph12.9 kmh 30.22 in1023.4 mb 0.00 in0.0 mm 0.00 in/hr0.0 mm/hr 0.00 in0.0 mm
02:24 AM 40.4°F4.7°C 28.0°F-2.2°C 61% 2.0 mph NNE3.2 kmh NNE 8.0 mph12.9 kmh 30.22 in1023.4 mb 0.00 in0.0 mm 0.00 in/hr0.0 mm/hr 0.00 in0.0 mm
02:25 AM 40.4°F4.7°C 28.0°F-2.2°C 61% 2.0 mph NNE3.2 kmh NNE 8.0 mph12.9 kmh 30.22 in1023.4 mb 0.00 in0.0 mm 0.00 in/hr0.0 mm/hr 0.00 in0.0 mm
02:28 AM 40.4°F4.7°C 28.0°F-2.2°C 61% 3.0 mph N4.8 kmh N 8.0 mph12.9 kmh 30.22 in1023.4 mb 0.00 in0.0 mm 0.00 in/hr0.0 mm/hr 0.00 in0.0 mm
02:29 AM 40.4°F4.7°C 28.0°F-2.2°C 61% 1.0 mph NNE1.6 kmh NNE 8.0 mph12.9 kmh 30.22 in1023.4 mb 0.00 in0.0 mm 0.00 in/hr0.0 mm/hr 0.00 in0.0 mm
02:30 AM 40.4°F4.7°C 28.0°F-2.2°C 61% 3.0 mph N4.8 kmh N 8.0 mph12.9 kmh 30.23 in1023.7 mb 0.00 in0.0 mm 0.00 in/hr0.0 mm/hr 0.00 in0.0 mm
02:33 AM 40.3°F4.6°C 28.3°F-2.1°C 62% Calm Calm 8.0 mph12.9 kmh 30.22 in1023.4 mb 0.00 in0.0 mm 0.00 in/hr0.0 mm/hr 0.00 in0.0 mm
02:34 AM 40.3°F4.6°C 28.3°F-2.1°C 62% 1.0 mph N1.6 kmh N 8.0 mph12.9 kmh 30.22 in1023.4 mb 0.00 in0.0 mm 0.00 in/hr0.0 mm/hr 0.00 in0.0 mm
02:35 AM 40.3°F4.6°C 28.3°F-2.1°C 62% 1.0 mph N1.6 kmh N 8.0 mph12.9 kmh 30.22 in1023.4 mb 0.00 in0.0 mm 0.00 in/hr0.0 mm/hr 0.00 in0.0 mm
02:38 AM 40.2°F4.6°C 28.2°F-2.1°C 62% 1.0 mph N1.6 kmh N 8.0 mph12.9 kmh 30.22 in1023.4 mb 0.00 in0.0 mm 0.00 in/hr0.0 mm/hr 0.00 in0.0 mm
02:39 AM 40.2°F4.6°C 28.2°F-2.1°C 62% 2.0 mph N3.2 kmh N 8.0 mph12.9 kmh 30.22 in1023.4 mb 0.00 in0.0 mm 0.00 in/hr0.0 mm/hr 0.00 in0.0 mm
02:40 AM 40.2°F4.6°C 28.2°F-2.1°C 62% 1.0 mph N1.6 kmh N 8.0 mph12.9 kmh 30.22 in1023.4 mb 0.00 in0.0 mm 0.00 in/hr0.0 mm/hr 0.00 in0.0 mm
02:43 AM 40.1°F4.5°C 28.1°F-2.2°C 62% 1.0 mph N1.6 kmh N 8.0 mph12.9 kmh 30.22 in1023.4 mb 0.00 in0.0 mm 0.00 in/hr0.0 mm/hr 0.00 in0.0 mm
02:44 AM 40.1°F4.5°C 28.1°F-2.2°C 62% 2.0 mph N3.2 kmh N 8.0 mph12.9 kmh 30.22 in1023.4 mb 0.00 in0.0 mm 0.00 in/hr0.0 mm/hr 0.00 in0.0 mm
02:48 AM 40.1°F4.5°C 28.1°F-2.2°C 62% 3.0 mph N4.8 kmh N 8.0 mph12.9 kmh 30.22 in1023.4 mb 0.00 in0.0 mm 0.00 in/hr0.0 mm/hr 0.00 in0.0 mm
02:49 AM 40.0°F4.4°C 28.1°F-2.2°C 62% 3.0 mph NNE4.8 kmh NNE 8.0 mph12.9 kmh 30.22 in1023.4 mb 0.00 in0.0 mm 0.00 in/hr0.0 mm/hr 0.00 in0.0 mm
02:50 AM 40.0°F4.4°C 28.1°F-2.2°C 62% Calm Calm 8.0 mph12.9 kmh 30.22 in1023.4 mb 0.00 in0.0 mm 0.00 in/hr0.0 mm/hr 0.00 in0.0 mm
02:53 AM 40.1°F4.5°C 28.1°F-2.2°C 62% 3.0 mph NNE4.8 kmh NNE 8.0 mph12.9 kmh 30.22 in1023.4 mb 0.00 in0.0 mm 0.00 in/hr0.0 mm/hr 0.00 in0.0 mm
02:54 AM 40.1°F4.5°C 28.1°F-2.2°C 62% 2.0 mph NNE3.2 kmh NNE 8.0 mph12.9 kmh 30.22 in1023.4 mb 0.00 in0.0 mm 0.00 in/hr0.0 mm/hr 0.00 in0.0 mm
02:55 AM 40.1°F4.5°C 28.1°F-2.2°C 62% 3.0 mph NNE4.8 kmh NNE 8.0 mph12.9 kmh 30.22 in1023.4 mb 0.00 in0.0 mm 0.00 in/hr0.0 mm/hr 0.00 in0.0 mm
02:58 AM 40.2°F4.6°C 28.2°F-2.1°C 62% 3.0 mph N4.8 kmh N 8.0 mph12.9 kmh 30.22 in1023.4 mb 0.00 in0.0 mm 0.00 in/hr0.0 mm/hr 0.00 in0.0 mm
02:59 AM 40.2°F4.6°C 28.2°F-2.1°C 62% 1.0 mph N1.6 kmh N 8.0 mph12.9 kmh 30.22 in1023.4 mb 0.00 in0.0 mm 0.00 in/hr0.0 mm/hr 0.00 in0.0 mm
03:00 AM 40.3°F4.6°C 28.3°F-2.1°C 62% 3.0 mph NNE4.8 kmh NNE 5.0 mph8.0 kmh 30.22 in1023.4 mb 0.00 in0.0 mm 0.00 in/hr0.0 mm/hr 0.00 in0.0 mm
03:03 AM 40.3°F4.6°C 28.3°F-2.1°C 62% 2.0 mph NNE3.2 kmh NNE 5.0 mph8.0 kmh 30.22 in1023.4 mb 0.00 in0.0 mm 0.00 in/hr0.0 mm/hr 0.00 in0.0 mm
03:04 AM 40.3°F4.6°C 28.3°F-2.1°C 62% 1.0 mph NNE1.6 kmh NNE 5.0 mph8.0 kmh 30.22 in1023.4 mb 0.00 in0.0 mm 0.00 in/hr0.0 mm/hr 0.00 in0.0 mm
03:05 AM 40.2°F4.6°C 28.2°F-2.1°C 62% 2.0 mph NNE3.2 kmh NNE 5.0 mph8.0 kmh 30.22 in1023.4 mb 0.00 in0.0 mm 0.00 in/hr0.0 mm/hr 0.00 in0.0 mm
03:08 AM 40.2°F4.6°C 28.2°F-2.1°C 62% 6.0 mph N9.7 kmh N 6.0 mph9.7 kmh 30.22 in1023.4 mb 0.00 in0.0 mm 0.00 in/hr0.0 mm/hr 0.00 in0.0 mm
03:09 AM 40.2°F4.6°C 28.2°F-2.1°C 62% 4.0 mph N6.4 kmh N 6.0 mph9.7 kmh 30.22 in1023.4 mb 0.00 in0.0 mm 0.00 in/hr0.0 mm/hr 0.00 in0.0 mm
03:10 AM 40.2°F4.6°C 28.2°F-2.1°C 62% 1.0 mph N1.6 kmh N 6.0 mph9.7 kmh 30.22 in1023.4 mb 0.00 in0.0 mm 0.00 in/hr0.0 mm/hr 0.00 in0.0 mm
03:13 AM 40.2°F4.6°C 28.2°F-2.1°C 62% 2.0 mph NNE3.2 kmh NNE 7.0 mph11.3 kmh 30.22 in1023.4 mb 0.00 in0.0 mm 0.00 in/hr0.0 mm/hr 0.00 in0.0 mm
03:14 AM 40.2°F4.6°C 28.6°F-1.9°C 63% 2.0 mph NNE3.2 kmh NNE 7.0 mph11.3 kmh 30.22 in1023.4 mb 0.00 in0.0 mm 0.00 in/hr0.0 mm/hr 0.00 in0.0 mm
03:15 AM 40.1°F4.5°C 28.5°F-1.9°C 63% 3.0 mph NNE4.8 kmh NNE 7.0 mph11.3 kmh 30.22 in1023.4 mb 0.00 in0.0 mm 0.00 in/hr0.0 mm/hr 0.00 in0.0 mm
03:18 AM 40.1°F4.5°C 28.1°F-2.2°C 62% Calm Calm 7.0 mph11.3 kmh 30.22 in1023.4 mb 0.00 in0.0 mm 0.00 in/hr0.0 mm/hr 0.00 in0.0 mm
03:19 AM 40.1°F4.5°C 28.5°F-1.9°C 63% 2.0 mph NNE3.2 kmh NNE 7.0 mph11.3 kmh 30.22 in1023.4 mb 0.00 in0.0 mm 0.00 in/hr0.0 mm/hr 0.00 in0.0 mm
03:20 AM 40.0°F4.4°C 28.4°F-2.0°C 63% 2.0 mph NNE3.2 kmh NNE 7.0 mph11.3 kmh 30.23 in1023.7 mb 0.00 in0.0 mm 0.00 in/hr0.0 mm/hr 0.00 in0.0 mm
03:23 AM 39.9°F4.4°C 28.3°F-2.1°C 63% Calm Calm 7.0 mph11.3 kmh 30.23 in1023.7 mb 0.00 in0.0 mm 0.00 in/hr0.0 mm/hr 0.00 in0.0 mm
03:24 AM 39.8°F4.3°C 28.3°F-2.1°C 63% 1.0 mph NNE1.6 kmh NNE 7.0 mph11.3 kmh 30.23 in1023.7 mb 0.00 in0.0 mm 0.00 in/hr0.0 mm/hr 0.00 in0.0 mm
03:25 AM 39.8°F4.3°C 28.3°F-2.1°C 63% Calm Calm 7.0 mph11.3 kmh 30.23 in1023.7 mb 0.00 in0.0 mm 0.00 in/hr0.0 mm/hr 0.00 in0.0 mm
03:28 AM 39.6°F4.2°C 28.1°F-2.2°C 63% 1.0 mph NNE1.6 kmh NNE 7.0 mph11.3 kmh 30.23 in1023.7 mb 0.00 in0.0 mm 0.00 in/hr0.0 mm/hr 0.00 in0.0 mm
03:29 AM 39.5°F4.2°C 28.4°F-2.0°C 64% 1.0 mph NNE1.6 kmh NNE 7.0 mph11.3 kmh 30.23 in1023.7 mb 0.00 in0.0 mm 0.00 in/hr0.0 mm/hr 0.00 in0.0 mm
03:30 AM 39.5°F4.2°C 28.4°F-2.0°C 64% Calm Calm 7.0 mph11.3 kmh 30.23 in1023.7 mb 0.00 in0.0 mm 0.00 in/hr0.0 mm/hr 0.00 in0.0 mm
03:33 AM 39.4°F4.1°C 28.3°F-2.1°C 64% 2.0 mph NNE3.2 kmh NNE 7.0 mph11.3 kmh 30.23 in1023.7 mb 0.00 in0.0 mm 0.00 in/hr0.0 mm/hr 0.00 in0.0 mm
03:34 AM 39.3°F4.1°C 28.2°F-2.1°C 64% 4.0 mph NNE6.4 kmh NNE 7.0 mph11.3 kmh 30.23 in1023.7 mb 0.00 in0.0 mm 0.00 in/hr0.0 mm/hr 0.00 in0.0 mm
03:35 AM 39.3°F4.1°C 28.2°F-2.1°C 64% 2.0 mph NNE3.2 kmh NNE 7.0 mph11.3 kmh 30.23 in1023.7 mb 0.00 in0.0 mm 0.00 in/hr0.0 mm/hr 0.00 in0.0 mm
03:38 AM 39.1°F3.9°C 28.3°F-2.1°C 65% 2.0 mph N3.2 kmh N 7.0 mph11.3 kmh 30.23 in1023.7 mb 0.00 in0.0 mm 0.00 in/hr0.0 mm/hr 0.00 in0.0 mm
03:39 AM 39.0°F3.9°C 28.3°F-2.1°C 65% Calm Calm 7.0 mph11.3 kmh 30.23 in1023.7 mb 0.00 in0.0 mm 0.00 in/hr0.0 mm/hr 0.00 in0.0 mm
03:40 AM 39.0°F3.9°C 28.3°F-2.1°C 65% 2.0 mph N3.2 kmh N 7.0 mph11.3 kmh 30.23 in1023.7 mb 0.00 in0.0 mm 0.00 in/hr0.0 mm/hr 0.00 in0.0 mm
03:43 AM 38.9°F3.8°C 28.2°F-2.1°C 65% 2.0 mph NNE3.2 kmh NNE 7.0 mph11.3 kmh 30.23 in1023.7 mb 0.00 in0.0 mm 0.00 in/hr0.0 mm/hr 0.00 in0.0 mm
03:44 AM 38.9°F3.8°C 28.2°F-2.1°C 65% 2.0 mph NNE3.2 kmh NNE 7.0 mph11.3 kmh 30.23 in1023.7 mb 0.00 in0.0 mm 0.00 in/hr0.0 mm/hr 0.00 in0.0 mm
03:45 AM 38.9°F3.8°C 28.2°F-2.1°C 65% 4.0 mph NNE6.4 kmh NNE 7.0 mph11.3 kmh 30.23 in1023.7 mb 0.00 in0.0 mm 0.00 in/hr0.0 mm/hr 0.00 in0.0 mm
03:48 AM 38.9°F3.8°C 28.2°F-2.1°C 65% 1.0 mph NNE1.6 kmh NNE 7.0 mph11.3 kmh 30.23 in1023.7 mb 0.00 in0.0 mm 0.00 in/hr0.0 mm/hr 0.00 in0.0 mm
03:49 AM 38.9°F3.8°C 28.5°F-1.9°C 66% Calm Calm 7.0 mph11.3 kmh 30.24 in1024.0 mb 0.00 in0.0 mm 0.00 in/hr0.0 mm/hr 0.00 in0.0 mm
03:50 AM 38.9°F3.8°C 28.2°F-2.1°C 65% 4.0 mph NNE6.4 kmh NNE 7.0 mph11.3 kmh 30.24 in1024.0 mb 0.00 in0.0 mm 0.00 in/hr0.0 mm/hr 0.00 in0.0 mm
03:53 AM 38.8°F3.8°C 28.1°F-2.2°C 65% 1.0 mph NNE1.6 kmh NNE 7.0 mph11.3 kmh 30.24 in1024.0 mb 0.00 in0.0 mm 0.00 in/hr0.0 mm/hr 0.00 in0.0 mm
03:54 AM 38.8°F3.8°C 28.1°F-2.2°C 65% 1.0 mph NNE1.6 kmh NNE 7.0 mph11.3 kmh 30.24 in1024.0 mb 0.00 in0.0 mm 0.00 in/hr0.0 mm/hr 0.00 in0.0 mm
03:55 AM 38.7°F3.7°C 28.3°F-2.1°C 66% 2.0 mph NNE3.2 kmh NNE 7.0 mph11.3 kmh 30.24 in1024.0 mb 0.00 in0.0 mm 0.00 in/hr0.0 mm/hr 0.00 in0.0 mm
03:58 AM 38.7°F3.7°C 28.3°F-2.1°C 66% 3.0 mph NNE4.8 kmh NNE 7.0 mph11.3 kmh 30.23 in1023.7 mb 0.00 in0.0 mm 0.00 in/hr0.0 mm/hr 0.00 in0.0 mm
03:59 AM 38.7°F3.7°C 28.3°F-2.1°C 66% 4.0 mph NNE6.4 kmh NNE 7.0 mph11.3 kmh 30.23 in1023.7 mb 0.00 in0.0 mm 0.00 in/hr0.0 mm/hr 0.00 in0.0 mm
04:00 AM 38.7°F3.7°C 28.3°F-2.1°C 66% 5.0 mph NNE8.0 kmh NNE 5.0 mph8.0 kmh 30.23 in1023.7 mb 0.00 in0.0 mm 0.00 in/hr0.0 mm/hr 0.00 in0.0 mm
04:03 AM 38.6°F3.7°C 28.2°F-2.1°C 66% 7.0 mph N11.3 kmh N 8.0 mph12.9 kmh 30.23 in1023.7 mb 0.00 in0.0 mm 0.00 in/hr0.0 mm/hr 0.00 in0.0 mm
04:04 AM 38.5°F3.6°C 28.1°F-2.2°C 66% 6.0 mph N9.7 kmh N 8.0 mph12.9 kmh 30.24 in1024.0 mb 0.00 in0.0 mm 0.00 in/hr0.0 mm/hr 0.00 in0.0 mm
04:08 AM 38.5°F3.6°C 28.1°F-2.2°C 66% 3.0 mph NE4.8 kmh NE 8.0 mph12.9 kmh 30.24 in1024.0 mb 0.00 in0.0 mm 0.00 in/hr0.0 mm/hr 0.00 in0.0 mm
04:09 AM 38.5°F3.6°C 28.1°F-2.2°C 66% 4.0 mph NE6.4 kmh NE 8.0 mph12.9 kmh 30.24 in1024.0 mb 0.00 in0.0 mm 0.00 in/hr0.0 mm/hr 0.00 in0.0 mm
04:10 AM 38.4°F3.6°C 28.1°F-2.2°C 66% 4.0 mph NNE6.4 kmh NNE 8.0 mph12.9 kmh 30.24 in1024.0 mb 0.00 in0.0 mm 0.00 in/hr0.0 mm/hr 0.00 in0.0 mm
04:13 AM 38.4°F3.6°C 28.1°F-2.2°C 66% 4.0 mph N6.4 kmh N 8.0 mph12.9 kmh 30.24 in1024.0 mb 0.00 in0.0 mm 0.00 in/hr0.0 mm/hr 0.00 in0.0 mm
04:14 AM 38.4°F3.6°C 28.1°F-2.2°C 66% 2.0 mph N3.2 kmh N 8.0 mph12.9 kmh 30.24 in1024.0 mb 0.00 in0.0 mm 0.00 in/hr0.0 mm/hr 0.00 in0.0 mm
04:15 AM 38.4°F3.6°C 28.1°F-2.2°C 66% 5.0 mph N8.0 kmh N 8.0 mph12.9 kmh 30.24 in1024.0 mb 0.00 in0.0 mm 0.00 in/hr0.0 mm/hr 0.00 in0.0 mm
04:18 AM 38.3°F3.5°C 28.3°F-2.1°C 67% 5.0 mph N8.0 kmh N 8.0 mph12.9 kmh 30.24 in1024.0 mb 0.00 in0.0 mm 0.00 in/hr0.0 mm/hr 0.00 in0.0 mm
04:19 AM 38.4°F3.6°C 28.4°F-2.0°C 67% 2.0 mph N3.2 kmh N 8.0 mph12.9 kmh 30.24 in1024.0 mb 0.00 in0.0 mm 0.00 in/hr0.0 mm/hr 0.00 in0.0 mm
04:20 AM 38.4°F3.6°C 28.4°F-2.0°C 67% 2.0 mph N3.2 kmh N 8.0 mph12.9 kmh 30.24 in1024.0 mb 0.00 in0.0 mm 0.00 in/hr0.0 mm/hr 0.00 in0.0 mm
04:23 AM 38.3°F3.5°C 28.3°F-2.1°C 67% 6.0 mph NNE9.7 kmh NNE 8.0 mph12.9 kmh 30.24 in1024.0 mb 0.00 in0.0 mm 0.00 in/hr0.0 mm/hr 0.00 in0.0 mm
04:24 AM 38.3°F3.5°C 28.3°F-2.1°C 67% 3.0 mph NNE4.8 kmh NNE 8.0 mph12.9 kmh 30.24 in1024.0 mb 0.00 in0.0 mm 0.00 in/hr0.0 mm/hr 0.00 in0.0 mm
04:25 AM 38.3°F3.5°C 28.3°F-2.1°C 67% 5.0 mph NNE8.0 kmh NNE 8.0 mph12.9 kmh 30.24 in1024.0 mb 0.00 in0.0 mm 0.00 in/hr0.0 mm/hr 0.00 in0.0 mm
04:28 AM 38.2°F3.4°C 28.2°F-2.1°C 67% 2.0 mph N3.2 kmh N 8.0 mph12.9 kmh 30.24 in1024.0 mb 0.00 in0.0 mm 0.00 in/hr0.0 mm/hr 0.00 in0.0 mm
04:29 AM 38.2°F3.4°C 28.2°F-2.1°C 67% 4.0 mph N6.4 kmh N 8.0 mph12.9 kmh 30.24 in1024.0 mb 0.00 in0.0 mm 0.00 in/hr0.0 mm/hr 0.00 in0.0 mm
04:30 AM 38.1°F3.4°C 28.1°F-2.2°C 67% 8.0 mph NNE12.9 kmh NNE 8.0 mph12.9 kmh 30.24 in1024.0 mb 0.00 in0.0 mm 0.00 in/hr0.0 mm/hr 0.00 in0.0 mm
04:33 AM 38.0°F3.3°C 28.0°F-2.2°C 67% 5.0 mph NE8.0 kmh NE 8.0 mph12.9 kmh 30.24 in1024.0 mb 0.00 in0.0 mm 0.00 in/hr0.0 mm/hr 0.00 in0.0 mm
04:34 AM 38.0°F3.3°C 28.0°F-2.2°C 67% 7.0 mph NE11.3 kmh NE 8.0 mph12.9 kmh 30.24 in1024.0 mb 0.00 in0.0 mm 0.00 in/hr0.0 mm/hr 0.00 in0.0 mm
04:35 AM 38.0°F3.3°C 28.0°F-2.2°C 67% 5.0 mph NE8.0 kmh NE 8.0 mph12.9 kmh 30.24 in1024.0 mb 0.00 in0.0 mm 0.00 in/hr0.0 mm/hr 0.00 in0.0 mm
04:38 AM 38.0°F3.3°C 28.0°F-2.2°C 67% 3.0 mph NNE4.8 kmh NNE 8.0 mph12.9 kmh 30.24 in1024.0 mb 0.00 in0.0 mm 0.00 in/hr0.0 mm/hr 0.00 in0.0 mm
04:39 AM 38.0°F3.3°C 28.0°F-2.2°C 67% 2.0 mph NNE3.2 kmh NNE 8.0 mph12.9 kmh 30.24 in1024.0 mb 0.00 in0.0 mm 0.00 in/hr0.0 mm/hr 0.00 in0.0 mm
04:40 AM 38.0°F3.3°C 28.0°F-2.2°C 67% 5.0 mph NNE8.0 kmh NNE 8.0 mph12.9 kmh 30.24 in1024.0 mb 0.00 in0.0 mm 0.00 in/hr0.0 mm/hr 0.00 in0.0 mm
04:43 AM 38.0°F3.3°C 28.0°F-2.2°C 67% 7.0 mph NNE11.3 kmh NNE 9.0 mph14.5 kmh 30.25 in1024.4 mb 0.00 in0.0 mm 0.00 in/hr0.0 mm/hr 0.00 in0.0 mm
04:44 AM 38.0°F3.3°C 28.0°F-2.2°C 67% 7.0 mph N11.3 kmh N 9.0 mph14.5 kmh 30.25 in1024.4 mb 0.00 in0.0 mm 0.00 in/hr0.0 mm/hr 0.00 in0.0 mm
04:45 AM 38.0°F3.3°C 28.0°F-2.2°C 67% 7.0 mph NNE11.3 kmh NNE 9.0 mph14.5 kmh 30.25 in1024.4 mb 0.00 in0.0 mm 0.00 in/hr0.0 mm/hr 0.00 in0.0 mm
04:48 AM 38.0°F3.3°C 28.0°F-2.2°C 67% 6.0 mph N9.7 kmh N 9.0 mph14.5 kmh 30.25 in1024.4 mb 0.00 in0.0 mm 0.00 in/hr0.0 mm/hr 0.00 in0.0 mm
04:49 AM 38.0°F3.3°C 28.0°F-2.2°C 67% 5.0 mph NNE8.0 kmh NNE 9.0 mph14.5 kmh 30.25 in1024.4 mb 0.00 in0.0 mm 0.00 in/hr0.0 mm/hr 0.00 in0.0 mm
04:50 AM 38.0°F3.3°C 28.0°F-2.2°C 67% 3.0 mph N4.8 kmh N 9.0 mph14.5 kmh 30.25 in1024.4 mb 0.00 in0.0 mm 0.00 in/hr0.0 mm/hr 0.00 in0.0 mm
04:53 AM 37.9°F3.3°C 27.9°F-2.3°C 67% 2.0 mph NNE3.2 kmh NNE 9.0 mph14.5 kmh 30.25 in1024.4 mb 0.00 in0.0 mm 0.00 in/hr0.0 mm/hr 0.00 in0.0 mm
04:54 AM 37.9°F3.3°C 27.9°F-2.3°C 67% 5.0 mph NNE8.0 kmh NNE 9.0 mph14.5 kmh 30.25 in1024.4 mb 0.00 in0.0 mm 0.00 in/hr0.0 mm/hr 0.00 in0.0 mm
04:55 AM 37.9°F3.3°C 28.3°F-2.1°C 68% 7.0 mph NNE11.3 kmh NNE 9.0 mph14.5 kmh 30.25 in1024.4 mb 0.00 in0.0 mm 0.00 in/hr0.0 mm/hr 0.00 in0.0 mm
04:58 AM 37.9°F3.3°C 27.9°F-2.3°C 67% 2.0 mph NNE3.2 kmh NNE 9.0 mph14.5 kmh 30.25 in1024.4 mb 0.00 in0.0 mm 0.00 in/hr0.0 mm/hr 0.00 in0.0 mm
04:59 AM 37.9°F3.3°C 28.3°F-2.1°C 68% 5.0 mph N8.0 kmh N 9.0 mph14.5 kmh 30.25 in1024.4 mb 0.00 in0.0 mm 0.00 in/hr0.0 mm/hr 0.00 in0.0 mm
05:00 AM 37.9°F3.3°C 28.3°F-2.1°C 68% 4.0 mph NNE6.4 kmh NNE 5.0 mph8.0 kmh 30.25 in1024.4 mb 0.00 in0.0 mm 0.00 in/hr0.0 mm/hr 0.00 in0.0 mm
05:03 AM 37.9°F3.3°C 28.3°F-2.1°C 68% 1.0 mph NNE1.6 kmh NNE 5.0 mph8.0 kmh 30.25 in1024.4 mb 0.00 in0.0 mm 0.00 in/hr0.0 mm/hr 0.00 in0.0 mm
05:04 AM 37.9°F3.3°C 28.3°F-2.1°C 68% 4.0 mph NNE6.4 kmh NNE 5.0 mph8.0 kmh 30.25 in1024.4 mb 0.00 in0.0 mm 0.00 in/hr0.0 mm/hr 0.00 in0.0 mm
05:05 AM 37.9°F3.3°C 28.3°F-2.1°C 68% 4.0 mph NNE6.4 kmh NNE 5.0 mph8.0 kmh 30.25 in1024.4 mb 0.00 in0.0 mm 0.00 in/hr0.0 mm/hr 0.00 in0.0 mm
05:08 AM 37.8°F3.2°C 28.2°F-2.1°C 68% 1.0 mph NNE1.6 kmh NNE 5.0 mph8.0 kmh 30.25 in1024.4 mb 0.00 in0.0 mm 0.00 in/hr0.0 mm/hr 0.00 in0.0 mm
05:09 AM 37.8°F3.2°C 28.2°F-2.1°C 68% 4.0 mph N6.4 kmh N 5.0 mph8.0 kmh 30.25 in1024.4 mb 0.00 in0.0 mm 0.00 in/hr0.0 mm/hr 0.00 in0.0 mm
05:10 AM 37.7°F3.2°C 28.1°F-2.2°C 68% 1.0 mph NNE1.6 kmh NNE 5.0 mph8.0 kmh 30.25 in1024.4 mb 0.00 in0.0 mm 0.00 in/hr0.0 mm/hr 0.00 in0.0 mm
05:13 AM 37.7°F3.2°C 28.1°F-2.2°C 68% 1.0 mph NNE1.6 kmh NNE 5.0 mph8.0 kmh 30.25 in1024.4 mb 0.00 in0.0 mm 0.00 in/hr0.0 mm/hr 0.00 in0.0 mm
05:14 AM 37.7°F3.2°C 28.1°F-2.2°C 68% 1.0 mph NNE1.6 kmh NNE 5.0 mph8.0 kmh 30.25 in1024.4 mb 0.00 in0.0 mm 0.00 in/hr0.0 mm/hr 0.00 in0.0 mm
05:15 AM 37.6°F3.1°C 28.0°F-2.2°C 68% 3.0 mph NNE4.8 kmh NNE 5.0 mph8.0 kmh 30.26 in1024.7 mb 0.00 in0.0 mm 0.00 in/hr0.0 mm/hr 0.00 in0.0 mm
05:18 AM 37.6°F3.1°C 28.0°F-2.2°C 68% 2.0 mph NNE3.2 kmh NNE 6.0 mph9.7 kmh 30.25 in1024.4 mb 0.00 in0.0 mm 0.00 in/hr0.0 mm/hr 0.00 in0.0 mm
05:19 AM 37.6°F3.1°C 28.0°F-2.2°C 68% 3.0 mph NNE4.8 kmh NNE 6.0 mph9.7 kmh 30.26 in1024.7 mb 0.00 in0.0 mm 0.00 in/hr0.0 mm/hr 0.00 in0.0 mm
05:20 AM 37.6°F3.1°C 28.0°F-2.2°C 68% 2.0 mph NNE3.2 kmh NNE 6.0 mph9.7 kmh 30.25 in1024.4 mb 0.00 in0.0 mm 0.00 in/hr0.0 mm/hr 0.00 in0.0 mm
05:23 AM 37.6°F3.1°C 28.4°F-2.0°C 69% 2.0 mph NNE3.2 kmh NNE 6.0 mph9.7 kmh 30.26 in1024.7 mb 0.00 in0.0 mm 0.00 in/hr0.0 mm/hr 0.00 in0.0 mm
05:24 AM 37.6°F3.1°C 28.4°F-2.0°C 69% 4.0 mph NNE6.4 kmh NNE 6.0 mph9.7 kmh 30.26 in1024.7 mb 0.00 in0.0 mm 0.00 in/hr0.0 mm/hr 0.00 in0.0 mm
05:25 AM 37.6°F3.1°C 28.4°F-2.0°C 69% 2.0 mph NNE3.2 kmh NNE 7.0 mph11.3 kmh 30.26 in1024.7 mb 0.00 in0.0 mm 0.00 in/hr0.0 mm/hr 0.00 in0.0 mm
05:28 AM 37.6°F3.1°C 28.4°F-2.0°C 69% 1.0 mph NNE1.6 kmh NNE 7.0 mph11.3 kmh 30.26 in1024.7 mb 0.00 in0.0 mm 0.00 in/hr0.0 mm/hr 0.00 in0.0 mm
05:29 AM 37.7°F3.2°C 28.5°F-1.9°C 69% 4.0 mph NNE6.4 kmh NNE 7.0 mph11.3 kmh 30.26 in1024.7 mb 0.00 in0.0 mm 0.00 in/hr0.0 mm/hr 0.00 in0.0 mm
05:30 AM 37.7°F3.2°C 28.5°F-1.9°C 69% 4.0 mph NNE6.4 kmh NNE 7.0 mph11.3 kmh 30.26 in1024.7 mb 0.00 in0.0 mm 0.00 in/hr0.0 mm/hr 0.00 in0.0 mm
05:33 AM 37.7°F3.2°C 28.1°F-2.2°C 68% 4.0 mph NNE6.4 kmh NNE 7.0 mph11.3 kmh 30.26 in1024.7 mb 0.00 in0.0 mm 0.00 in/hr0.0 mm/hr 0.00 in0.0 mm
05:34 AM 37.7°F3.2°C 28.5°F-1.9°C 69% Calm Calm 7.0 mph11.3 kmh 30.26 in1024.7 mb 0.00 in0.0 mm 0.00 in/hr0.0 mm/hr 0.00 in0.0 mm
05:35 AM 37.8°F3.2°C 28.6°F-1.9°C 69% 3.0 mph NNE4.8 kmh NNE 7.0 mph11.3 kmh 30.26 in1024.7 mb 0.00 in0.0 mm 0.00 in/hr0.0 mm/hr 0.00 in0.0 mm
05:38 AM 37.8°F3.2°C 28.2°F-2.1°C 68% 3.0 mph NNE4.8 kmh NNE 7.0 mph11.3 kmh 30.26 in1024.7 mb 0.00 in0.0 mm 0.00 in/hr0.0 mm/hr 0.00 in0.0 mm
05:39 AM 37.8°F3.2°C 28.2°F-2.1°C 68% 3.0 mph NNE4.8 kmh NNE 7.0 mph11.3 kmh 30.26 in1024.7 mb 0.00 in0.0 mm 0.00 in/hr0.0 mm/hr 0.00 in0.0 mm
05:40 AM 37.9°F3.3°C 28.3°F-2.1°C 68% 4.0 mph NNE6.4 kmh NNE 7.0 mph11.3 kmh 30.26 in1024.7 mb 0.00 in0.0 mm 0.00 in/hr0.0 mm/hr 0.00 in0.0 mm
05:43 AM 38.0°F3.3°C 28.8°F-1.8°C 69% 2.0 mph NNE3.2 kmh NNE 7.0 mph11.3 kmh 30.26 in1024.7 mb 0.00 in0.0 mm 0.00 in/hr0.0 mm/hr 0.00 in0.0 mm
05:44 AM 38.0°F3.3°C 28.4°F-2.0°C 68% 1.0 mph NNE1.6 kmh NNE 7.0 mph11.3 kmh 30.26 in1024.7 mb 0.00 in0.0 mm 0.00 in/hr0.0 mm/hr 0.00 in0.0 mm
05:45 AM 38.0°F3.3°C 28.8°F-1.8°C 69% 4.0 mph NNE6.4 kmh NNE 7.0 mph11.3 kmh 30.26 in1024.7 mb 0.00 in0.0 mm 0.00 in/hr0.0 mm/hr 0.00 in0.0 mm
05:48 AM 38.1°F3.4°C 28.5°F-1.9°C 68% 3.0 mph NNE4.8 kmh NNE 7.0 mph11.3 kmh 30.26 in1024.7 mb 0.00 in0.0 mm 0.00 in/hr0.0 mm/hr 0.00 in0.0 mm
05:49 AM 38.2°F3.4°C 28.6°F-1.9°C 68% 3.0 mph NNE4.8 kmh NNE 7.0 mph11.3 kmh 30.26 in1024.7 mb 0.00 in0.0 mm 0.00 in/hr0.0 mm/hr 0.00 in0.0 mm
05:50 AM 38.2°F3.4°C 28.6°F-1.9°C 68% 3.0 mph NNE4.8 kmh NNE 7.0 mph11.3 kmh 30.27 in1025.1 mb 0.00 in0.0 mm 0.00 in/hr0.0 mm/hr 0.00 in0.0 mm
05:53 AM 38.3°F3.5°C 28.7°F-1.8°C 68% 6.0 mph NNE9.7 kmh NNE 7.0 mph11.3 kmh 30.27 in1025.1 mb 0.00 in0.0 mm 0.00 in/hr0.0 mm/hr 0.00 in0.0 mm
05:54 AM 38.4°F3.6°C 28.8°F-1.8°C 68% 4.0 mph NNE6.4 kmh NNE 7.0 mph11.3 kmh 30.27 in1025.1 mb 0.00 in0.0 mm 0.00 in/hr0.0 mm/hr 0.00 in0.0 mm
05:55 AM 38.5°F3.6°C 28.9°F-1.7°C 68% 5.0 mph NE8.0 kmh NE 7.0 mph11.3 kmh 30.27 in1025.1 mb 0.00 in0.0 mm 0.00 in/hr0.0 mm/hr 0.00 in0.0 mm
05:58 AM 38.6°F3.7°C 29.0°F-1.7°C 68% 4.0 mph NNE6.4 kmh NNE 7.0 mph11.3 kmh 30.27 in1025.1 mb 0.00 in0.0 mm 0.00 in/hr0.0 mm/hr 0.00 in0.0 mm
05:59 AM 38.7°F3.7°C 29.1°F-1.6°C 68% 5.0 mph NNE8.0 kmh NNE 7.0 mph11.3 kmh 30.27 in1025.1 mb 0.00 in0.0 mm 0.00 in/hr0.0 mm/hr 0.00 in0.0 mm
06:00 AM 38.7°F3.7°C 29.1°F-1.6°C 68% 6.0 mph NNE9.7 kmh NNE 6.0 mph9.7 kmh 30.27 in1025.1 mb 0.00 in0.0 mm 0.00 in/hr0.0 mm/hr 0.00 in0.0 mm
06:03 AM 38.9°F3.8°C 28.9°F-1.7°C 67% 4.0 mph NNE6.4 kmh NNE 8.0 mph12.9 kmh 30.27 in1025.1 mb 0.00 in0.0 mm 0.00 in/hr0.0 mm/hr 0.00 in0.0 mm
06:04 AM 38.9°F3.8°C 28.9°F-1.7°C 67% 7.0 mph NNE11.3 kmh NNE 8.0 mph12.9 kmh 30.27 in1025.1 mb 0.00 in0.0 mm 0.00 in/hr0.0 mm/hr 0.00 in0.0 mm
06:05 AM 39.0°F3.9°C 29.0°F-1.7°C 67% 8.0 mph N12.9 kmh N 8.0 mph12.9 kmh 30.27 in1025.1 mb 0.00 in0.0 mm 0.00 in/hr0.0 mm/hr 0.00 in0.0 mm
06:08 AM 39.1°F3.9°C 29.1°F-1.6°C 67% 5.0 mph NNE8.0 kmh NNE 9.0 mph14.5 kmh 30.27 in1025.1 mb 0.00 in0.0 mm 0.00 in/hr0.0 mm/hr 0.00 in0.0 mm
06:09 AM 39.1°F3.9°C 29.1°F-1.6°C 67% 4.0 mph NNE6.4 kmh NNE 9.0 mph14.5 kmh 30.27 in1025.1 mb 0.00 in0.0 mm 0.00 in/hr0.0 mm/hr 0.00 in0.0 mm
06:10 AM 39.2°F4.0°C 29.2°F-1.6°C 67% 5.0 mph NNE8.0 kmh NNE 9.0 mph14.5 kmh 30.27 in1025.1 mb 0.00 in0.0 mm 0.00 in/hr0.0 mm/hr 0.00 in0.0 mm
06:13 AM 39.2°F4.0°C 29.2°F-1.6°C 67% 4.0 mph NE6.4 kmh NE 9.0 mph14.5 kmh 30.28 in1025.4 mb 0.00 in0.0 mm 0.00 in/hr0.0 mm/hr 0.00 in0.0 mm
06:14 AM 39.2°F4.0°C 29.2°F-1.6°C 67% 6.0 mph NE9.7 kmh NE 9.0 mph14.5 kmh 30.28 in1025.4 mb 0.00 in0.0 mm 0.00 in/hr0.0 mm/hr 0.00 in0.0 mm
06:15 AM 39.2°F4.0°C 29.2°F-1.6°C 67% 6.0 mph NNE9.7 kmh NNE 9.0 mph14.5 kmh 30.28 in1025.4 mb 0.00 in0.0 mm 0.00 in/hr0.0 mm/hr 0.00 in0.0 mm
06:18 AM 39.3°F4.1°C 29.3°F-1.5°C 67% 6.0 mph NE9.7 kmh NE 9.0 mph14.5 kmh 30.28 in1025.4 mb 0.00 in0.0 mm 0.00 in/hr0.0 mm/hr 0.00 in0.0 mm
06:19 AM 39.2°F4.0°C 29.2°F-1.6°C 67% 4.0 mph NNE6.4 kmh NNE 9.0 mph14.5 kmh 30.28 in1025.4 mb 0.00 in0.0 mm 0.00 in/hr0.0 mm/hr 0.00 in0.0 mm
06:20 AM 39.3°F4.1°C 29.3°F-1.5°C 67% 4.0 mph NNE6.4 kmh NNE 9.0 mph14.5 kmh 30.28 in1025.4 mb 0.00 in0.0 mm 0.00 in/hr0.0 mm/hr 0.00 in0.0 mm
06:23 AM 39.3°F4.1°C 28.9°F-1.7°C 66% 3.0 mph N4.8 kmh N 9.0 mph14.5 kmh 30.28 in1025.4 mb 0.00 in0.0 mm 0.00 in/hr0.0 mm/hr 0.00 in0.0 mm
06:24 AM 39.4°F4.1°C 29.0°F-1.7°C 66% 6.0 mph N9.7 kmh N 10.0 mph16.1 kmh 30.28 in1025.4 mb 0.00 in0.0 mm 0.00 in/hr0.0 mm/hr 0.00 in0.0 mm
06:25 AM 39.4°F4.1°C 29.0°F-1.7°C 66% 4.0 mph N6.4 kmh N 10.0 mph16.1 kmh 30.28 in1025.4 mb 0.00 in0.0 mm 0.00 in/hr0.0 mm/hr 0.00 in0.0 mm
06:28 AM 39.6°F4.2°C 29.2°F-1.6°C 66% 6.0 mph N9.7 kmh N 10.0 mph16.1 kmh 30.28 in1025.4 mb 0.00 in0.0 mm 0.00 in/hr0.0 mm/hr 0.00 in0.0 mm
06:29 AM 39.6°F4.2°C 29.2°F-1.6°C 66% Calm Calm 10.0 mph16.1 kmh 30.28 in1025.4 mb 0.00 in0.0 mm 0.00 in/hr0.0 mm/hr 0.00 in0.0 mm
06:30 AM 39.6°F4.2°C 29.2°F-1.6°C 66% Calm Calm 10.0 mph16.1 kmh 30.28 in1025.4 mb 0.00 in0.0 mm 0.00 in/hr0.0 mm/hr 0.00 in0.0 mm
06:33 AM 39.7°F4.3°C 29.3°F-1.5°C 66% 6.0 mph NNE9.7 kmh NNE 10.0 mph16.1 kmh 30.28 in1025.4 mb 0.00 in0.0 mm 0.00 in/hr0.0 mm/hr 0.00 in0.0 mm
06:34 AM 39.8°F4.3°C 29.4°F-1.4°C 66% 7.0 mph NNE11.3 kmh NNE 10.0 mph16.1 kmh 30.28 in1025.4 mb 0.00 in0.0 mm 0.00 in/hr0.0 mm/hr 0.00 in0.0 mm
06:35 AM 39.8°F4.3°C 29.4°F-1.4°C 66% 3.0 mph NE4.8 kmh NE 10.0 mph16.1 kmh 30.28 in1025.4 mb 0.00 in0.0 mm 0.00 in/hr0.0 mm/hr 0.00 in0.0 mm
06:38 AM 39.9°F4.4°C 29.5°F-1.4°C 66% 8.0 mph NNE12.9 kmh NNE 10.0 mph16.1 kmh 30.28 in1025.4 mb 0.00 in0.0 mm 0.00 in/hr0.0 mm/hr 0.00 in0.0 mm
06:39 AM 39.9°F4.4°C 29.5°F-1.4°C 66% 4.0 mph NNE6.4 kmh NNE 10.0 mph16.1 kmh 30.28 in1025.4 mb 0.00 in0.0 mm 0.00 in/hr0.0 mm/hr 0.00 in0.0 mm
06:40 AM 39.9°F4.4°C 29.5°F-1.4°C 66% 6.0 mph NNE9.7 kmh NNE 10.0 mph16.1 kmh 30.28 in1025.4 mb 0.00 in0.0 mm 0.00 in/hr0.0 mm/hr 0.00 in0.0 mm
06:43 AM 40.1°F4.5°C 29.3°F-1.5°C 65% 3.0 mph NNE4.8 kmh NNE 10.0 mph16.1 kmh 30.29 in1025.7 mb 0.00 in0.0 mm 0.00 in/hr0.0 mm/hr 0.00 in0.0 mm
06:44 AM 40.1°F4.5°C 29.3°F-1.5°C 65% 4.0 mph NNE6.4 kmh NNE 10.0 mph16.1 kmh 30.29 in1025.7 mb 0.00 in0.0 mm 0.00 in/hr0.0 mm/hr 0.00 in0.0 mm
06:45 AM 40.2°F4.6°C 29.4°F-1.4°C 65% 6.0 mph NNE9.7 kmh NNE 10.0 mph16.1 kmh 30.29 in1025.7 mb 0.00 in0.0 mm 0.00 in/hr0.0 mm/hr 0.00 in0.0 mm
06:48 AM 40.3°F4.6°C 29.5°F-1.4°C 65% 5.0 mph N8.0 kmh N 10.0 mph16.1 kmh 30.29 in1025.7 mb 0.00 in0.0 mm 0.00 in/hr0.0 mm/hr 0.00 in0.0 mm
06:49 AM 40.3°F4.6°C 29.5°F-1.4°C 65% 10.0 mph N16.1 kmh N 10.0 mph16.1 kmh 30.29 in1025.7 mb 0.00 in0.0 mm 0.00 in/hr0.0 mm/hr 0.00 in0.0 mm
06:50 AM 40.4°F4.7°C 29.6°F-1.3°C 65% 6.0 mph NE9.7 kmh NE 10.0 mph16.1 kmh 30.29 in1025.7 mb 0.00 in0.0 mm 0.00 in/hr0.0 mm/hr 0.00 in0.0 mm
06:53 AM 40.4°F4.7°C 29.6°F-1.3°C 65% 9.0 mph N14.5 kmh N 10.0 mph16.1 kmh 30.29 in1025.7 mb 0.00 in0.0 mm 0.00 in/hr0.0 mm/hr 0.00 in0.0 mm
06:54 AM 40.6°F4.8°C 29.8°F-1.2°C 65% 5.0 mph NNE8.0 kmh NNE 10.0 mph16.1 kmh 30.29 in1025.7 mb 0.00 in0.0 mm 0.00 in/hr0.0 mm/hr 0.00 in0.0 mm
06:55 AM 40.7°F4.8°C 29.5°F-1.4°C 64% 8.0 mph NE12.9 kmh NE 10.0 mph16.1 kmh 30.29 in1025.7 mb 0.00 in0.0 mm 0.00 in/hr0.0 mm/hr 0.00 in0.0 mm
06:58 AM 40.8°F4.9°C 29.6°F-1.3°C 64% 5.0 mph NNE8.0 kmh NNE 10.0 mph16.1 kmh 30.29 in1025.7 mb 0.00 in0.0 mm 0.00 in/hr0.0 mm/hr 0.00 in0.0 mm
06:59 AM 40.9°F4.9°C 29.7°F-1.3°C 64% 7.0 mph N11.3 kmh N 10.0 mph16.1 kmh 30.29 in1025.7 mb 0.00 in0.0 mm 0.00 in/hr0.0 mm/hr 0.00 in0.0 mm
07:00 AM 41.0°F5.0°C 29.8°F-1.2°C 64% 7.0 mph N11.3 kmh N 7.0 mph11.3 kmh 30.29 in1025.7 mb 0.00 in0.0 mm 0.00 in/hr0.0 mm/hr 0.00 in0.0 mm
07:03 AM 41.2°F5.1°C 29.6°F-1.3°C 63% 6.0 mph N9.7 kmh N 10.0 mph16.1 kmh 30.29 in1025.7 mb 0.00 in0.0 mm 0.00 in/hr0.0 mm/hr 0.00 in0.0 mm
07:04 AM 41.2°F5.1°C 29.6°F-1.3°C 63% 6.0 mph NNE9.7 kmh NNE 10.0 mph16.1 kmh 30.29 in1025.7 mb 0.00 in0.0 mm 0.00 in/hr0.0 mm/hr 0.00 in0.0 mm
07:05 AM 41.3°F5.2°C 29.7°F-1.3°C 63% 6.0 mph NNE9.7 kmh NNE 10.0 mph16.1 kmh 30.29 in1025.7 mb 0.00 in0.0 mm 0.00 in/hr0.0 mm/hr 0.00 in0.0 mm
07:08 AM 41.5°F5.3°C 29.9°F-1.2°C 63% 4.0 mph NNE6.4 kmh NNE 10.0 mph16.1 kmh 30.29 in1025.7 mb 0.00 in0.0 mm 0.00 in/hr0.0 mm/hr 0.00 in0.0 mm
07:09 AM 41.6°F5.3°C 30.0°F-1.1°C 63% 6.0 mph NNE9.7 kmh NNE 10.0 mph16.1 kmh 30.29 in1025.7 mb 0.00 in0.0 mm 0.00 in/hr0.0 mm/hr 0.00 in0.0 mm
07:10 AM 41.7°F5.4°C 30.1°F-1.1°C 63% 4.0 mph NNE6.4 kmh NNE 10.0 mph16.1 kmh 30.29 in1025.7 mb 0.00 in0.0 mm 0.00 in/hr0.0 mm/hr 0.00 in0.0 mm
07:13 AM 41.9°F5.5°C 29.9°F-1.2°C 62% 8.0 mph N12.9 kmh N 10.0 mph16.1 kmh 30.29 in1025.7 mb 0.00 in0.0 mm 0.00 in/hr0.0 mm/hr 0.00 in0.0 mm
07:14 AM 42.0°F5.6°C 29.9°F-1.2°C 62% 4.0 mph N6.4 kmh N 10.0 mph16.1 kmh 30.29 in1025.7 mb 0.00 in0.0 mm 0.00 in/hr0.0 mm/hr 0.00 in0.0 mm
07:15 AM 42.0°F5.6°C 29.9°F-1.2°C 62% 2.0 mph N3.2 kmh N 10.0 mph16.1 kmh 30.29 in1025.7 mb 0.00 in0.0 mm 0.00 in/hr0.0 mm/hr 0.00 in0.0 mm
07:18 AM 42.2°F5.7°C 30.1°F-1.1°C 62% 9.0 mph N14.5 kmh N 10.0 mph16.1 kmh 30.29 in1025.7 mb 0.00 in0.0 mm 0.00 in/hr0.0 mm/hr 0.00 in0.0 mm
07:19 AM 42.3°F5.7°C 29.8°F-1.2°C 61% 8.0 mph NNE12.9 kmh NNE 10.0 mph16.1 kmh 30.29 in1025.7 mb 0.00 in0.0 mm 0.00 in/hr0.0 mm/hr 0.00 in0.0 mm
07:20 AM 42.4°F5.8°C 29.9°F-1.2°C 61% 4.0 mph NNE6.4 kmh NNE 10.0 mph16.1 kmh 30.29 in1025.7 mb 0.00 in0.0 mm 0.00 in/hr0.0 mm/hr 0.00 in0.0 mm
07:23 AM 42.6°F5.9°C 30.1°F-1.1°C 61% 5.0 mph N8.0 kmh N 10.0 mph16.1 kmh 30.29 in1025.7 mb 0.00 in0.0 mm 0.00 in/hr0.0 mm/hr 0.00 in0.0 mm
07:24 AM 42.7°F5.9°C 30.2°F-1.0°C 61% 4.0 mph N6.4 kmh N 10.0 mph16.1 kmh 30.29 in1025.7 mb 0.00 in0.0 mm 0.00 in/hr0.0 mm/hr 0.00 in0.0 mm
07:25 AM 42.8°F6.0°C 30.3°F-0.9°C 61% 4.0 mph N6.4 kmh N 10.0 mph16.1 kmh 30.29 in1025.7 mb 0.00 in0.0 mm 0.00 in/hr0.0 mm/hr 0.00 in0.0 mm
07:28 AM 43.1°F6.2°C 30.2°F-1.0°C 60% 5.0 mph NE8.0 kmh NE 10.0 mph16.1 kmh 30.29 in1025.7 mb 0.00 in0.0 mm 0.00 in/hr0.0 mm/hr 0.00 in0.0 mm
07:29 AM 43.2°F6.2°C 30.3°F-0.9°C 60% 4.0 mph NE6.4 kmh NE 10.0 mph16.1 kmh 30.29 in1025.7 mb 0.00 in0.0 mm 0.00 in/hr0.0 mm/hr 0.00 in0.0 mm
07:33 AM 43.5°F6.4°C 30.1°F-1.1°C 59% Calm Calm 10.0 mph16.1 kmh 30.29 in1025.7 mb 0.00 in0.0 mm 0.00 in/hr0.0 mm/hr 0.00 in0.0 mm
07:34 AM 43.5°F6.4°C 30.1°F-1.1°C 59% 5.0 mph N8.0 kmh N 10.0 mph16.1 kmh 30.29 in1025.7 mb 0.00 in0.0 mm 0.00 in/hr0.0 mm/hr 0.00 in0.0 mm
07:35 AM 43.6°F6.4°C 30.2°F-1.0°C 59% 2.0 mph N3.2 kmh N 10.0 mph16.1 kmh 30.29 in1025.7 mb 0.00 in0.0 mm 0.00 in/hr0.0 mm/hr 0.00 in0.0 mm
07:38 AM 44.0°F6.7°C 30.2°F-1.0°C 58% 6.0 mph NNE9.7 kmh NNE 10.0 mph16.1 kmh 30.29 in1025.7 mb 0.00 in0.0 mm 0.00 in/hr0.0 mm/hr 0.00 in0.0 mm
07:39 AM 44.1°F6.7°C 30.3°F-0.9°C 58% 4.0 mph NNE6.4 kmh NNE 10.0 mph16.1 kmh 30.29 in1025.7 mb 0.00 in0.0 mm 0.00 in/hr0.0 mm/hr 0.00 in0.0 mm
07:40 AM 44.2°F6.8°C 30.4°F-0.9°C 58% 2.0 mph NNE3.2 kmh NNE 10.0 mph16.1 kmh 30.29 in1025.7 mb 0.00 in0.0 mm 0.00 in/hr0.0 mm/hr 0.00 in0.0 mm
07:43 AM 44.5°F6.9°C 30.2°F-1.0°C 57% 7.0 mph NE11.3 kmh NE 10.0 mph16.1 kmh 30.29 in1025.7 mb 0.00 in0.0 mm 0.00 in/hr0.0 mm/hr 0.00 in0.0 mm
07:44 AM 44.6°F7.0°C 30.3°F-0.9°C 57% 3.0 mph NNE4.8 kmh NNE 10.0 mph16.1 kmh 30.29 in1025.7 mb 0.00 in0.0 mm 0.00 in/hr0.0 mm/hr 0.00 in0.0 mm
07:45 AM 44.7°F7.1°C 30.0°F-1.1°C 56% 4.0 mph NE6.4 kmh NE 10.0 mph16.1 kmh 30.29 in1025.7 mb 0.00 in0.0 mm 0.00 in/hr0.0 mm/hr 0.00 in0.0 mm
07:48 AM 44.9°F7.2°C 30.2°F-1.0°C 56% 3.0 mph NNE4.8 kmh NNE 12.0 mph19.3 kmh 30.29 in1025.7 mb 0.00 in0.0 mm 0.00 in/hr0.0 mm/hr 0.00 in0.0 mm
07:49 AM 45.0°F7.2°C 30.3°F-0.9°C 56% 5.0 mph NE8.0 kmh NE 12.0 mph19.3 kmh 30.29 in1025.7 mb 0.00 in0.0 mm 0.00 in/hr0.0 mm/hr 0.00 in0.0 mm
07:50 AM 45.0°F7.2°C 30.3°F-0.9°C 56% 8.0 mph N12.9 kmh N 12.0 mph19.3 kmh 30.29 in1025.7 mb 0.00 in0.0 mm 0.00 in/hr0.0 mm/hr 0.00 in0.0 mm
07:53 AM 45.2°F7.3°C 30.0°F-1.1°C 55% 5.0 mph NE8.0 kmh NE 12.0 mph19.3 kmh 30.29 in1025.7 mb 0.00 in0.0 mm 0.00 in/hr0.0 mm/hr 0.00 in0.0 mm
07:54 AM 45.2°F7.3°C 30.0°F-1.1°C 55% 3.0 mph NE4.8 kmh NE 12.0 mph19.3 kmh 30.29 in1025.7 mb 0.00 in0.0 mm 0.00 in/hr0.0 mm/hr 0.00 in0.0 mm
07:55 AM 45.3°F7.4°C 30.1°F-1.1°C 55% 5.0 mph NNE8.0 kmh NNE 12.0 mph19.3 kmh 30.29 in1025.7 mb 0.00 in0.0 mm 0.00 in/hr0.0 mm/hr 0.00 in0.0 mm
07:58 AM 45.6°F7.6°C 29.9°F-1.2°C 54% 6.0 mph N9.7 kmh N 12.0 mph19.3 kmh 30.29 in1025.7 mb 0.00 in0.0 mm 0.00 in/hr0.0 mm/hr 0.00 in0.0 mm
07:59 AM 45.6°F7.6°C 29.9°F-1.2°C 54% 5.0 mph NNE8.0 kmh NNE 12.0 mph19.3 kmh 30.29 in1025.7 mb 0.00 in0.0 mm 0.00 in/hr0.0 mm/hr 0.00 in0.0 mm
08:00 AM 45.7°F7.6°C 30.0°F-1.1°C 54% 1.0 mph NNE1.6 kmh NNE 2.0 mph3.2 kmh 30.29 in1025.7 mb 0.00 in0.0 mm 0.00 in/hr0.0 mm/hr 0.00 in0.0 mm
08:03 AM 45.9°F7.7°C 30.2°F-1.0°C 54% 5.0 mph N8.0 kmh N 8.0 mph12.9 kmh 30.29 in1025.7 mb 0.00 in0.0 mm 0.00 in/hr0.0 mm/hr 0.00 in0.0 mm
08:04 AM 46.0°F7.8°C 30.3°F-0.9°C 54% 5.0 mph N8.0 kmh N 8.0 mph12.9 kmh 30.29 in1025.7 mb 0.00 in0.0 mm 0.00 in/hr0.0 mm/hr 0.00 in0.0 mm
08:05 AM 46.1°F7.8°C 30.4°F-0.9°C 54% 2.0 mph N3.2 kmh N 8.0 mph12.9 kmh 30.29 in1025.7 mb 0.00 in0.0 mm 0.00 in/hr0.0 mm/hr 0.00 in0.0 mm
08:08 AM 46.3°F7.9°C 30.1°F-1.1°C 53% 1.0 mph N1.6 kmh N 8.0 mph12.9 kmh 30.29 in1025.7 mb 0.00 in0.0 mm 0.00 in/hr0.0 mm/hr 0.00 in0.0 mm
08:09 AM 46.4°F8.0°C 30.2°F-1.0°C 53% 5.0 mph N8.0 kmh N 8.0 mph12.9 kmh 30.29 in1025.7 mb 0.00 in0.0 mm 0.00 in/hr0.0 mm/hr 0.00 in0.0 mm
08:10 AM 46.5°F8.1°C 30.3°F-0.9°C 53% 4.0 mph N6.4 kmh N 8.0 mph12.9 kmh 30.29 in1025.7 mb 0.00 in0.0 mm 0.00 in/hr0.0 mm/hr 0.00 in0.0 mm
08:13 AM 46.6°F8.1°C 29.9°F-1.2°C 52% 6.0 mph N9.7 kmh N 8.0 mph12.9 kmh 30.29 in1025.7 mb 0.00 in0.0 mm 0.00 in/hr0.0 mm/hr 0.00 in0.0 mm
08:14 AM 46.7°F8.2°C 30.0°F-1.1°C 52% 3.0 mph N4.8 kmh N 9.0 mph14.5 kmh 30.29 in1025.7 mb 0.00 in0.0 mm 0.00 in/hr0.0 mm/hr 0.00 in0.0 mm
08:15 AM 46.7°F8.2°C 30.0°F-1.1°C 52% 1.0 mph NNE1.6 kmh NNE 9.0 mph14.5 kmh 30.29 in1025.7 mb 0.00 in0.0 mm 0.00 in/hr0.0 mm/hr 0.00 in0.0 mm
08:18 AM 46.9°F8.3°C 30.2°F-1.0°C 52% 3.0 mph N4.8 kmh N 9.0 mph14.5 kmh 30.29 in1025.7 mb 0.00 in0.0 mm 0.00 in/hr0.0 mm/hr 0.00 in0.0 mm
08:19 AM 46.9°F8.3°C 30.2°F-1.0°C 52% 4.0 mph NNE6.4 kmh NNE 9.0 mph14.5 kmh 30.29 in1025.7 mb 0.00 in0.0 mm 0.00 in/hr0.0 mm/hr 0.00 in0.0 mm
08:20 AM 46.9°F8.3°C 30.2°F-1.0°C 52% 3.0 mph NNE4.8 kmh NNE 9.0 mph14.5 kmh 30.29 in1025.7 mb 0.00 in0.0 mm 0.00 in/hr0.0 mm/hr 0.00 in0.0 mm
08:23 AM 47.3°F8.5°C 30.1°F-1.1°C 51% 6.0 mph N9.7 kmh N 9.0 mph14.5 kmh 30.29 in1025.7 mb 0.00 in0.0 mm 0.00 in/hr0.0 mm/hr 0.00 in0.0 mm
08:24 AM 47.4°F8.6°C 30.2°F-1.0°C 51% 2.0 mph NNE3.2 kmh NNE 9.0 mph14.5 kmh 30.29 in1025.7 mb 0.00 in0.0 mm 0.00 in/hr0.0 mm/hr 0.00 in0.0 mm
08:25 AM 47.4°F8.6°C 30.2°F-1.0°C 51% 2.0 mph NNE3.2 kmh NNE 9.0 mph14.5 kmh 30.29 in1025.7 mb 0.00 in0.0 mm 0.00 in/hr0.0 mm/hr 0.00 in0.0 mm
08:28 AM 47.6°F8.7°C 30.4°F-0.9°C 51% 4.0 mph N6.4 kmh N 9.0 mph14.5 kmh 30.29 in1025.7 mb 0.00 in0.0 mm 0.00 in/hr0.0 mm/hr 0.00 in0.0 mm
08:29 AM 47.7°F8.7°C 30.5°F-0.8°C 51% 2.0 mph N3.2 kmh N 9.0 mph14.5 kmh 30.29 in1025.7 mb 0.00 in0.0 mm 0.00 in/hr0.0 mm/hr 0.00 in0.0 mm
08:30 AM 47.8°F8.8°C 30.1°F-1.1°C 50% 1.0 mph N1.6 kmh N 9.0 mph14.5 kmh 30.29 in1025.7 mb 0.00 in0.0 mm 0.00 in/hr0.0 mm/hr 0.00 in0.0 mm
08:33 AM 47.9°F8.8°C 30.2°F-1.0°C 50% 2.0 mph N3.2 kmh N 9.0 mph14.5 kmh 30.29 in1025.7 mb 0.00 in0.0 mm 0.00 in/hr0.0 mm/hr 0.00 in0.0 mm
08:34 AM 47.9°F8.8°C 30.2°F-1.0°C 50% 2.0 mph N3.2 kmh N 9.0 mph14.5 kmh 30.29 in1025.7 mb 0.00 in0.0 mm 0.00 in/hr0.0 mm/hr 0.00 in0.0 mm
08:35 AM 48.0°F8.9°C 30.3°F-0.9°C 50% 3.0 mph N4.8 kmh N 9.0 mph14.5 kmh 30.29 in1025.7 mb 0.00 in0.0 mm 0.00 in/hr0.0 mm/hr 0.00 in0.0 mm
08:38 AM 48.0°F8.9°C 30.3°F-0.9°C 50% 4.0 mph N6.4 kmh N 9.0 mph14.5 kmh 30.29 in1025.7 mb 0.00 in0.0 mm 0.00 in/hr0.0 mm/hr 0.00 in0.0 mm
08:39 AM 48.0°F8.9°C 30.3°F-0.9°C 50% 3.0 mph N4.8 kmh N 9.0 mph14.5 kmh 30.29 in1025.7 mb 0.00 in0.0 mm 0.00 in/hr0.0 mm/hr 0.00 in0.0 mm
08:40 AM 48.2°F9.0°C 30.5°F-0.8°C 50% 4.0 mph N6.4 kmh N 9.0 mph14.5 kmh 30.29 in1025.7 mb 0.00 in0.0 mm 0.00 in/hr0.0 mm/hr 0.00 in0.0 mm
08:43 AM 48.2°F9.0°C 30.0°F-1.1°C 49% Calm Calm 9.0 mph14.5 kmh 30.29 in1025.7 mb 0.00 in0.0 mm 0.00 in/hr0.0 mm/hr 0.00 in0.0 mm
08:44 AM 48.2°F9.0°C 30.0°F-1.1°C 49% Calm Calm 9.0 mph14.5 kmh 30.28 in1025.4 mb 0.00 in0.0 mm 0.00 in/hr0.0 mm/hr 0.00 in0.0 mm
08:45 AM 48.3°F9.1°C 30.0°F-1.1°C 49% 2.0 mph N3.2 kmh N 9.0 mph14.5 kmh 30.28 in1025.4 mb 0.00 in0.0 mm 0.00 in/hr0.0 mm/hr 0.00 in0.0 mm
08:48 AM 48.6°F9.2°C 30.3°F-0.9°C 49% 3.0 mph N4.8 kmh N 9.0 mph14.5 kmh 30.28 in1025.4 mb 0.00 in0.0 mm 0.00 in/hr0.0 mm/hr 0.00 in0.0 mm
08:49 AM 48.6°F9.2°C 29.8°F-1.2°C 48% 4.0 mph N6.4 kmh N 9.0 mph14.5 kmh 30.28 in1025.4 mb 0.00 in0.0 mm 0.00 in/hr0.0 mm/hr 0.00 in0.0 mm
08:50 AM 48.7°F9.3°C 29.9°F-1.2°C 48% 4.0 mph N6.4 kmh N 9.0 mph14.5 kmh 30.28 in1025.4 mb 0.00 in0.0 mm 0.00 in/hr0.0 mm/hr 0.00 in0.0 mm
08:53 AM 48.7°F9.3°C 29.9°F-1.2°C 48% 3.0 mph N4.8 kmh N 9.0 mph14.5 kmh 30.28 in1025.4 mb 0.00 in0.0 mm 0.00 in/hr0.0 mm/hr 0.00 in0.0 mm
08:54 AM 48.8°F9.3°C 30.0°F-1.1°C 48% 3.0 mph N4.8 kmh N 9.0 mph14.5 kmh 30.29 in1025.7 mb 0.00 in0.0 mm 0.00 in/hr0.0 mm/hr 0.00 in0.0 mm
08:55 AM 48.9°F9.4°C 30.1°F-1.1°C 48% 2.0 mph N3.2 kmh N 9.0 mph14.5 kmh 30.29 in1025.7 mb 0.00 in0.0 mm 0.00 in/hr0.0 mm/hr 0.00 in0.0 mm
08:58 AM 49.1°F9.5°C 29.8°F-1.2°C 47% 2.0 mph NNW3.2 kmh NNW 9.0 mph14.5 kmh 30.29 in1025.7 mb 0.00 in0.0 mm 0.00 in/hr0.0 mm/hr 0.00 in0.0 mm
08:59 AM 49.1°F9.5°C 29.8°F-1.2°C 47% Calm Calm 9.0 mph14.5 kmh 30.29 in1025.7 mb 0.00 in0.0 mm 0.00 in/hr0.0 mm/hr 0.00 in0.0 mm
09:00 AM 49.2°F9.6°C 29.9°F-1.2°C 47% 4.0 mph NNW6.4 kmh NNW 4.0 mph6.4 kmh 30.29 in1025.7 mb 0.00 in0.0 mm 0.00 in/hr0.0 mm/hr 0.00 in0.0 mm
09:03 AM 49.3°F9.6°C 29.4°F-1.4°C 46% 4.0 mph NNW6.4 kmh NNW 5.0 mph8.0 kmh 30.29 in1025.7 mb 0.00 in0.0 mm 0.00 in/hr0.0 mm/hr 0.00 in0.0 mm
09:04 AM 49.5°F9.7°C 29.6°F-1.3°C 46% Calm Calm 5.0 mph8.0 kmh 30.29 in1025.7 mb 0.00 in0.0 mm 0.00 in/hr0.0 mm/hr 0.00 in0.0 mm
09:05 AM 49.6°F9.8°C 29.7°F-1.3°C 46% 2.0 mph N3.2 kmh N 5.0 mph8.0 kmh 30.29 in1025.7 mb 0.00 in0.0 mm 0.00 in/hr0.0 mm/hr 0.00 in0.0 mm
09:08 AM 50.0°F10.0°C 29.0°F-1.7°C 44% 2.0 mph N3.2 kmh N 5.0 mph8.0 kmh 30.29 in1025.7 mb 0.00 in0.0 mm 0.00 in/hr0.0 mm/hr 0.00 in0.0 mm
09:09 AM 50.2°F10.1°C 29.2°F-1.6°C 44% 3.0 mph NW4.8 kmh NW 7.0 mph11.3 kmh 30.29 in1025.7 mb 0.00 in0.0 mm 0.00 in/hr0.0 mm/hr 0.00 in0.0 mm
09:10 AM 50.1°F10.1°C 28.5°F-1.9°C 43% 3.0 mph NW4.8 kmh NW 7.0 mph11.3 kmh 30.29 in1025.7 mb 0.00 in0.0 mm 0.00 in/hr0.0 mm/hr 0.00 in0.0 mm
09:13 AM 50.0°F10.0°C 28.4°F-2.0°C 43% 3.0 mph NW4.8 kmh NW 7.0 mph11.3 kmh 30.29 in1025.7 mb 0.00 in0.0 mm 0.00 in/hr0.0 mm/hr 0.00 in0.0 mm
09:14 AM 50.0°F10.0°C 28.4°F-2.0°C 43% 2.0 mph NW3.2 kmh NW 7.0 mph11.3 kmh 30.29 in1025.7 mb 0.00 in0.0 mm 0.00 in/hr0.0 mm/hr 0.00 in0.0 mm
09:15 AM 50.0°F10.0°C 28.4°F-2.0°C 43% 3.0 mph NW4.8 kmh NW 7.0 mph11.3 kmh 30.29 in1025.7 mb 0.00 in0.0 mm 0.00 in/hr0.0 mm/hr 0.00 in0.0 mm
09:18 AM 50.3°F10.2°C 29.2°F-1.6°C 44% 2.0 mph NW3.2 kmh NW 7.0 mph11.3 kmh 30.29 in1025.7 mb 0.00 in0.0 mm 0.00 in/hr0.0 mm/hr 0.00 in0.0 mm
09:19 AM 50.4°F10.2°C 28.8°F-1.8°C 43% Calm Calm 7.0 mph11.3 kmh 30.29 in1025.7 mb 0.00 in0.0 mm 0.00 in/hr0.0 mm/hr 0.00 in0.0 mm
09:20 AM 50.5°F10.3°C 28.9°F-1.7°C 43% 1.0 mph NW1.6 kmh NW 7.0 mph11.3 kmh 30.29 in1025.7 mb 0.00 in0.0 mm 0.00 in/hr0.0 mm/hr 0.00 in0.0 mm
09:23 AM 50.4°F10.2°C 28.8°F-1.8°C 43% 2.0 mph NW3.2 kmh NW 7.0 mph11.3 kmh 30.29 in1025.7 mb 0.00 in0.0 mm 0.00 in/hr0.0 mm/hr 0.00 in0.0 mm
09:24 AM 50.4°F10.2°C 28.8°F-1.8°C 43% 2.0 mph NW3.2 kmh NW 7.0 mph11.3 kmh 30.29 in1025.7 mb 0.00 in0.0 mm 0.00 in/hr0.0 mm/hr 0.00 in0.0 mm
09:25 AM 50.4°F10.2°C 28.8°F-1.8°C 43% 3.0 mph NW4.8 kmh NW 7.0 mph11.3 kmh 30.29 in1025.7 mb 0.00 in0.0 mm 0.00 in/hr0.0 mm/hr 0.00 in0.0 mm
09:28 AM 50.5°F10.3°C 28.3°F-2.1°C 42% 1.0 mph NW1.6 kmh NW 7.0 mph11.3 kmh 30.29 in1025.7 mb 0.00 in0.0 mm 0.00 in/hr0.0 mm/hr 0.00 in0.0 mm
09:29 AM 50.5°F10.3°C 28.3°F-2.1°C 42% Calm Calm 7.0 mph11.3 kmh 30.29 in1025.7 mb 0.00 in0.0 mm 0.00 in/hr0.0 mm/hr 0.00 in0.0 mm
09:30 AM 50.5°F10.3°C 28.3°F-2.1°C 42% Calm Calm 7.0 mph11.3 kmh 30.29 in1025.7 mb 0.00 in0.0 mm 0.00 in/hr0.0 mm/hr 0.00 in0.0 mm
09:33 AM 50.9°F10.5°C 28.1°F-2.2°C 41% 1.0 mph NW1.6 kmh NW 7.0 mph11.3 kmh 30.29 in1025.7 mb 0.00 in0.0 mm 0.00 in/hr0.0 mm/hr 0.00 in0.0 mm
09:34 AM 50.9°F10.5°C 28.1°F-2.2°C 41% 6.0 mph NW9.7 kmh NW 7.0 mph11.3 kmh 30.29 in1025.7 mb 0.00 in0.0 mm 0.00 in/hr0.0 mm/hr 0.00 in0.0 mm
09:35 AM 50.9°F10.5°C 28.6°F-1.9°C 42% 2.0 mph SW3.2 kmh SW 8.0 mph12.9 kmh 30.29 in1025.7 mb 0.00 in0.0 mm 0.00 in/hr0.0 mm/hr 0.00 in0.0 mm
09:38 AM 50.4°F10.2°C 33.0°F0.6°C 51% 6.0 mph SW9.7 kmh SW 9.0 mph14.5 kmh 30.29 in1025.7 mb 0.00 in0.0 mm 0.00 in/hr0.0 mm/hr 0.00 in0.0 mm
09:39 AM 50.1°F10.1°C 32.7°F0.4°C 51% 4.0 mph SW6.4 kmh SW 9.0 mph14.5 kmh 30.29 in1025.7 mb 0.00 in0.0 mm 0.00 in/hr0.0 mm/hr 0.00 in0.0 mm
09:40 AM 50.0°F10.0°C 33.6°F0.9°C 53% 5.0 mph S8.0 kmh S 10.0 mph16.1 kmh 30.29 in1025.7 mb 0.00 in0.0 mm 0.00 in/hr0.0 mm/hr 0.00 in0.0 mm
09:43 AM 49.7°F9.8°C 35.5°F1.9°C 58% 6.0 mph S9.7 kmh S 11.0 mph17.7 kmh 30.29 in1025.7 mb 0.00 in0.0 mm 0.00 in/hr0.0 mm/hr 0.00 in0.0 mm
09:44 AM 49.5°F9.7°C 35.8°F2.1°C 59% 9.0 mph S14.5 kmh S 11.0 mph17.7 kmh 30.29 in1025.7 mb 0.00 in0.0 mm 0.00 in/hr0.0 mm/hr 0.00 in0.0 mm
09:45 AM 49.1°F9.5°C 35.8°F2.1°C 60% 7.0 mph SSW11.3 kmh SSW 11.0 mph17.7 kmh 30.29 in1025.7 mb 0.00 in0.0 mm 0.00 in/hr0.0 mm/hr 0.00 in0.0 mm
09:48 AM 48.2°F9.0°C 36.2°F2.3°C 63% 5.0 mph SSW8.0 kmh SSW 11.0 mph17.7 kmh 30.29 in1025.7 mb 0.00 in0.0 mm 0.00 in/hr0.0 mm/hr 0.00 in0.0 mm
09:49 AM 48.0°F8.9°C 36.0°F2.2°C 63% 6.0 mph SSW9.7 kmh SSW 11.0 mph17.7 kmh 30.29 in1025.7 mb 0.00 in0.0 mm 0.00 in/hr0.0 mm/hr 0.00 in0.0 mm
09:50 AM 47.7°F8.7°C 36.1°F2.3°C 64% 5.0 mph SSW8.0 kmh SSW 11.0 mph17.7 kmh 30.29 in1025.7 mb 0.00 in0.0 mm 0.00 in/hr0.0 mm/hr 0.00 in0.0 mm
09:53 AM 47.0°F8.3°C 35.9°F2.2°C 65% 5.0 mph SSW8.0 kmh SSW 11.0 mph17.7 kmh 30.29 in1025.7 mb 0.00 in0.0 mm 0.00 in/hr0.0 mm/hr 0.00 in0.0 mm
09:54 AM 46.8°F8.2°C 35.7°F2.1°C 65% 2.0 mph SSW3.2 kmh SSW 11.0 mph17.7 kmh 30.29 in1025.7 mb 0.00 in0.0 mm 0.00 in/hr0.0 mm/hr 0.00 in0.0 mm
09:55 AM 46.7°F8.2°C 35.6°F2.0°C 65% 8.0 mph SSW12.9 kmh SSW 11.0 mph17.7 kmh 30.29 in1025.7 mb 0.00 in0.0 mm 0.00 in/hr0.0 mm/hr 0.00 in0.0 mm
09:58 AM 46.2°F7.9°C 35.5°F1.9°C 66% 4.0 mph SSW6.4 kmh SSW 11.0 mph17.7 kmh 30.29 in1025.7 mb 0.00 in0.0 mm 0.00 in/hr0.0 mm/hr 0.00 in0.0 mm
09:59 AM 46.1°F7.8°C 35.8°F2.1°C 67% 6.0 mph SSW9.7 kmh SSW 11.0 mph17.7 kmh 30.29 in1025.7 mb 0.00 in0.0 mm 0.00 in/hr0.0 mm/hr 0.00 in0.0 mm
10:00 AM 46.1°F7.8°C 35.8°F2.1°C 67% 7.0 mph SSW11.3 kmh SSW 7.0 mph11.3 kmh 30.29 in1025.7 mb 0.00 in0.0 mm 0.00 in/hr0.0 mm/hr 0.00 in0.0 mm
10:03 AM 46.0°F7.8°C 36.1°F2.3°C 68% 5.0 mph SSW8.0 kmh SSW 8.0 mph12.9 kmh 30.29 in1025.7 mb 0.00 in0.0 mm 0.00 in/hr0.0 mm/hr 0.00 in0.0 mm
10:04 AM 46.0°F7.8°C 36.1°F2.3°C 68% 8.0 mph SSW12.9 kmh SSW 8.0 mph12.9 kmh 30.29 in1025.7 mb 0.00 in0.0 mm 0.00 in/hr0.0 mm/hr 0.00 in0.0 mm
10:05 AM 46.1°F7.8°C 36.1°F2.3°C 68% 3.0 mph SSW4.8 kmh SSW 8.0 mph12.9 kmh 30.29 in1025.7 mb 0.00 in0.0 mm 0.00 in/hr0.0 mm/hr 0.00 in0.0 mm
10:08 AM 46.2°F7.9°C 35.9°F2.2°C 67% 6.0 mph S9.7 kmh S 11.0 mph17.7 kmh 30.29 in1025.7 mb 0.00 in0.0 mm 0.00 in/hr0.0 mm/hr 0.00 in0.0 mm
10:09 AM 46.2°F7.9°C 35.9°F2.2°C 67% 2.0 mph SSW3.2 kmh SSW 11.0 mph17.7 kmh 30.29 in1025.7 mb 0.00 in0.0 mm 0.00 in/hr0.0 mm/hr 0.00 in0.0 mm
10:10 AM 46.2°F7.9°C 35.9°F2.2°C 67% 6.0 mph SSW9.7 kmh SSW 11.0 mph17.7 kmh 30.29 in1025.7 mb 0.00 in0.0 mm 0.00 in/hr0.0 mm/hr 0.00 in0.0 mm
10:13 AM 46.1°F7.8°C 35.8°F2.1°C 67% 3.0 mph S4.8 kmh S 11.0 mph17.7 kmh 30.29 in1025.7 mb 0.00 in0.0 mm 0.00 in/hr0.0 mm/hr 0.00 in0.0 mm
10:14 AM 46.2°F7.9°C 36.2°F2.3°C 68% 1.0 mph S1.6 kmh S 11.0 mph17.7 kmh 30.29 in1025.7 mb 0.00 in0.0 mm 0.00 in/hr0.0 mm/hr 0.00 in0.0 mm
10:15 AM 46.4°F8.0°C 36.4°F2.4°C 68% 5.0 mph S8.0 kmh S 11.0 mph17.7 kmh 30.29 in1025.7 mb 0.00 in0.0 mm 0.00 in/hr0.0 mm/hr 0.00 in0.0 mm
10:18 AM 46.6°F8.1°C 35.9°F2.2°C 66% 6.0 mph SSW9.7 kmh SSW 11.0 mph17.7 kmh 30.29 in1025.7 mb 0.00 in0.0 mm 0.00 in/hr0.0 mm/hr 0.00 in0.0 mm
10:19 AM 46.4°F8.0°C 35.7°F2.1°C 66% 5.0 mph SW8.0 kmh SW 11.0 mph17.7 kmh 30.29 in1025.7 mb 0.00 in0.0 mm 0.00 in/hr0.0 mm/hr 0.00 in0.0 mm
10:20 AM 46.3°F7.9°C 35.6°F2.0°C 66% 6.0 mph SSW9.7 kmh SSW 11.0 mph17.7 kmh 30.29 in1025.7 mb 0.00 in0.0 mm 0.00 in/hr0.0 mm/hr 0.00 in0.0 mm
10:23 AM 45.9°F7.7°C 35.2°F1.8°C 66% 3.0 mph SSW4.8 kmh SSW 11.0 mph17.7 kmh 30.29 in1025.7 mb 0.00 in0.0 mm 0.00 in/hr0.0 mm/hr 0.00 in0.0 mm
10:24 AM 45.9°F7.7°C 35.2°F1.8°C 66% 6.0 mph S9.7 kmh S 11.0 mph17.7 kmh 30.29 in1025.7 mb 0.00 in0.0 mm 0.00 in/hr0.0 mm/hr 0.00 in0.0 mm
10:25 AM 46.0°F7.8°C 35.7°F2.1°C 67% 2.0 mph S3.2 kmh S 11.0 mph17.7 kmh 30.29 in1025.7 mb 0.00 in0.0 mm 0.00 in/hr0.0 mm/hr 0.00 in0.0 mm
10:28 AM 46.7°F8.2°C 36.3°F2.4°C 67% 4.0 mph S6.4 kmh S 11.0 mph17.7 kmh 30.29 in1025.7 mb 0.00 in0.0 mm 0.00 in/hr0.0 mm/hr 0.00 in0.0 mm
10:29 AM 46.9°F8.3°C 36.2°F2.3°C 66% 6.0 mph S9.7 kmh S 11.0 mph17.7 kmh 30.29 in1025.7 mb 0.00 in0.0 mm 0.00 in/hr0.0 mm/hr 0.00 in0.0 mm
10:30 AM 47.0°F8.3°C 35.9°F2.2°C 65% 6.0 mph S9.7 kmh S 11.0 mph17.7 kmh 30.29 in1025.7 mb 0.00 in0.0 mm 0.00 in/hr0.0 mm/hr 0.00 in0.0 mm
10:33 AM 47.3°F8.5°C 35.8°F2.1°C 64% 3.0 mph S4.8 kmh S 11.0 mph17.7 kmh 30.28 in1025.4 mb 0.00 in0.0 mm 0.00 in/hr0.0 mm/hr 0.00 in0.0 mm
10:34 AM 47.4°F8.6°C 35.9°F2.2°C 64% 6.0 mph S9.7 kmh S 11.0 mph17.7 kmh 30.28 in1025.4 mb 0.00 in0.0 mm 0.00 in/hr0.0 mm/hr 0.00 in0.0 mm
10:35 AM 47.6°F8.7°C 35.6°F2.0°C 63% 8.0 mph S12.9 kmh S 11.0 mph17.7 kmh 30.28 in1025.4 mb 0.00 in0.0 mm 0.00 in/hr0.0 mm/hr 0.00 in0.0 mm
10:38 AM 47.5°F8.6°C 34.7°F1.5°C 61% 5.0 mph SSW8.0 kmh SSW 11.0 mph17.7 kmh 30.28 in1025.4 mb 0.00 in0.0 mm 0.00 in/hr0.0 mm/hr 0.00 in0.0 mm
10:39 AM 47.4°F8.6°C 34.6°F1.4°C 61% 6.0 mph SSW9.7 kmh SSW 11.0 mph17.7 kmh 30.28 in1025.4 mb 0.00 in0.0 mm 0.00 in/hr0.0 mm/hr 0.00 in0.0 mm
10:40 AM 47.3°F8.5°C 35.0°F1.7°C 62% 4.0 mph SSW6.4 kmh SSW 11.0 mph17.7 kmh 30.28 in1025.4 mb 0.00 in0.0 mm 0.00 in/hr0.0 mm/hr 0.00 in0.0 mm
10:43 AM 47.6°F8.7°C 35.2°F1.8°C 62% 3.0 mph SSW4.8 kmh SSW 11.0 mph17.7 kmh 30.28 in1025.4 mb 0.00 in0.0 mm 0.00 in/hr0.0 mm/hr 0.00 in0.0 mm
10:44 AM 47.8°F8.8°C 35.8°F2.1°C 63% 7.0 mph SSE11.3 kmh SSE 11.0 mph17.7 kmh 30.28 in1025.4 mb 0.00 in0.0 mm 0.00 in/hr0.0 mm/hr 0.00 in0.0 mm
10:45 AM 48.0°F8.9°C 35.6°F2.0°C 62% 4.0 mph S6.4 kmh S 11.0 mph17.7 kmh 30.28 in1025.4 mb 0.00 in0.0 mm 0.00 in/hr0.0 mm/hr 0.00 in0.0 mm
10:48 AM 48.3°F9.1°C 35.5°F1.9°C 61% 2.0 mph S3.2 kmh S 11.0 mph17.7 kmh 30.28 in1025.4 mb 0.00 in0.0 mm 0.00 in/hr0.0 mm/hr 0.00 in0.0 mm
10:49 AM 48.4°F9.1°C 35.6°F2.0°C 61% 4.0 mph S6.4 kmh S 11.0 mph17.7 kmh 30.28 in1025.4 mb 0.00 in0.0 mm 0.00 in/hr0.0 mm/hr 0.00 in0.0 mm
10:50 AM 48.6°F9.2°C 35.8°F2.1°C 61% 8.0 mph S12.9 kmh S 11.0 mph17.7 kmh 30.28 in1025.4 mb 0.00 in0.0 mm 0.00 in/hr0.0 mm/hr 0.00 in0.0 mm
10:53 AM 48.7°F9.3°C 35.9°F2.2°C 61% 6.0 mph S9.7 kmh S 11.0 mph17.7 kmh 30.28 in1025.4 mb 0.00 in0.0 mm 0.00 in/hr0.0 mm/hr 0.00 in0.0 mm
10:54 AM 48.6°F9.2°C 35.8°F2.1°C 61% 4.0 mph S6.4 kmh S 11.0 mph17.7 kmh 30.28 in1025.4 mb 0.00 in0.0 mm 0.00 in/hr0.0 mm/hr 0.00 in0.0 mm
10:55 AM 48.4°F9.1°C 35.2°F1.8°C 60% 5.0 mph S8.0 kmh S 11.0 mph17.7 kmh 30.28 in1025.4 mb 0.00 in0.0 mm 0.00 in/hr0.0 mm/hr 0.00 in0.0 mm
10:58 AM 48.4°F9.1°C 36.0°F2.2°C 62% 1.0 mph S1.6 kmh S 11.0 mph17.7 kmh 30.28 in1025.4 mb 0.00 in0.0 mm 0.00 in/hr0.0 mm/hr 0.00 in0.0 mm
10:59 AM 48.6°F9.2°C 35.8°F2.1°C 61% 7.0 mph S11.3 kmh S 11.0 mph17.7 kmh 30.28 in1025.4 mb 0.00 in0.0 mm 0.00 in/hr0.0 mm/hr 0.00 in0.0 mm
11:00 AM 48.8°F9.3°C 36.0°F2.2°C 61% 5.0 mph S8.0 kmh S 8.0 mph12.9 kmh 30.28 in1025.4 mb 0.00 in0.0 mm 0.00 in/hr0.0 mm/hr 0.00 in0.0 mm
11:03 AM 49.1°F9.5°C 35.4°F1.9°C 59% 6.0 mph SSW9.7 kmh SSW 9.0 mph14.5 kmh 30.28 in1025.4 mb 0.00 in0.0 mm 0.00 in/hr0.0 mm/hr 0.00 in0.0 mm
11:04 AM 49.0°F9.4°C 35.3°F1.8°C 59% 7.0 mph SSW11.3 kmh SSW 9.0 mph14.5 kmh 30.28 in1025.4 mb 0.00 in0.0 mm 0.00 in/hr0.0 mm/hr 0.00 in0.0 mm
11:05 AM 48.6°F9.2°C 34.9°F1.6°C 59% 3.0 mph SSW4.8 kmh SSW 9.0 mph14.5 kmh 30.28 in1025.4 mb 0.00 in0.0 mm 0.00 in/hr0.0 mm/hr 0.00 in0.0 mm
11:08 AM 48.3°F9.1°C 35.5°F1.9°C 61% 7.0 mph SSW11.3 kmh SSW 9.0 mph14.5 kmh 30.28 in1025.4 mb 0.00 in0.0 mm 0.00 in/hr0.0 mm/hr 0.00 in0.0 mm
11:09 AM 48.2°F9.0°C 35.0°F1.7°C 60% 4.0 mph SSW6.4 kmh SSW 9.0 mph14.5 kmh 30.28 in1025.4 mb 0.00 in0.0 mm 0.00 in/hr0.0 mm/hr 0.00 in0.0 mm
11:10 AM 47.9°F8.8°C 35.1°F1.7°C 61% 7.0 mph SSW11.3 kmh SSW 9.0 mph14.5 kmh 30.28 in1025.4 mb 0.00 in0.0 mm 0.00 in/hr0.0 mm/hr 0.00 in0.0 mm
11:13 AM 47.5°F8.6°C 35.6°F2.0°C 63% 6.0 mph SSW9.7 kmh SSW 10.0 mph16.1 kmh 30.28 in1025.4 mb 0.00 in0.0 mm 0.00 in/hr0.0 mm/hr 0.00 in0.0 mm
11:14 AM 47.5°F8.6°C 35.6°F2.0°C 63% 6.0 mph SSW9.7 kmh SSW 10.0 mph16.1 kmh 30.28 in1025.4 mb 0.00 in0.0 mm 0.00 in/hr0.0 mm/hr 0.00 in0.0 mm
11:15 AM 47.4°F8.6°C 35.9°F2.2°C 64% 3.0 mph SSW4.8 kmh SSW 10.0 mph16.1 kmh 30.28 in1025.4 mb 0.00 in0.0 mm 0.00 in/hr0.0 mm/hr 0.00 in0.0 mm
11:18 AM 47.7°F8.7°C 35.7°F2.1°C 63% 5.0 mph SSW8.0 kmh SSW 10.0 mph16.1 kmh 30.28 in1025.4 mb 0.00 in0.0 mm 0.00 in/hr0.0 mm/hr 0.00 in0.0 mm
11:19 AM 47.7°F8.7°C 35.3°F1.8°C 62% 2.0 mph SSW3.2 kmh SSW 10.0 mph16.1 kmh 30.28 in1025.4 mb 0.00 in0.0 mm 0.00 in/hr0.0 mm/hr 0.00 in0.0 mm
11:20 AM 47.9°F8.8°C 35.9°F2.2°C 63% 4.0 mph SSW6.4 kmh SSW 10.0 mph16.1 kmh 30.27 in1025.1 mb 0.00 in0.0 mm 0.00 in/hr0.0 mm/hr 0.00 in0.0 mm
11:23 AM 48.2°F9.0°C 35.8°F2.1°C 62% 6.0 mph SSW9.7 kmh SSW 10.0 mph16.1 kmh 30.27 in1025.1 mb 0.00 in0.0 mm 0.00 in/hr0.0 mm/hr 0.00 in0.0 mm
11:24 AM 48.2°F9.0°C 35.8°F2.1°C 62% 1.0 mph SSW1.6 kmh SSW 10.0 mph16.1 kmh 30.27 in1025.1 mb 0.00 in0.0 mm 0.00 in/hr0.0 mm/hr 0.00 in0.0 mm
11:25 AM 48.2°F9.0°C 35.8°F2.1°C 62% 4.0 mph SSW6.4 kmh SSW 10.0 mph16.1 kmh 30.27 in1025.1 mb 0.00 in0.0 mm 0.00 in/hr0.0 mm/hr 0.00 in0.0 mm
11:28 AM 48.6°F9.2°C 35.4°F1.9°C 60% 7.0 mph SSW11.3 kmh SSW 10.0 mph16.1 kmh 30.27 in1025.1 mb 0.00 in0.0 mm 0.00 in/hr0.0 mm/hr 0.00 in0.0 mm
11:29 AM 48.5°F9.2°C 35.3°F1.8°C 60% 4.0 mph SSW6.4 kmh SSW 10.0 mph16.1 kmh 30.27 in1025.1 mb 0.00 in0.0 mm 0.00 in/hr0.0 mm/hr 0.00 in0.0 mm
11:30 AM 48.4°F9.1°C 35.2°F1.8°C 60% 5.0 mph SSW8.0 kmh SSW 10.0 mph16.1 kmh 30.27 in1025.1 mb 0.00 in0.0 mm 0.00 in/hr0.0 mm/hr 0.00 in0.0 mm
11:33 AM 48.3°F9.1°C 35.1°F1.7°C 60% 8.0 mph SSW12.9 kmh SSW 11.0 mph17.7 kmh 30.27 in1025.1 mb 0.00 in0.0 mm 0.00 in/hr0.0 mm/hr 0.00 in0.0 mm
11:34 AM 48.3°F9.1°C 35.1°F1.7°C 60% 5.0 mph SSW8.0 kmh SSW 11.0 mph17.7 kmh 30.27 in1025.1 mb 0.00 in0.0 mm 0.00 in/hr0.0 mm/hr 0.00 in0.0 mm
11:35 AM 48.3°F9.1°C 35.1°F1.7°C 60% 4.0 mph SSW6.4 kmh SSW 11.0 mph17.7 kmh 30.27 in1025.1 mb 0.00 in0.0 mm 0.00 in/hr0.0 mm/hr 0.00 in0.0 mm
11:38 AM 48.8°F9.3°C 35.6°F2.0°C 60% 2.0 mph S3.2 kmh S 11.0 mph17.7 kmh 30.26 in1024.7 mb 0.00 in0.0 mm 0.00 in/hr0.0 mm/hr 0.00 in0.0 mm
11:39 AM 49.0°F9.4°C 35.3°F1.8°C 59% 2.0 mph S3.2 kmh S 11.0 mph17.7 kmh 30.27 in1025.1 mb 0.00 in0.0 mm 0.00 in/hr0.0 mm/hr 0.00 in0.0 mm
11:40 AM 49.2°F9.6°C 35.1°F1.7°C 58% 3.0 mph S4.8 kmh S 11.0 mph17.7 kmh 30.27 in1025.1 mb 0.00 in0.0 mm 0.00 in/hr0.0 mm/hr 0.00 in0.0 mm
11:43 AM 49.8°F9.9°C 34.8°F1.6°C 56% 5.0 mph S8.0 kmh S 11.0 mph17.7 kmh 30.26 in1024.7 mb 0.00 in0.0 mm 0.00 in/hr0.0 mm/hr 0.00 in0.0 mm
11:44 AM 50.0°F10.0°C 34.5°F1.4°C 55% 5.0 mph S8.0 kmh S 11.0 mph17.7 kmh 30.27 in1025.1 mb 0.00 in0.0 mm 0.00 in/hr0.0 mm/hr 0.00 in0.0 mm
11:45 AM 50.2°F10.1°C 34.7°F1.5°C 55% 6.0 mph S9.7 kmh S 11.0 mph17.7 kmh 30.26 in1024.7 mb 0.00 in0.0 mm 0.00 in/hr0.0 mm/hr 0.00 in0.0 mm
11:48 AM 50.5°F10.3°C 35.0°F1.7°C 55% 3.0 mph S4.8 kmh S 11.0 mph17.7 kmh 30.27 in1025.1 mb 0.00 in0.0 mm 0.00 in/hr0.0 mm/hr 0.00 in0.0 mm
11:49 AM 50.5°F10.3°C 35.4°F1.9°C 56% 5.0 mph S8.0 kmh S 11.0 mph17.7 kmh 30.26 in1024.7 mb 0.00 in0.0 mm 0.00 in/hr0.0 mm/hr 0.00 in0.0 mm
11:50 AM 50.4°F10.2°C 34.9°F1.6°C 55% 3.0 mph S4.8 kmh S 11.0 mph17.7 kmh 30.26 in1024.7 mb 0.00 in0.0 mm 0.00 in/hr0.0 mm/hr 0.00 in0.0 mm
11:53 AM 50.2°F10.1°C 35.6°F2.0°C 57% 2.0 mph S3.2 kmh S 11.0 mph17.7 kmh 30.26 in1024.7 mb 0.00 in0.0 mm 0.00 in/hr0.0 mm/hr 0.00 in0.0 mm
11:54 AM 50.2°F10.1°C 35.6°F2.0°C 57% 3.0 mph S4.8 kmh S 11.0 mph17.7 kmh 30.26 in1024.7 mb 0.00 in0.0 mm 0.00 in/hr0.0 mm/hr 0.00 in0.0 mm
11:55 AM 50.1°F10.1°C 35.9°F2.2°C 58% 8.0 mph SSW12.9 kmh SSW 11.0 mph17.7 kmh 30.27 in1025.1 mb 0.00 in0.0 mm 0.00 in/hr0.0 mm/hr 0.00 in0.0 mm
11:58 AM 49.2°F9.6°C 34.2°F1.2°C 56% 8.0 mph SSW12.9 kmh SSW 11.0 mph17.7 kmh 30.26 in1024.7 mb 0.00 in0.0 mm 0.00 in/hr0.0 mm/hr 0.00 in0.0 mm
11:59 AM 49.1°F9.5°C 34.5°F1.4°C 57% 5.0 mph SSW8.0 kmh SSW 11.0 mph17.7 kmh 30.26 in1024.7 mb 0.00 in0.0 mm 0.00 in/hr0.0 mm/hr 0.00 in0.0 mm
12:00 PM 49.0°F9.4°C 34.5°F1.4°C 57% 5.0 mph SSW8.0 kmh SSW 6.0 mph9.7 kmh 30.26 in1024.7 mb 0.00 in0.0 mm 0.00 in/hr0.0 mm/hr 0.00 in0.0 mm
12:03 PM 48.7°F9.3°C 35.5°F1.9°C 60% 6.0 mph SSW9.7 kmh SSW 9.0 mph14.5 kmh 30.26 in1024.7 mb 0.00 in0.0 mm 0.00 in/hr0.0 mm/hr 0.00 in0.0 mm
12:04 PM 48.7°F9.3°C 35.5°F1.9°C 60% 3.0 mph S4.8 kmh S 9.0 mph14.5 kmh 30.26 in1024.7 mb 0.00 in0.0 mm 0.00 in/hr0.0 mm/hr 0.00 in0.0 mm
12:05 PM 48.8°F9.3°C 35.6°F2.0°C 60% 2.0 mph S3.2 kmh S 9.0 mph14.5 kmh 30.26 in1024.7 mb 0.00 in0.0 mm 0.00 in/hr0.0 mm/hr 0.00 in0.0 mm
12:08 PM 48.9°F9.4°C 35.2°F1.8°C 59% 4.0 mph S6.4 kmh S 10.0 mph16.1 kmh 30.26 in1024.7 mb 0.00 in0.0 mm 0.00 in/hr0.0 mm/hr 0.00 in0.0 mm
12:09 PM 49.1°F9.5°C 35.4°F1.9°C 59% 4.0 mph SSW6.4 kmh SSW 10.0 mph16.1 kmh 30.27 in1025.1 mb 0.00 in0.0 mm 0.00 in/hr0.0 mm/hr 0.00 in0.0 mm
12:10 PM 49.2°F9.6°C 35.5°F1.9°C 59% 7.0 mph SSW11.3 kmh SSW 10.0 mph16.1 kmh 30.26 in1024.7 mb 0.00 in0.0 mm 0.00 in/hr0.0 mm/hr 0.00 in0.0 mm
12:13 PM 49.5°F9.7°C 34.9°F1.6°C 57% 3.0 mph S4.8 kmh S 10.0 mph16.1 kmh 30.26 in1024.7 mb 0.00 in0.0 mm 0.00 in/hr0.0 mm/hr 0.00 in0.0 mm
12:14 PM 49.6°F9.8°C 35.0°F1.7°C 57% 3.0 mph S4.8 kmh S 10.0 mph16.1 kmh 30.26 in1024.7 mb 0.00 in0.0 mm 0.00 in/hr0.0 mm/hr 0.00 in0.0 mm
12:15 PM 49.6°F9.8°C 35.0°F1.7°C 57% 3.0 mph S4.8 kmh S 10.0 mph16.1 kmh 30.26 in1024.7 mb 0.00 in0.0 mm 0.00 in/hr0.0 mm/hr 0.00 in0.0 mm
12:18 PM 50.0°F10.0°C 34.9°F1.6°C 56% 4.0 mph S6.4 kmh S 10.0 mph16.1 kmh 30.26 in1024.7 mb 0.00 in0.0 mm 0.00 in/hr0.0 mm/hr 0.00 in0.0 mm
12:19 PM 50.2°F10.1°C 34.7°F1.5°C 55% 7.0 mph S11.3 kmh S 10.0 mph16.1 kmh 30.26 in1024.7 mb 0.00 in0.0 mm 0.00 in/hr0.0 mm/hr 0.00 in0.0 mm
12:20 PM 50.2°F10.1°C 34.7°F1.5°C 55% 7.0 mph SSW11.3 kmh SSW 10.0 mph16.1 kmh 30.26 in1024.7 mb 0.00 in0.0 mm 0.00 in/hr0.0 mm/hr 0.00 in0.0 mm
12:23 PM 50.4°F10.2°C 33.9°F1.1°C 53% 1.0 mph SSW1.6 kmh SSW 10.0 mph16.1 kmh 30.26 in1024.7 mb 0.00 in0.0 mm 0.00 in/hr0.0 mm/hr 0.00 in0.0 mm
12:24 PM 50.5°F10.3°C 34.0°F1.1°C 53% 7.0 mph SSW11.3 kmh SSW 11.0 mph17.7 kmh 30.26 in1024.7 mb 0.00 in0.0 mm 0.00 in/hr0.0 mm/hr 0.00 in0.0 mm
12:25 PM 50.6°F10.3°C 33.2°F0.7°C 51% 2.0 mph SSW3.2 kmh SSW 11.0 mph17.7 kmh 30.26 in1024.7 mb 0.00 in0.0 mm 0.00 in/hr0.0 mm/hr 0.00 in0.0 mm
12:28 PM 50.6°F10.3°C 33.2°F0.7°C 51% 7.0 mph SSW11.3 kmh SSW 11.0 mph17.7 kmh 30.26 in1024.7 mb 0.00 in0.0 mm 0.00 in/hr0.0 mm/hr 0.00 in0.0 mm
12:29 PM 50.5°F10.3°C 33.1°F0.6°C 51% 8.0 mph SW12.9 kmh SW 11.0 mph17.7 kmh 30.26 in1024.7 mb 0.00 in0.0 mm 0.00 in/hr0.0 mm/hr 0.00 in0.0 mm
12:30 PM 50.4°F10.2°C 33.5°F0.8°C 52% Calm Calm 11.0 mph17.7 kmh 30.26 in1024.7 mb 0.00 in0.0 mm 0.00 in/hr0.0 mm/hr 0.00 in0.0 mm
12:33 PM 50.5°F10.3°C 33.1°F0.6°C 51% 6.0 mph SSW9.7 kmh SSW 11.0 mph17.7 kmh 30.26 in1024.7 mb 0.00 in0.0 mm 0.00 in/hr0.0 mm/hr 0.00 in0.0 mm
12:34 PM 50.6°F10.3°C 33.2°F0.7°C 51% 3.0 mph SSW4.8 kmh SSW 11.0 mph17.7 kmh 30.26 in1024.7 mb 0.00 in0.0 mm 0.00 in/hr0.0 mm/hr 0.00 in0.0 mm
12:35 PM 50.7°F10.4°C 32.8°F0.4°C 50% 5.0 mph S8.0 kmh S 11.0 mph17.7 kmh 30.26 in1024.7 mb 0.00 in0.0 mm 0.00 in/hr0.0 mm/hr 0.00 in0.0 mm
12:38 PM 51.4°F10.8°C 32.9°F0.5°C 49% 2.0 mph SSW3.2 kmh SSW 11.0 mph17.7 kmh 30.26 in1024.7 mb 0.00 in0.0 mm 0.00 in/hr0.0 mm/hr 0.00 in0.0 mm
12:39 PM 51.6°F10.9°C 32.6°F0.3°C 48% 7.0 mph S11.3 kmh S 11.0 mph17.7 kmh 30.25 in1024.4 mb 0.00 in0.0 mm 0.00 in/hr0.0 mm/hr 0.00 in0.0 mm
12:40 PM 51.9°F11.1°C 32.3°F0.2°C 47% 5.0 mph S8.0 kmh S 11.0 mph17.7 kmh 30.25 in1024.4 mb 0.00 in0.0 mm 0.00 in/hr0.0 mm/hr 0.00 in0.0 mm
12:43 PM 52.3°F11.3°C 31.1°F-0.5°C 44% 4.0 mph S6.4 kmh S 11.0 mph17.7 kmh 30.25 in1024.4 mb 0.00 in0.0 mm 0.00 in/hr0.0 mm/hr 0.00 in0.0 mm
12:44 PM 52.4°F11.3°C 31.1°F-0.5°C 44% 3.0 mph SSW4.8 kmh SSW 11.0 mph17.7 kmh 30.25 in1024.4 mb 0.00 in0.0 mm 0.00 in/hr0.0 mm/hr 0.00 in0.0 mm
12:45 PM 52.5°F11.4°C 31.8°F-0.1°C 45% 6.0 mph SSW9.7 kmh SSW 11.0 mph17.7 kmh 30.25 in1024.4 mb 0.00 in0.0 mm 0.00 in/hr0.0 mm/hr 0.00 in0.0 mm
12:48 PM 52.5°F11.4°C 31.8°F-0.1°C 45% 2.0 mph S3.2 kmh S 11.0 mph17.7 kmh 30.25 in1024.4 mb 0.00 in0.0 mm 0.00 in/hr0.0 mm/hr 0.00 in0.0 mm
12:49 PM 52.6°F11.4°C 31.9°F-0.1°C 45% 5.0 mph SSW8.0 kmh SSW 11.0 mph17.7 kmh 30.25 in1024.4 mb 0.00 in0.0 mm 0.00 in/hr0.0 mm/hr 0.00 in0.0 mm
12:50 PM 52.5°F11.4°C 31.2°F-0.4°C 44% 4.0 mph S6.4 kmh S 11.0 mph17.7 kmh 30.25 in1024.4 mb 0.00 in0.0 mm 0.00 in/hr0.0 mm/hr 0.00 in0.0 mm
12:53 PM 52.4°F11.3°C 32.2°F0.1°C 46% 6.0 mph S9.7 kmh S 11.0 mph17.7 kmh 30.25 in1024.4 mb 0.00 in0.0 mm 0.00 in/hr0.0 mm/hr 0.00 in0.0 mm
12:54 PM 52.5°F11.4°C 32.9°F0.5°C 47% 2.0 mph S3.2 kmh S 11.0 mph17.7 kmh 30.25 in1024.4 mb 0.00 in0.0 mm 0.00 in/hr0.0 mm/hr 0.00 in0.0 mm
12:55 PM 52.6°F11.4°C 32.4°F0.2°C 46% 3.0 mph S4.8 kmh S 11.0 mph17.7 kmh 30.25 in1024.4 mb 0.00 in0.0 mm 0.00 in/hr0.0 mm/hr 0.00 in0.0 mm
12:58 PM 53.0°F11.7°C 32.3°F0.2°C 45% 8.0 mph S12.9 kmh S 11.0 mph17.7 kmh 30.25 in1024.4 mb 0.00 in0.0 mm 0.00 in/hr0.0 mm/hr 0.00 in0.0 mm
12:59 PM 53.1°F11.7°C 32.3°F0.2°C 45% 3.0 mph S4.8 kmh S 11.0 mph17.7 kmh 30.25 in1024.4 mb 0.00 in0.0 mm 0.00 in/hr0.0 mm/hr 0.00 in0.0 mm
01:00 PM 53.2°F11.8°C 31.9°F-0.1°C 44% 3.0 mph S4.8 kmh S 3.0 mph4.8 kmh 30.25 in1024.4 mb 0.00 in0.0 mm 0.00 in/hr0.0 mm/hr 0.00 in0.0 mm
01:03 PM 53.5°F11.9°C 31.6°F-0.2°C 43% 1.0 mph S1.6 kmh S 10.0 mph16.1 kmh 30.25 in1024.4 mb 0.00 in0.0 mm 0.00 in/hr0.0 mm/hr 0.00 in0.0 mm
01:04 PM 53.7°F12.1°C 32.3°F0.2°C 44% 9.0 mph S14.5 kmh S 10.0 mph16.1 kmh 30.25 in1024.4 mb 0.00 in0.0 mm 0.00 in/hr0.0 mm/hr 0.00 in0.0 mm
01:05 PM 53.7°F12.1°C 31.8°F-0.1°C 43% 3.0 mph S4.8 kmh S 10.0 mph16.1 kmh 30.25 in1024.4 mb 0.00 in0.0 mm 0.00 in/hr0.0 mm/hr 0.00 in0.0 mm
01:08 PM 53.9°F12.2°C 31.9°F-0.1°C 43% 5.0 mph S8.0 kmh S 10.0 mph16.1 kmh 30.25 in1024.4 mb 0.00 in0.0 mm 0.00 in/hr0.0 mm/hr 0.00 in0.0 mm
01:09 PM 54.0°F12.2°C 32.0°F0.0°C 43% 2.0 mph S3.2 kmh S 10.0 mph16.1 kmh 30.25 in1024.4 mb 0.00 in0.0 mm 0.00 in/hr0.0 mm/hr 0.00 in0.0 mm
01:10 PM 54.2°F12.3°C 32.2°F0.1°C 43% 4.0 mph S6.4 kmh S 10.0 mph16.1 kmh 30.25 in1024.4 mb 0.00 in0.0 mm 0.00 in/hr0.0 mm/hr 0.00 in0.0 mm
01:13 PM 54.5°F12.5°C 31.9°F-0.1°C 42% 5.0 mph S8.0 kmh S 10.0 mph16.1 kmh 30.25 in1024.4 mb 0.00 in0.0 mm 0.00 in/hr0.0 mm/hr 0.00 in0.0 mm
01:14 PM 54.5°F12.5°C 31.9°F-0.1°C 42% 5.0 mph S8.0 kmh S 10.0 mph16.1 kmh 30.25 in1024.4 mb 0.00 in0.0 mm 0.00 in/hr0.0 mm/hr 0.00 in0.0 mm
01:15 PM 54.5°F12.5°C 31.9°F-0.1°C 42% 5.0 mph S8.0 kmh S 10.0 mph16.1 kmh 30.25 in1024.4 mb 0.00 in0.0 mm 0.00 in/hr0.0 mm/hr 0.00 in0.0 mm
01:18 PM 54.5°F12.5°C 32.5°F0.3°C 43% 4.0 mph S6.4 kmh S 10.0 mph16.1 kmh 30.25 in1024.4 mb 0.00 in0.0 mm 0.00 in/hr0.0 mm/hr 0.00 in0.0 mm
01:19 PM 54.6°F12.6°C 32.0°F0.0°C 42% 5.0 mph S8.0 kmh S 10.0 mph16.1 kmh 30.25 in1024.4 mb 0.00 in0.0 mm 0.00 in/hr0.0 mm/hr 0.00 in0.0 mm
01:20 PM 54.6°F12.6°C 32.0°F0.0°C 42% 6.0 mph S9.7 kmh S 10.0 mph16.1 kmh 30.24 in1024.0 mb 0.00 in0.0 mm 0.00 in/hr0.0 mm/hr 0.00 in0.0 mm
01:21 PM 54.7°F12.6°C 32.1°F0.1°C 42% 4.0 mph S6.4 kmh S 11.0 mph17.7 kmh 30.24 in1024.0 mb 0.00 in0.0 mm 0.00 in/hr0.0 mm/hr 0.00 in0.0 mm
01:22 PM 54.7°F12.6°C 32.1°F0.1°C 42% 1.0 mph S1.6 kmh S 11.0 mph17.7 kmh 30.24 in1024.0 mb 0.00 in0.0 mm 0.00 in/hr0.0 mm/hr 0.00 in0.0 mm
01:23 PM 54.7°F12.6°C 32.7°F0.4°C 43% 3.0 mph S4.8 kmh S 11.0 mph17.7 kmh 30.24 in1024.0 mb 0.00 in0.0 mm 0.00 in/hr0.0 mm/hr 0.00 in0.0 mm
01:24 PM 54.7°F12.6°C 32.7°F0.4°C 43% 5.0 mph S8.0 kmh S 11.0 mph17.7 kmh 30.24 in1024.0 mb 0.00 in0.0 mm 0.00 in/hr0.0 mm/hr 0.00 in0.0 mm
01:25 PM 54.8°F12.7°C 32.2°F0.1°C 42% 3.0 mph S4.8 kmh S 11.0 mph17.7 kmh 30.24 in1024.0 mb 0.00 in0.0 mm 0.00 in/hr0.0 mm/hr 0.00 in0.0 mm
01:31 PM 55.0°F12.8°C 32.9°F0.5°C 43% 2.0 mph S3.2 kmh S 11.0 mph17.7 kmh 30.24 in1024.0 mb 0.00 in0.0 mm 0.00 in/hr0.0 mm/hr 0.00 in0.0 mm
01:32 PM 55.0°F12.8°C 32.9°F0.5°C 43% 2.0 mph S3.2 kmh S 11.0 mph17.7 kmh 30.24 in1024.0 mb 0.00 in0.0 mm 0.00 in/hr0.0 mm/hr 0.00 in0.0 mm
01:33 PM 54.9°F12.7°C 32.3°F0.2°C 42% 1.0 mph S1.6 kmh S 11.0 mph17.7 kmh 30.24 in1024.0 mb 0.00 in0.0 mm 0.00 in/hr0.0 mm/hr 0.00 in0.0 mm
01:34 PM 54.9°F12.7°C 32.3°F0.2°C 42% 5.0 mph S8.0 kmh S 11.0 mph17.7 kmh 30.24 in1024.0 mb 0.00 in0.0 mm 0.00 in/hr0.0 mm/hr 0.00 in0.0 mm
01:35 PM 55.0°F12.8°C 32.9°F0.5°C 43% 6.0 mph S9.7 kmh S 11.0 mph17.7 kmh 30.24 in1024.0 mb 0.00 in0.0 mm 0.00 in/hr0.0 mm/hr 0.00 in0.0 mm
01:38 PM 55.0°F12.8°C 32.9°F0.5°C 43% 4.0 mph S6.4 kmh S 11.0 mph17.7 kmh 30.24 in1024.0 mb 0.00 in0.0 mm 0.00 in/hr0.0 mm/hr 0.00 in0.0 mm
01:39 PM 55.0°F12.8°C 32.4°F0.2°C 42% 4.0 mph S6.4 kmh S 11.0 mph17.7 kmh 30.24 in1024.0 mb 0.00 in0.0 mm 0.00 in/hr0.0 mm/hr 0.00 in0.0 mm
01:40 PM 55.1°F12.8°C 33.0°F0.6°C 43% 6.0 mph S9.7 kmh S 11.0 mph17.7 kmh 30.24 in1024.0 mb 0.00 in0.0 mm 0.00 in/hr0.0 mm/hr 0.00 in0.0 mm
01:43 PM 55.5°F13.1°C 32.2°F0.1°C 41% 1.0 mph S1.6 kmh S 11.0 mph17.7 kmh 30.24 in1024.0 mb 0.00 in0.0 mm 0.00 in/hr0.0 mm/hr 0.00 in0.0 mm
01:44 PM 55.6°F13.1°C 32.3°F0.2°C 41% 8.0 mph S12.9 kmh S 11.0 mph17.7 kmh 30.24 in1024.0 mb 0.00 in0.0 mm 0.00 in/hr0.0 mm/hr 0.00 in0.0 mm
01:45 PM 55.6°F13.1°C 31.7°F-0.2°C 40% 2.0 mph S3.2 kmh S 11.0 mph17.7 kmh 30.24 in1024.0 mb 0.00 in0.0 mm 0.00 in/hr0.0 mm/hr 0.00 in0.0 mm
01:48 PM 55.7°F13.2°C 32.4°F0.2°C 41% 2.0 mph S3.2 kmh S 11.0 mph17.7 kmh 30.24 in1024.0 mb 0.00 in0.0 mm 0.00 in/hr0.0 mm/hr 0.00 in0.0 mm
01:49 PM 56.0°F13.3°C 32.7°F0.4°C 41% 2.0 mph S3.2 kmh S 11.0 mph17.7 kmh 30.24 in1024.0 mb 0.00 in0.0 mm 0.00 in/hr0.0 mm/hr 0.00 in0.0 mm
01:50 PM 56.1°F13.4°C 32.1°F0.1°C 40% 1.0 mph S1.6 kmh S 11.0 mph17.7 kmh 30.24 in1024.0 mb 0.00 in0.0 mm 0.00 in/hr0.0 mm/hr 0.00 in0.0 mm
01:53 PM 56.2°F13.4°C 31.6°F-0.2°C 39% 3.0 mph SSW4.8 kmh SSW 11.0 mph17.7 kmh 30.24 in1024.0 mb 0.00 in0.0 mm 0.00 in/hr0.0 mm/hr 0.00 in0.0 mm
01:54 PM 56.1°F13.4°C 32.1°F0.1°C 40% 2.0 mph S3.2 kmh S 11.0 mph17.7 kmh 30.24 in1024.0 mb 0.00 in0.0 mm 0.00 in/hr0.0 mm/hr 0.00 in0.0 mm
01:55 PM 56.0°F13.3°C 31.4°F-0.3°C 39% 2.0 mph S3.2 kmh S 11.0 mph17.7 kmh 30.24 in1024.0 mb 0.00 in0.0 mm 0.00 in/hr0.0 mm/hr 0.00 in0.0 mm
01:58 PM 56.0°F13.3°C 32.0°F0.0°C 40% 2.0 mph S3.2 kmh S 11.0 mph17.7 kmh 30.23 in1023.7 mb 0.00 in0.0 mm 0.00 in/hr0.0 mm/hr 0.00 in0.0 mm
01:59 PM 56.2°F13.4°C 32.2°F0.1°C 40% 7.0 mph SSW11.3 kmh SSW 11.0 mph17.7 kmh 30.23 in1023.7 mb 0.00 in0.0 mm 0.00 in/hr0.0 mm/hr 0.00 in0.0 mm
02:00 PM 56.2°F13.4°C 31.6°F-0.2°C 39% 2.0 mph SSW3.2 kmh SSW 4.0 mph6.4 kmh 30.23 in1023.7 mb 0.00 in0.0 mm 0.00 in/hr0.0 mm/hr 0.00 in0.0 mm
02:03 PM 56.4°F13.6°C 32.4°F0.2°C 40% Calm Calm 8.0 mph12.9 kmh 30.23 in1023.7 mb 0.00 in0.0 mm 0.00 in/hr0.0 mm/hr 0.00 in0.0 mm
02:04 PM 56.6°F13.7°C 32.6°F0.3°C 40% 3.0 mph S4.8 kmh S 8.0 mph12.9 kmh 30.23 in1023.7 mb 0.00 in0.0 mm 0.00 in/hr0.0 mm/hr 0.00 in0.0 mm
02:05 PM 56.8°F13.8°C 32.8°F0.4°C 40% 1.0 mph S1.6 kmh S 8.0 mph12.9 kmh 30.23 in1023.7 mb 0.00 in0.0 mm 0.00 in/hr0.0 mm/hr 0.00 in0.0 mm
02:08 PM 57.2°F14.0°C 31.8°F-0.1°C 38% 7.0 mph S11.3 kmh S 10.0 mph16.1 kmh 30.23 in1023.7 mb 0.00 in0.0 mm 0.00 in/hr0.0 mm/hr 0.00 in0.0 mm
02:09 PM 57.2°F14.0°C 31.8°F-0.1°C 38% 7.0 mph S11.3 kmh S 10.0 mph16.1 kmh 30.23 in1023.7 mb 0.00 in0.0 mm 0.00 in/hr0.0 mm/hr 0.00 in0.0 mm
02:10 PM 57.2°F14.0°C 31.2°F-0.4°C 37% 5.0 mph S8.0 kmh S 10.0 mph16.1 kmh 30.23 in1023.7 mb 0.00 in0.0 mm 0.00 in/hr0.0 mm/hr 0.00 in0.0 mm
02:13 PM 57.3°F14.1°C 31.3°F-0.4°C 37% 5.0 mph SSE8.0 kmh SSE 10.0 mph16.1 kmh 30.23 in1023.7 mb 0.00 in0.0 mm 0.00 in/hr0.0 mm/hr 0.00 in0.0 mm
02:14 PM 57.3°F14.1°C 31.9°F-0.1°C 38% 5.0 mph S8.0 kmh S 10.0 mph16.1 kmh 30.23 in1023.7 mb 0.00 in0.0 mm 0.00 in/hr0.0 mm/hr 0.00 in0.0 mm
02:15 PM 57.4°F14.1°C 31.4°F-0.3°C 37% 4.0 mph S6.4 kmh S 10.0 mph16.1 kmh 30.23 in1023.7 mb 0.00 in0.0 mm 0.00 in/hr0.0 mm/hr 0.00 in0.0 mm
02:18 PM 57.6°F14.2°C 31.5°F-0.3°C 37% 7.0 mph S11.3 kmh S 10.0 mph16.1 kmh 30.23 in1023.7 mb 0.00 in0.0 mm 0.00 in/hr0.0 mm/hr 0.00 in0.0 mm
02:19 PM 57.7°F14.3°C 31.6°F-0.2°C 37% 9.0 mph S14.5 kmh S 10.0 mph16.1 kmh 30.23 in1023.7 mb 0.00 in0.0 mm 0.00 in/hr0.0 mm/hr 0.00 in0.0 mm
02:20 PM 57.7°F14.3°C 31.0°F-0.6°C 36% 4.0 mph S6.4 kmh S 10.0 mph16.1 kmh 30.23 in1023.7 mb 0.00 in0.0 mm 0.00 in/hr0.0 mm/hr 0.00 in0.0 mm
02:23 PM 57.7°F14.3°C 31.0°F-0.6°C 36% 4.0 mph S6.4 kmh S 10.0 mph16.1 kmh 30.23 in1023.7 mb 0.00 in0.0 mm 0.00 in/hr0.0 mm/hr 0.00 in0.0 mm
02:24 PM 57.7°F14.3°C 31.0°F-0.6°C 36% 6.0 mph S9.7 kmh S 10.0 mph16.1 kmh 30.22 in1023.4 mb 0.00 in0.0 mm 0.00 in/hr0.0 mm/hr 0.00 in0.0 mm
02:25 PM 57.7°F14.3°C 30.3°F-0.9°C 35% 5.0 mph S8.0 kmh S 10.0 mph16.1 kmh 30.22 in1023.4 mb 0.00 in0.0 mm 0.00 in/hr0.0 mm/hr 0.00 in0.0 mm
02:28 PM 57.9°F14.4°C 30.4°F-0.9°C 35% 6.0 mph S9.7 kmh S 10.0 mph16.1 kmh 30.22 in1023.4 mb 0.00 in0.0 mm 0.00 in/hr0.0 mm/hr 0.00 in0.0 mm
02:29 PM 58.0°F14.4°C 30.5°F-0.8°C 35% 4.0 mph S6.4 kmh S 10.0 mph16.1 kmh 30.22 in1023.4 mb 0.00 in0.0 mm 0.00 in/hr0.0 mm/hr 0.00 in0.0 mm
02:30 PM 58.1°F14.5°C 30.6°F-0.8°C 35% 6.0 mph S9.7 kmh S 10.0 mph16.1 kmh 30.22 in1023.4 mb 0.00 in0.0 mm 0.00 in/hr0.0 mm/hr 0.00 in0.0 mm
02:33 PM 58.2°F14.6°C 30.7°F-0.7°C 35% 5.0 mph S8.0 kmh S 10.0 mph16.1 kmh 30.22 in1023.4 mb 0.00 in0.0 mm 0.00 in/hr0.0 mm/hr 0.00 in0.0 mm
02:34 PM 58.2°F14.6°C 30.7°F-0.7°C 35% 2.0 mph S3.2 kmh S 10.0 mph16.1 kmh 30.22 in1023.4 mb 0.00 in0.0 mm 0.00 in/hr0.0 mm/hr 0.00 in0.0 mm
02:35 PM 58.2°F14.6°C 30.7°F-0.7°C 35% 1.0 mph S1.6 kmh S 10.0 mph16.1 kmh 30.22 in1023.4 mb 0.00 in0.0 mm 0.00 in/hr0.0 mm/hr 0.00 in0.0 mm
02:38 PM 58.0°F14.4°C 30.5°F-0.8°C 35% 4.0 mph S6.4 kmh S 10.0 mph16.1 kmh 30.22 in1023.4 mb 0.00 in0.0 mm 0.00 in/hr0.0 mm/hr 0.00 in0.0 mm
02:39 PM 58.1°F14.5°C 29.9°F-1.2°C 34% 3.0 mph S4.8 kmh S 10.0 mph16.1 kmh 30.22 in1023.4 mb 0.00 in0.0 mm 0.00 in/hr0.0 mm/hr 0.00 in0.0 mm
02:40 PM 58.1°F14.5°C 30.6°F-0.8°C 35% 2.0 mph S3.2 kmh S 10.0 mph16.1 kmh 30.22 in1023.4 mb 0.00 in0.0 mm 0.00 in/hr0.0 mm/hr 0.00 in0.0 mm
02:43 PM 57.9°F14.4°C 30.4°F-0.9°C 35% 2.0 mph S3.2 kmh S 10.0 mph16.1 kmh 30.22 in1023.4 mb 0.00 in0.0 mm 0.00 in/hr0.0 mm/hr 0.00 in0.0 mm
02:44 PM 57.9°F14.4°C 30.4°F-0.9°C 35% 6.0 mph S9.7 kmh S 10.0 mph16.1 kmh 30.21 in1023.0 mb 0.00 in0.0 mm 0.00 in/hr0.0 mm/hr 0.00 in0.0 mm
02:45 PM 57.9°F14.4°C 30.4°F-0.9°C 35% 6.0 mph S9.7 kmh S 10.0 mph16.1 kmh 30.21 in1023.0 mb 0.00 in0.0 mm 0.00 in/hr0.0 mm/hr 0.00 in0.0 mm
02:48 PM 58.0°F14.4°C 30.5°F-0.8°C 35% 6.0 mph S9.7 kmh S 10.0 mph16.1 kmh 30.21 in1023.0 mb 0.00 in0.0 mm 0.00 in/hr0.0 mm/hr 0.00 in0.0 mm
02:49 PM 57.9°F14.4°C 31.1°F-0.5°C 36% 5.0 mph S8.0 kmh S 10.0 mph16.1 kmh 30.22 in1023.4 mb 0.00 in0.0 mm 0.00 in/hr0.0 mm/hr 0.00 in0.0 mm
02:50 PM 57.8°F14.3°C 31.0°F-0.6°C 36% 6.0 mph S9.7 kmh S 10.0 mph16.1 kmh 30.22 in1023.4 mb 0.00 in0.0 mm 0.00 in/hr0.0 mm/hr 0.00 in0.0 mm
02:53 PM 57.9°F14.4°C 31.1°F-0.5°C 36% 4.0 mph S6.4 kmh S 10.0 mph16.1 kmh 30.21 in1023.0 mb 0.00 in0.0 mm 0.00 in/hr0.0 mm/hr 0.00 in0.0 mm
02:54 PM 58.0°F14.4°C 31.2°F-0.4°C 36% 2.0 mph S3.2 kmh S 10.0 mph16.1 kmh 30.21 in1023.0 mb 0.00 in0.0 mm 0.00 in/hr0.0 mm/hr 0.00 in0.0 mm
02:55 PM 57.9°F14.4°C 30.4°F-0.9°C 35% 4.0 mph S6.4 kmh S 10.0 mph16.1 kmh 30.21 in1023.0 mb 0.00 in0.0 mm 0.00 in/hr0.0 mm/hr 0.00 in0.0 mm
02:58 PM 58.1°F14.5°C 30.6°F-0.8°C 35% 9.0 mph S14.5 kmh S 10.0 mph16.1 kmh 30.21 in1023.0 mb 0.00 in0.0 mm 0.00 in/hr0.0 mm/hr 0.00 in0.0 mm
02:59 PM 58.0°F14.4°C 30.5°F-0.8°C 35% 3.0 mph S4.8 kmh S 10.0 mph16.1 kmh 30.21 in1023.0 mb 0.00 in0.0 mm 0.00 in/hr0.0 mm/hr 0.00 in0.0 mm
03:00 PM 57.9°F14.4°C 30.4°F-0.9°C 35% 4.0 mph S6.4 kmh S 6.0 mph9.7 kmh 30.21 in1023.0 mb 0.00 in0.0 mm 0.00 in/hr0.0 mm/hr 0.00 in0.0 mm
03:03 PM 58.0°F14.4°C 30.5°F-0.8°C 35% 4.0 mph S6.4 kmh S 6.0 mph9.7 kmh 30.21 in1023.0 mb 0.00 in0.0 mm 0.00 in/hr0.0 mm/hr 0.00 in0.0 mm
03:04 PM 58.1°F14.5°C 30.6°F-0.8°C 35% 5.0 mph S8.0 kmh S 6.0 mph9.7 kmh 30.21 in1023.0 mb 0.00 in0.0 mm 0.00 in/hr0.0 mm/hr 0.00 in0.0 mm
03:05 PM 58.1°F14.5°C 30.6°F-0.8°C 35% 2.0 mph S3.2 kmh S 6.0 mph9.7 kmh 30.21 in1023.0 mb 0.00 in0.0 mm 0.00 in/hr0.0 mm/hr 0.00 in0.0 mm
03:08 PM 58.2°F14.6°C 31.4°F-0.3°C 36% 7.0 mph S11.3 kmh S 7.0 mph11.3 kmh 30.21 in1023.0 mb 0.00 in0.0 mm 0.00 in/hr0.0 mm/hr 0.00 in0.0 mm
03:09 PM 58.2°F14.6°C 31.4°F-0.3°C 36% 5.0 mph S8.0 kmh S 7.0 mph11.3 kmh 30.21 in1023.0 mb 0.00 in0.0 mm 0.00 in/hr0.0 mm/hr 0.00 in0.0 mm
03:10 PM 58.1°F14.5°C 30.6°F-0.8°C 35% 5.0 mph S8.0 kmh S 7.0 mph11.3 kmh 30.21 in1023.0 mb 0.00 in0.0 mm 0.00 in/hr0.0 mm/hr 0.00 in0.0 mm
03:13 PM 58.1°F14.5°C 31.3°F-0.4°C 36% 4.0 mph S6.4 kmh S 7.0 mph11.3 kmh 30.21 in1023.0 mb 0.00 in0.0 mm 0.00 in/hr0.0 mm/hr 0.00 in0.0 mm
03:14 PM 58.1°F14.5°C 30.6°F-0.8°C 35% 6.0 mph S9.7 kmh S 8.0 mph12.9 kmh 30.21 in1023.0 mb 0.00 in0.0 mm 0.00 in/hr0.0 mm/hr 0.00 in0.0 mm
03:15 PM 58.1°F14.5°C 30.6°F-0.8°C 35% 1.0 mph S1.6 kmh S 8.0 mph12.9 kmh 30.21 in1023.0 mb 0.00 in0.0 mm 0.00 in/hr0.0 mm/hr 0.00 in0.0 mm
03:18 PM 58.1°F14.5°C 30.6°F-0.8°C 35% 2.0 mph S3.2 kmh S 8.0 mph12.9 kmh 30.21 in1023.0 mb 0.00 in0.0 mm 0.00 in/hr0.0 mm/hr 0.00 in0.0 mm
03:19 PM 58.2°F14.6°C 30.7°F-0.7°C 35% 2.0 mph S3.2 kmh S 8.0 mph12.9 kmh 30.21 in1023.0 mb 0.00 in0.0 mm 0.00 in/hr0.0 mm/hr 0.00 in0.0 mm
03:20 PM 58.3°F14.6°C 30.8°F-0.7°C 35% 1.0 mph S1.6 kmh S 8.0 mph12.9 kmh 30.21 in1023.0 mb 0.00 in0.0 mm 0.00 in/hr0.0 mm/hr 0.00 in0.0 mm
03:23 PM 58.3°F14.6°C 30.1°F-1.1°C 34% 5.0 mph S8.0 kmh S 8.0 mph12.9 kmh 30.21 in1023.0 mb 0.00 in0.0 mm 0.00 in/hr0.0 mm/hr 0.00 in0.0 mm
03:24 PM 58.3°F14.6°C 30.1°F-1.1°C 34% 6.0 mph S9.7 kmh S 8.0 mph12.9 kmh 30.21 in1023.0 mb 0.00 in0.0 mm 0.00 in/hr0.0 mm/hr 0.00 in0.0 mm
03:25 PM 58.4°F14.7°C 30.9°F-0.6°C 35% 5.0 mph S8.0 kmh S 8.0 mph12.9 kmh 30.21 in1023.0 mb 0.00 in0.0 mm 0.00 in/hr0.0 mm/hr 0.00 in0.0 mm
03:28 PM 58.5°F14.7°C 30.3°F-0.9°C 34% 2.0 mph S3.2 kmh S 8.0 mph12.9 kmh 30.21 in1023.0 mb 0.00 in0.0 mm 0.00 in/hr0.0 mm/hr 0.00 in0.0 mm
03:29 PM 58.3°F14.6°C 30.1°F-1.1°C 34% 5.0 mph S8.0 kmh S 9.0 mph14.5 kmh 30.21 in1023.0 mb 0.00 in0.0 mm 0.00 in/hr0.0 mm/hr 0.00 in0.0 mm
03:30 PM 58.2°F14.6°C 30.0°F-1.1°C 34% 5.0 mph S8.0 kmh S 9.0 mph14.5 kmh 30.21 in1023.0 mb 0.00 in0.0 mm 0.00 in/hr0.0 mm/hr 0.00 in0.0 mm
03:33 PM 57.6°F14.2°C 30.2°F-1.0°C 35% 5.0 mph S8.0 kmh S 9.0 mph14.5 kmh 30.21 in1023.0 mb 0.00 in0.0 mm 0.00 in/hr0.0 mm/hr 0.00 in0.0 mm
03:34 PM 57.6°F14.2°C 30.2°F-1.0°C 35% 4.0 mph S6.4 kmh S 9.0 mph14.5 kmh 30.21 in1023.0 mb 0.00 in0.0 mm 0.00 in/hr0.0 mm/hr 0.00 in0.0 mm
03:35 PM 57.5°F14.2°C 30.1°F-1.1°C 35% 5.0 mph S8.0 kmh S 9.0 mph14.5 kmh 30.21 in1023.0 mb 0.00 in0.0 mm 0.00 in/hr0.0 mm/hr 0.00 in0.0 mm
03:38 PM 57.4°F14.1°C 30.7°F-0.7°C 36% 4.0 mph S6.4 kmh S 9.0 mph14.5 kmh 30.21 in1023.0 mb 0.00 in0.0 mm 0.00 in/hr0.0 mm/hr 0.00 in0.0 mm
03:39 PM 57.5°F14.2°C 30.8°F-0.7°C 36% 2.0 mph S3.2 kmh S 9.0 mph14.5 kmh 30.21 in1023.0 mb 0.00 in0.0 mm 0.00 in/hr0.0 mm/hr 0.00 in0.0 mm
03:40 PM 57.6°F14.2°C 30.9°F-0.6°C 36% Calm Calm 9.0 mph14.5 kmh 30.21 in1023.0 mb 0.00 in0.0 mm 0.00 in/hr0.0 mm/hr 0.00 in0.0 mm
03:43 PM 57.7°F14.3°C 31.0°F-0.6°C 36% 2.0 mph S3.2 kmh S 9.0 mph14.5 kmh 30.21 in1023.0 mb 0.00 in0.0 mm 0.00 in/hr0.0 mm/hr 0.00 in0.0 mm
03:44 PM 57.7°F14.3°C 31.0°F-0.6°C 36% 5.0 mph S8.0 kmh S 9.0 mph14.5 kmh 30.21 in1023.0 mb 0.00 in0.0 mm 0.00 in/hr0.0 mm/hr 0.00 in0.0 mm
03:45 PM 57.7°F14.3°C 31.6°F-0.2°C 37% 5.0 mph S8.0 kmh S 9.0 mph14.5 kmh 30.21 in1023.0 mb 0.00 in0.0 mm 0.00 in/hr0.0 mm/hr 0.00 in0.0 mm
03:48 PM 57.8°F14.3°C 31.0°F-0.6°C 36% 1.0 mph S1.6 kmh S 9.0 mph14.5 kmh 30.21 in1023.0 mb 0.00 in0.0 mm 0.00 in/hr0.0 mm/hr 0.00 in0.0 mm
03:49 PM 57.8°F14.3°C 31.0°F-0.6°C 36% 5.0 mph S8.0 kmh S 9.0 mph14.5 kmh 30.21 in1023.0 mb 0.00 in0.0 mm 0.00 in/hr0.0 mm/hr 0.00 in0.0 mm
03:50 PM 57.7°F14.3°C 31.0°F-0.6°C 36% 5.0 mph S8.0 kmh S 9.0 mph14.5 kmh 30.21 in1023.0 mb 0.00 in0.0 mm 0.00 in/hr0.0 mm/hr 0.00 in0.0 mm
03:53 PM 57.3°F14.1°C 30.6°F-0.8°C 36% 6.0 mph S9.7 kmh S 9.0 mph14.5 kmh 30.20 in1022.7 mb 0.00 in0.0 mm 0.00 in/hr0.0 mm/hr 0.00 in0.0 mm
03:54 PM 57.2°F14.0°C 30.5°F-0.8°C 36% 4.0 mph S6.4 kmh S 9.0 mph14.5 kmh 30.20 in1022.7 mb 0.00 in0.0 mm 0.00 in/hr0.0 mm/hr 0.00 in0.0 mm
03:55 PM 57.2°F14.0°C 30.5°F-0.8°C 36% 6.0 mph S9.7 kmh S 11.0 mph17.7 kmh 30.20 in1022.7 mb 0.00 in0.0 mm 0.00 in/hr0.0 mm/hr 0.00 in0.0 mm
03:58 PM 57.0°F13.9°C 30.3°F-0.9°C 36% 5.0 mph S8.0 kmh S 11.0 mph17.7 kmh 30.20 in1022.7 mb 0.00 in0.0 mm 0.00 in/hr0.0 mm/hr 0.00 in0.0 mm
03:59 PM 57.0°F13.9°C 30.3°F-0.9°C 36% 2.0 mph S3.2 kmh S 11.0 mph17.7 kmh 30.20 in1022.7 mb 0.00 in0.0 mm 0.00 in/hr0.0 mm/hr 0.00 in0.0 mm
04:00 PM 56.9°F13.8°C 30.2°F-1.0°C 36% 2.0 mph S3.2 kmh S 8.0 mph12.9 kmh 30.20 in1022.7 mb 0.00 in0.0 mm 0.00 in/hr0.0 mm/hr 0.00 in0.0 mm
04:03 PM 56.9°F13.8°C 30.9°F-0.6°C 37% 4.0 mph S6.4 kmh S 8.0 mph12.9 kmh 30.20 in1022.7 mb 0.00 in0.0 mm 0.00 in/hr0.0 mm/hr 0.00 in0.0 mm
04:04 PM 57.0°F13.9°C 31.0°F-0.6°C 37% 5.0 mph S8.0 kmh S 9.0 mph14.5 kmh 30.20 in1022.7 mb 0.00 in0.0 mm 0.00 in/hr0.0 mm/hr 0.00 in0.0 mm
04:05 PM 56.9°F13.8°C 30.9°F-0.6°C 37% 4.0 mph S6.4 kmh S 9.0 mph14.5 kmh 30.20 in1022.7 mb 0.00 in0.0 mm 0.00 in/hr0.0 mm/hr 0.00 in0.0 mm
04:08 PM 56.8°F13.8°C 31.5°F-0.3°C 38% 4.0 mph S6.4 kmh S 9.0 mph14.5 kmh 30.20 in1022.7 mb 0.00 in0.0 mm 0.00 in/hr0.0 mm/hr 0.00 in0.0 mm
04:09 PM 56.7°F13.7°C 31.4°F-0.3°C 38% 8.0 mph S12.9 kmh S 9.0 mph14.5 kmh 30.20 in1022.7 mb 0.00 in0.0 mm 0.00 in/hr0.0 mm/hr 0.00 in0.0 mm
04:10 PM 56.7°F13.7°C 31.4°F-0.3°C 38% 8.0 mph S12.9 kmh S 9.0 mph14.5 kmh 30.20 in1022.7 mb 0.00 in0.0 mm 0.00 in/hr0.0 mm/hr 0.00 in0.0 mm
04:13 PM 56.3°F13.5°C 31.7°F-0.2°C 39% 5.0 mph S8.0 kmh S 9.0 mph14.5 kmh 30.20 in1022.7 mb 0.00 in0.0 mm 0.00 in/hr0.0 mm/hr 0.00 in0.0 mm
04:14 PM 56.3°F13.5°C 31.7°F-0.2°C 39% 2.0 mph S3.2 kmh S 9.0 mph14.5 kmh 30.19 in1022.4 mb 0.00 in0.0 mm 0.00 in/hr0.0 mm/hr 0.00 in0.0 mm
04:15 PM 56.3°F13.5°C 32.3°F0.2°C 40% 4.0 mph S6.4 kmh S 9.0 mph14.5 kmh 30.19 in1022.4 mb 0.00 in0.0 mm 0.00 in/hr0.0 mm/hr 0.00 in0.0 mm
04:18 PM 56.4°F13.6°C 32.4°F0.2°C 40% 2.0 mph S3.2 kmh S 9.0 mph14.5 kmh 30.19 in1022.4 mb 0.00 in0.0 mm 0.00 in/hr0.0 mm/hr 0.00 in0.0 mm
04:19 PM 56.4°F13.6°C 33.0°F0.6°C 41% 7.0 mph S11.3 kmh S 9.0 mph14.5 kmh 30.19 in1022.4 mb 0.00 in0.0 mm 0.00 in/hr0.0 mm/hr 0.00 in0.0 mm
04:20 PM 56.3°F13.5°C 32.9°F0.5°C 41% 4.0 mph S6.4 kmh S 9.0 mph14.5 kmh 30.19 in1022.4 mb 0.00 in0.0 mm 0.00 in/hr0.0 mm/hr 0.00 in0.0 mm
04:23 PM 55.9°F13.3°C 33.2°F0.7°C 42% 2.0 mph S3.2 kmh S 9.0 mph14.5 kmh 30.19 in1022.4 mb 0.00 in0.0 mm 0.00 in/hr0.0 mm/hr 0.00 in0.0 mm
04:24 PM 55.9°F13.3°C 33.8°F1.0°C 43% 5.0 mph S8.0 kmh S 9.0 mph14.5 kmh 30.19 in1022.4 mb 0.00 in0.0 mm 0.00 in/hr0.0 mm/hr 0.00 in0.0 mm
04:25 PM 55.8°F13.2°C 33.7°F0.9°C 43% 5.0 mph S8.0 kmh S 9.0 mph14.5 kmh 30.19 in1022.4 mb 0.00 in0.0 mm 0.00 in/hr0.0 mm/hr 0.00 in0.0 mm
04:28 PM 55.4°F13.0°C 33.9°F1.1°C 44% 6.0 mph S9.7 kmh S 9.0 mph14.5 kmh 30.19 in1022.4 mb 0.00 in0.0 mm 0.00 in/hr0.0 mm/hr 0.00 in0.0 mm
04:29 PM 55.4°F13.0°C 33.3°F0.7°C 43% 5.0 mph S8.0 kmh S 9.0 mph14.5 kmh 30.20 in1022.7 mb 0.00 in0.0 mm 0.00 in/hr0.0 mm/hr 0.00 in0.0 mm
04:30 PM 55.3°F12.9°C 33.8°F1.0°C 44% 3.0 mph S4.8 kmh S 9.0 mph14.5 kmh 30.20 in1022.7 mb 0.00 in0.0 mm 0.00 in/hr0.0 mm/hr 0.00 in0.0 mm
04:33 PM 55.4°F13.0°C 33.9°F1.1°C 44% 5.0 mph S8.0 kmh S 9.0 mph14.5 kmh 30.19 in1022.4 mb 0.00 in0.0 mm 0.00 in/hr0.0 mm/hr 0.00 in0.0 mm
04:34 PM 55.5°F13.1°C 34.0°F1.1°C 44% 4.0 mph S6.4 kmh S 9.0 mph14.5 kmh 30.19 in1022.4 mb 0.00 in0.0 mm 0.00 in/hr0.0 mm/hr 0.00 in0.0 mm
04:35 PM 55.5°F13.1°C 34.0°F1.1°C 44% 2.0 mph S3.2 kmh S 9.0 mph14.5 kmh 30.20 in1022.7 mb 0.00 in0.0 mm 0.00 in/hr0.0 mm/hr 0.00 in0.0 mm
04:38 PM 55.5°F13.1°C 34.0°F1.1°C 44% 5.0 mph S8.0 kmh S 9.0 mph14.5 kmh 30.19 in1022.4 mb 0.00 in0.0 mm 0.00 in/hr0.0 mm/hr 0.00 in0.0 mm
04:39 PM 55.5°F13.1°C 34.0°F1.1°C 44% 7.0 mph S11.3 kmh S 9.0 mph14.5 kmh 30.19 in1022.4 mb 0.00 in0.0 mm 0.00 in/hr0.0 mm/hr 0.00 in0.0 mm
04:40 PM 55.5°F13.1°C 34.5°F1.4°C 45% 4.0 mph S6.4 kmh S 9.0 mph14.5 kmh 30.19 in1022.4 mb 0.00 in0.0 mm 0.00 in/hr0.0 mm/hr 0.00 in0.0 mm
04:43 PM 55.6°F13.1°C 34.6°F1.4°C 45% 4.0 mph S6.4 kmh S 9.0 mph14.5 kmh 30.19 in1022.4 mb 0.00 in0.0 mm 0.00 in/hr0.0 mm/hr 0.00 in0.0 mm
04:44 PM 55.7°F13.2°C 34.7°F1.5°C 45% 5.0 mph S8.0 kmh S 9.0 mph14.5 kmh 30.19 in1022.4 mb 0.00 in0.0 mm 0.00 in/hr0.0 mm/hr 0.00 in0.0 mm
04:45 PM 55.6°F13.1°C 34.1°F1.2°C 44% 4.0 mph S6.4 kmh S 9.0 mph14.5 kmh 30.19 in1022.4 mb 0.00 in0.0 mm 0.00 in/hr0.0 mm/hr 0.00 in0.0 mm
04:48 PM 55.6°F13.1°C 34.6°F1.4°C 45% 5.0 mph S8.0 kmh S 9.0 mph14.5 kmh 30.19 in1022.4 mb 0.00 in0.0 mm 0.00 in/hr0.0 mm/hr 0.00 in0.0 mm
04:49 PM 55.5°F13.1°C 34.5°F1.4°C 45% 4.0 mph S6.4 kmh S 11.0 mph17.7 kmh 30.19 in1022.4 mb 0.00 in0.0 mm 0.00 in/hr0.0 mm/hr 0.00 in0.0 mm
04:50 PM 55.5°F13.1°C 34.0°F1.1°C 44% Calm Calm 11.0 mph17.7 kmh 30.19 in1022.4 mb 0.00 in0.0 mm 0.00 in/hr0.0 mm/hr 0.00 in0.0 mm
04:53 PM 55.6°F13.1°C 34.6°F1.4°C 45% 1.0 mph S1.6 kmh S 11.0 mph17.7 kmh 30.19 in1022.4 mb 0.00 in0.0 mm 0.00 in/hr0.0 mm/hr 0.00 in0.0 mm
04:54 PM 55.5°F13.1°C 34.5°F1.4°C 45% Calm Calm 11.0 mph17.7 kmh 30.19 in1022.4 mb 0.00 in0.0 mm 0.00 in/hr0.0 mm/hr 0.00 in0.0 mm
04:55 PM 55.5°F13.1°C 34.5°F1.4°C 45% 2.0 mph S3.2 kmh S 11.0 mph17.7 kmh 30.19 in1022.4 mb 0.00 in0.0 mm 0.00 in/hr0.0 mm/hr 0.00 in0.0 mm
04:58 PM 56.0°F13.3°C 35.5°F1.9°C 46% 2.0 mph S3.2 kmh S 11.0 mph17.7 kmh 30.18 in1022.0 mb 0.00 in0.0 mm 0.00 in/hr0.0 mm/hr 0.00 in0.0 mm
04:59 PM 56.2°F13.4°C 35.2°F1.8°C 45% 8.0 mph S12.9 kmh S 11.0 mph17.7 kmh 30.18 in1022.0 mb 0.00 in0.0 mm 0.00 in/hr0.0 mm/hr 0.00 in0.0 mm
05:00 PM 56.1°F13.4°C 34.5°F1.4°C 44% 2.0 mph S3.2 kmh S 4.0 mph6.4 kmh 30.18 in1022.0 mb 0.00 in0.0 mm 0.00 in/hr0.0 mm/hr 0.00 in0.0 mm
05:03 PM 56.4°F13.6°C 35.3°F1.8°C 45% 5.0 mph S8.0 kmh S 5.0 mph8.0 kmh 30.18 in1022.0 mb 0.00 in0.0 mm 0.00 in/hr0.0 mm/hr 0.00 in0.0 mm
05:04 PM 56.3°F13.5°C 35.3°F1.8°C 45% 2.0 mph S3.2 kmh S 6.0 mph9.7 kmh 30.18 in1022.0 mb 0.00 in0.0 mm 0.00 in/hr0.0 mm/hr 0.00 in0.0 mm
05:05 PM 56.2°F13.4°C 35.2°F1.8°C 45% 5.0 mph S8.0 kmh S 6.0 mph9.7 kmh 30.18 in1022.0 mb 0.00 in0.0 mm 0.00 in/hr0.0 mm/hr 0.00 in0.0 mm
05:08 PM 55.6°F13.1°C 34.6°F1.4°C 45% 4.0 mph S6.4 kmh S 8.0 mph12.9 kmh 30.18 in1022.0 mb 0.00 in0.0 mm 0.00 in/hr0.0 mm/hr 0.00 in0.0 mm
05:09 PM 55.5°F13.1°C 35.1°F1.7°C 46% 4.0 mph S6.4 kmh S 8.0 mph12.9 kmh 30.18 in1022.0 mb 0.00 in0.0 mm 0.00 in/hr0.0 mm/hr 0.00 in0.0 mm
05:10 PM 55.3°F12.9°C 34.9°F1.6°C 46% 5.0 mph SSW8.0 kmh SSW 8.0 mph12.9 kmh 30.18 in1022.0 mb 0.00 in0.0 mm 0.00 in/hr0.0 mm/hr 0.00 in0.0 mm
05:13 PM 55.0°F12.8°C 34.6°F1.4°C 46% 6.0 mph S9.7 kmh S 9.0 mph14.5 kmh 30.18 in1022.0 mb 0.00 in0.0 mm 0.00 in/hr0.0 mm/hr 0.00 in0.0 mm
05:14 PM 54.9°F12.7°C 35.1°F1.7°C 47% 1.0 mph S1.6 kmh S 9.0 mph14.5 kmh 30.18 in1022.0 mb 0.00 in0.0 mm 0.00 in/hr0.0 mm/hr 0.00 in0.0 mm
05:15 PM 54.9°F12.7°C 35.6°F2.0°C 48% 3.0 mph S4.8 kmh S 9.0 mph14.5 kmh 30.18 in1022.0 mb 0.00 in0.0 mm 0.00 in/hr0.0 mm/hr 0.00 in0.0 mm
05:18 PM 54.7°F12.6°C 35.4°F1.9°C 48% Calm Calm 9.0 mph14.5 kmh 30.18 in1022.0 mb 0.00 in0.0 mm 0.00 in/hr0.0 mm/hr 0.00 in0.0 mm
05:19 PM 54.9°F12.7°C 36.1°F2.3°C 49% 5.0 mph S8.0 kmh S 9.0 mph14.5 kmh 30.18 in1022.0 mb 0.00 in0.0 mm 0.00 in/hr0.0 mm/hr 0.00 in0.0 mm
05:20 PM 55.0°F12.8°C 35.7°F2.1°C 48% 1.0 mph S1.6 kmh S 9.0 mph14.5 kmh 30.18 in1022.0 mb 0.00 in0.0 mm 0.00 in/hr0.0 mm/hr 0.00 in0.0 mm
05:23 PM 55.2°F12.9°C 35.3°F1.8°C 47% 3.0 mph S4.8 kmh S 9.0 mph14.5 kmh 30.18 in1022.0 mb 0.00 in0.0 mm 0.00 in/hr0.0 mm/hr 0.00 in0.0 mm
05:24 PM 55.1°F12.8°C 35.3°F1.8°C 47% 7.0 mph S11.3 kmh S 9.0 mph14.5 kmh 30.18 in1022.0 mb 0.00 in0.0 mm 0.00 in/hr0.0 mm/hr 0.00 in0.0 mm
05:25 PM 54.8°F12.7°C 35.5°F1.9°C 48% 4.0 mph SSW6.4 kmh SSW 9.0 mph14.5 kmh 30.18 in1022.0 mb 0.00 in0.0 mm 0.00 in/hr0.0 mm/hr 0.00 in0.0 mm
05:28 PM 54.3°F12.4°C 35.6°F2.0°C 49% Calm Calm 9.0 mph14.5 kmh 30.17 in1021.7 mb 0.00 in0.0 mm 0.00 in/hr0.0 mm/hr 0.00 in0.0 mm
05:29 PM 54.3°F12.4°C 35.6°F2.0°C 49% 4.0 mph SSW6.4 kmh SSW 9.0 mph14.5 kmh 30.17 in1021.7 mb 0.00 in0.0 mm 0.00 in/hr0.0 mm/hr 0.00 in0.0 mm
05:30 PM 54.3°F12.4°C 35.6°F2.0°C 49% 2.0 mph SSW3.2 kmh SSW 9.0 mph14.5 kmh 30.17 in1021.7 mb 0.00 in0.0 mm 0.00 in/hr0.0 mm/hr 0.00 in0.0 mm
05:33 PM 53.9°F12.2°C 35.2°F1.8°C 49% 3.0 mph SSW4.8 kmh SSW 9.0 mph14.5 kmh 30.18 in1022.0 mb 0.00 in0.0 mm 0.00 in/hr0.0 mm/hr 0.00 in0.0 mm
05:34 PM 53.8°F12.1°C 35.1°F1.7°C 49% 2.0 mph SSW3.2 kmh SSW 9.0 mph14.5 kmh 30.18 in1022.0 mb 0.00 in0.0 mm 0.00 in/hr0.0 mm/hr 0.00 in0.0 mm
05:35 PM 53.8°F12.1°C 35.6°F2.0°C 50% 6.0 mph SSW9.7 kmh SSW 9.0 mph14.5 kmh 30.18 in1022.0 mb 0.00 in0.0 mm 0.00 in/hr0.0 mm/hr 0.00 in0.0 mm
05:38 PM 53.8°F12.1°C 36.1°F2.3°C 51% 3.0 mph SSW4.8 kmh SSW 9.0 mph14.5 kmh 30.17 in1021.7 mb 0.00 in0.0 mm 0.00 in/hr0.0 mm/hr 0.00 in0.0 mm
05:39 PM 53.9°F12.2°C 36.2°F2.3°C 51% 3.0 mph SSW4.8 kmh SSW 9.0 mph14.5 kmh 30.17 in1021.7 mb 0.00 in0.0 mm 0.00 in/hr0.0 mm/hr 0.00 in0.0 mm
05:40 PM 53.8°F12.1°C 36.1°F2.3°C 51% 4.0 mph SSW6.4 kmh SSW 9.0 mph14.5 kmh 30.17 in1021.7 mb 0.00 in0.0 mm 0.00 in/hr0.0 mm/hr 0.00 in0.0 mm
05:43 PM 53.8°F12.1°C 36.1°F2.3°C 51% 5.0 mph SSW8.0 kmh SSW 9.0 mph14.5 kmh 30.17 in1021.7 mb 0.00 in0.0 mm 0.00 in/hr0.0 mm/hr 0.00 in0.0 mm
05:44 PM 53.7°F12.1°C 36.0°F2.2°C 51% 2.0 mph SSW3.2 kmh SSW 9.0 mph14.5 kmh 30.17 in1021.7 mb 0.00 in0.0 mm 0.00 in/hr0.0 mm/hr 0.00 in0.0 mm
05:45 PM 53.8°F12.1°C 36.1°F2.3°C 51% 2.0 mph SSW3.2 kmh SSW 9.0 mph14.5 kmh 30.17 in1021.7 mb 0.00 in0.0 mm 0.00 in/hr0.0 mm/hr 0.00 in0.0 mm
05:48 PM 53.7°F12.1°C 36.0°F2.2°C 51% 5.0 mph SSW8.0 kmh SSW 9.0 mph14.5 kmh 30.17 in1021.7 mb 0.00 in0.0 mm 0.00 in/hr0.0 mm/hr 0.00 in0.0 mm
05:49 PM 53.7°F12.1°C 36.0°F2.2°C 51% Calm Calm 9.0 mph14.5 kmh 30.17 in1021.7 mb 0.00 in0.0 mm 0.00 in/hr0.0 mm/hr 0.00 in0.0 mm
05:50 PM 53.7°F12.1°C 36.0°F2.2°C 51% Calm Calm 9.0 mph14.5 kmh 30.17 in1021.7 mb 0.00 in0.0 mm 0.00 in/hr0.0 mm/hr 0.00 in0.0 mm
05:53 PM 54.0°F12.2°C 36.3°F2.4°C 51% Calm Calm 9.0 mph14.5 kmh 30.17 in1021.7 mb 0.00 in0.0 mm 0.00 in/hr0.0 mm/hr 0.00 in0.0 mm
05:54 PM 54.1°F12.3°C 36.4°F2.4°C 51% 1.0 mph SSW1.6 kmh SSW 9.0 mph14.5 kmh 30.17 in1021.7 mb 0.00 in0.0 mm 0.00 in/hr0.0 mm/hr 0.00 in0.0 mm
05:55 PM 54.3°F12.4°C 36.1°F2.3°C 50% 2.0 mph SSW3.2 kmh SSW 9.0 mph14.5 kmh 30.17 in1021.7 mb 0.00 in0.0 mm 0.00 in/hr0.0 mm/hr 0.00 in0.0 mm
05:58 PM 54.8°F12.7°C 36.0°F2.2°C 49% 5.0 mph SSW8.0 kmh SSW 9.0 mph14.5 kmh 30.17 in1021.7 mb 0.00 in0.0 mm 0.00 in/hr0.0 mm/hr 0.00 in0.0 mm
05:59 PM 54.9°F12.7°C 36.1°F2.3°C 49% 1.0 mph SSW1.6 kmh SSW 9.0 mph14.5 kmh 30.17 in1021.7 mb 0.00 in0.0 mm 0.00 in/hr0.0 mm/hr 0.00 in0.0 mm
06:00 PM 54.9°F12.7°C 36.1°F2.3°C 49% 1.0 mph SSW1.6 kmh SSW 4.0 mph6.4 kmh 30.17 in1021.7 mb 0.00 in0.0 mm 0.00 in/hr0.0 mm/hr 0.00 in0.0 mm
06:03 PM 54.5°F12.5°C 36.3°F2.4°C 50% 2.0 mph SSW3.2 kmh SSW 6.0 mph9.7 kmh 30.17 in1021.7 mb 0.00 in0.0 mm 0.00 in/hr0.0 mm/hr 0.00 in0.0 mm
06:04 PM 54.5°F12.5°C 36.3°F2.4°C 50% 8.0 mph SSW12.9 kmh SSW 8.0 mph12.9 kmh 30.17 in1021.7 mb 0.00 in0.0 mm 0.00 in/hr0.0 mm/hr 0.00 in0.0 mm
06:05 PM 54.3°F12.4°C 36.6°F2.6°C 51% 2.0 mph SSW3.2 kmh SSW 9.0 mph14.5 kmh 30.17 in1021.7 mb 0.00 in0.0 mm 0.00 in/hr0.0 mm/hr 0.00 in0.0 mm
06:08 PM 54.1°F12.3°C 35.9°F2.2°C 50% 2.0 mph SW3.2 kmh SW 10.0 mph16.1 kmh 30.17 in1021.7 mb 0.00 in0.0 mm 0.00 in/hr0.0 mm/hr 0.00 in0.0 mm
06:09 PM 54.1°F12.3°C 36.4°F2.4°C 51% 4.0 mph SW6.4 kmh SW 10.0 mph16.1 kmh 30.17 in1021.7 mb 0.00 in0.0 mm 0.00 in/hr0.0 mm/hr 0.00 in0.0 mm
06:10 PM 54.1°F12.3°C 36.4°F2.4°C 51% 6.0 mph SSW9.7 kmh SSW 10.0 mph16.1 kmh 30.17 in1021.7 mb 0.00 in0.0 mm 0.00 in/hr0.0 mm/hr 0.00 in0.0 mm
06:13 PM 54.1°F12.3°C 36.4°F2.4°C 51% 4.0 mph SSW6.4 kmh SSW 10.0 mph16.1 kmh 30.17 in1021.7 mb 0.00 in0.0 mm 0.00 in/hr0.0 mm/hr 0.00 in0.0 mm
06:14 PM 54.1°F12.3°C 36.4°F2.4°C 51% 5.0 mph SSW8.0 kmh SSW 11.0 mph17.7 kmh 30.17 in1021.7 mb 0.00 in0.0 mm 0.00 in/hr0.0 mm/hr 0.00 in0.0 mm
06:15 PM 54.2°F12.3°C 36.5°F2.5°C 51% 3.0 mph SSW4.8 kmh SSW 11.0 mph17.7 kmh 30.17 in1021.7 mb 0.00 in0.0 mm 0.00 in/hr0.0 mm/hr 0.00 in0.0 mm
06:18 PM 54.1°F12.3°C 36.4°F2.4°C 51% Calm Calm 11.0 mph17.7 kmh 30.17 in1021.7 mb 0.00 in0.0 mm 0.00 in/hr0.0 mm/hr 0.00 in0.0 mm
06:19 PM 54.0°F12.2°C 36.8°F2.7°C 52% 4.0 mph SW6.4 kmh SW 11.0 mph17.7 kmh 30.16 in1021.3 mb 0.00 in0.0 mm 0.00 in/hr0.0 mm/hr 0.00 in0.0 mm
06:20 PM 54.0°F12.2°C 36.8°F2.7°C 52% 4.0 mph SW6.4 kmh SW 11.0 mph17.7 kmh 30.17 in1021.7 mb 0.00 in0.0 mm 0.00 in/hr0.0 mm/hr 0.00 in0.0 mm
06:23 PM 53.8°F12.1°C 36.6°F2.6°C 52% 2.0 mph SSW3.2 kmh SSW 11.0 mph17.7 kmh 30.16 in1021.3 mb 0.00 in0.0 mm 0.00 in/hr0.0 mm/hr 0.00 in0.0 mm
06:24 PM 53.8°F12.1°C 36.6°F2.6°C 52% 3.0 mph SSW4.8 kmh SSW 11.0 mph17.7 kmh 30.16 in1021.3 mb 0.00 in0.0 mm 0.00 in/hr0.0 mm/hr 0.00 in0.0 mm
06:25 PM 53.8°F12.1°C 36.6°F2.6°C 52% 2.0 mph S3.2 kmh S 11.0 mph17.7 kmh 30.16 in1021.3 mb 0.00 in0.0 mm 0.00 in/hr0.0 mm/hr 0.00 in0.0 mm
06:28 PM 53.7°F12.1°C 36.5°F2.5°C 52% 3.0 mph S4.8 kmh S 11.0 mph17.7 kmh 30.16 in1021.3 mb 0.00 in0.0 mm 0.00 in/hr0.0 mm/hr 0.00 in0.0 mm
06:29 PM 53.8°F12.1°C 36.6°F2.6°C 52% Calm Calm 11.0 mph17.7 kmh 30.16 in1021.3 mb 0.00 in0.0 mm 0.00 in/hr0.0 mm/hr 0.00 in0.0 mm
06:30 PM 53.8°F12.1°C 36.6°F2.6°C 52% 1.0 mph S1.6 kmh S 11.0 mph17.7 kmh 30.16 in1021.3 mb 0.00 in0.0 mm 0.00 in/hr0.0 mm/hr 0.00 in0.0 mm
06:33 PM 53.4°F11.9°C 37.2°F2.9°C 54% 3.0 mph S4.8 kmh S 11.0 mph17.7 kmh 30.16 in1021.3 mb 0.00 in0.0 mm 0.00 in/hr0.0 mm/hr 0.00 in0.0 mm
06:34 PM 53.2°F11.8°C 37.0°F2.8°C 54% 5.0 mph S8.0 kmh S 11.0 mph17.7 kmh 30.16 in1021.3 mb 0.00 in0.0 mm 0.00 in/hr0.0 mm/hr 0.00 in0.0 mm
06:35 PM 53.0°F11.7°C 37.3°F2.9°C 55% 2.0 mph S3.2 kmh S 11.0 mph17.7 kmh 30.16 in1021.3 mb 0.00 in0.0 mm 0.00 in/hr0.0 mm/hr 0.00 in0.0 mm
06:38 PM 52.7°F11.5°C 37.5°F3.1°C 56% 5.0 mph S8.0 kmh S 11.0 mph17.7 kmh 30.16 in1021.3 mb 0.00 in0.0 mm 0.00 in/hr0.0 mm/hr 0.00 in0.0 mm
06:39 PM 52.7°F11.5°C 37.0°F2.8°C 55% 3.0 mph S4.8 kmh S 11.0 mph17.7 kmh 30.16 in1021.3 mb 0.00 in0.0 mm 0.00 in/hr0.0 mm/hr 0.00 in0.0 mm
06:40 PM 52.7°F11.5°C 37.0°F2.8°C 55% 6.0 mph S9.7 kmh S 11.0 mph17.7 kmh 30.16 in1021.3 mb 0.00 in0.0 mm 0.00 in/hr0.0 mm/hr 0.00 in0.0 mm
06:43 PM 52.6°F11.4°C 36.9°F2.7°C 55% 6.0 mph S9.7 kmh S 11.0 mph17.7 kmh 30.16 in1021.3 mb 0.00 in0.0 mm 0.00 in/hr0.0 mm/hr 0.00 in0.0 mm
06:44 PM 52.6°F11.4°C 36.9°F2.7°C 55% 3.0 mph S4.8 kmh S 11.0 mph17.7 kmh 30.16 in1021.3 mb 0.00 in0.0 mm 0.00 in/hr0.0 mm/hr 0.00 in0.0 mm
06:45 PM 52.6°F11.4°C 36.5°F2.5°C 54% 3.0 mph SSW4.8 kmh SSW 11.0 mph17.7 kmh 30.16 in1021.3 mb 0.00 in0.0 mm 0.00 in/hr0.0 mm/hr 0.00 in0.0 mm
06:48 PM 52.7°F11.5°C 37.0°F2.8°C 55% 4.0 mph SSW6.4 kmh SSW 11.0 mph17.7 kmh 30.16 in1021.3 mb 0.00 in0.0 mm 0.00 in/hr0.0 mm/hr 0.00 in0.0 mm
06:49 PM 52.6°F11.4°C 36.9°F2.7°C 55% 3.0 mph S4.8 kmh S 11.0 mph17.7 kmh 30.16 in1021.3 mb 0.00 in0.0 mm 0.00 in/hr0.0 mm/hr 0.00 in0.0 mm
06:50 PM 52.5°F11.4°C 36.8°F2.7°C 55% 3.0 mph S4.8 kmh S 11.0 mph17.7 kmh 30.16 in1021.3 mb 0.00 in0.0 mm 0.00 in/hr0.0 mm/hr 0.00 in0.0 mm
06:53 PM 52.4°F11.3°C 36.7°F2.6°C 55% 2.0 mph S3.2 kmh S 11.0 mph17.7 kmh 30.16 in1021.3 mb 0.00 in0.0 mm 0.00 in/hr0.0 mm/hr 0.00 in0.0 mm
06:54 PM 52.3°F11.3°C 36.6°F2.6°C 55% 3.0 mph S4.8 kmh S 11.0 mph17.7 kmh 30.16 in1021.3 mb 0.00 in0.0 mm 0.00 in/hr0.0 mm/hr 0.00 in0.0 mm
06:55 PM 52.3°F11.3°C 36.6°F2.6°C 55% 6.0 mph S9.7 kmh S 11.0 mph17.7 kmh 30.16 in1021.3 mb 0.00 in0.0 mm 0.00 in/hr0.0 mm/hr 0.00 in0.0 mm
06:58 PM 52.5°F11.4°C 37.3°F2.9°C 56% 2.0 mph S3.2 kmh S 11.0 mph17.7 kmh 30.16 in1021.3 mb 0.00 in0.0 mm 0.00 in/hr0.0 mm/hr 0.00 in0.0 mm
06:59 PM 52.5°F11.4°C 37.3°F2.9°C 56% 3.0 mph S4.8 kmh S 11.0 mph17.7 kmh 30.16 in1021.3 mb 0.00 in0.0 mm 0.00 in/hr0.0 mm/hr 0.00 in0.0 mm
07:00 PM 52.4°F11.3°C 37.2°F2.9°C 56% 3.0 mph SSW4.8 kmh SSW 3.0 mph4.8 kmh 30.16 in1021.3 mb 0.00 in0.0 mm 0.00 in/hr0.0 mm/hr 0.00 in0.0 mm
07:03 PM 51.9°F11.1°C 37.6°F3.1°C 58% 2.0 mph SSW3.2 kmh SSW 6.0 mph9.7 kmh 30.16 in1021.3 mb 0.00 in0.0 mm 0.00 in/hr0.0 mm/hr 0.00 in0.0 mm
07:04 PM 51.8°F11.0°C 37.5°F3.1°C 58% 2.0 mph SSW3.2 kmh SSW 6.0 mph9.7 kmh 30.16 in1021.3 mb 0.00 in0.0 mm 0.00 in/hr0.0 mm/hr 0.00 in0.0 mm
07:05 PM 51.8°F11.0°C 37.5°F3.1°C 58% 1.0 mph SSW1.6 kmh SSW 6.0 mph9.7 kmh 30.16 in1021.3 mb 0.00 in0.0 mm 0.00 in/hr0.0 mm/hr 0.00 in0.0 mm
07:08 PM 51.5°F10.8°C 37.2°F2.9°C 58% 1.0 mph SSW1.6 kmh SSW 6.0 mph9.7 kmh 30.16 in1021.3 mb 0.00 in0.0 mm 0.00 in/hr0.0 mm/hr 0.00 in0.0 mm
07:09 PM 51.5°F10.8°C 37.7°F3.2°C 59% Calm Calm 6.0 mph9.7 kmh 30.16 in1021.3 mb 0.00 in0.0 mm 0.00 in/hr0.0 mm/hr 0.00 in0.0 mm
07:10 PM 51.4°F10.8°C 37.6°F3.1°C 59% 2.0 mph SSW3.2 kmh SSW 6.0 mph9.7 kmh 30.16 in1021.3 mb 0.00 in0.0 mm 0.00 in/hr0.0 mm/hr 0.00 in0.0 mm
07:13 PM 51.2°F10.7°C 37.4°F3.0°C 59% Calm Calm 6.0 mph9.7 kmh 30.17 in1021.7 mb 0.00 in0.0 mm 0.00 in/hr0.0 mm/hr 0.00 in0.0 mm
07:14 PM 51.2°F10.7°C 37.4°F3.0°C 59% 2.0 mph SSW3.2 kmh SSW 6.0 mph9.7 kmh 30.16 in1021.3 mb 0.00 in0.0 mm 0.00 in/hr0.0 mm/hr 0.00 in0.0 mm
07:15 PM 51.2°F10.7°C 37.4°F3.0°C 59% Calm Calm 6.0 mph9.7 kmh 30.16 in1021.3 mb 0.00 in0.0 mm 0.00 in/hr0.0 mm/hr 0.00 in0.0 mm
07:18 PM 51.3°F10.7°C 37.5°F3.1°C 59% Calm Calm 6.0 mph9.7 kmh 30.17 in1021.7 mb 0.00 in0.0 mm 0.00 in/hr0.0 mm/hr 0.00 in0.0 mm
07:19 PM 51.3°F10.7°C 37.5°F3.1°C 59% Calm Calm 6.0 mph9.7 kmh 30.17 in1021.7 mb 0.00 in0.0 mm 0.00 in/hr0.0 mm/hr 0.00 in0.0 mm
07:20 PM 51.4°F10.8°C 37.6°F3.1°C 59% Calm Calm 6.0 mph9.7 kmh 30.17 in1021.7 mb 0.00 in0.0 mm 0.00 in/hr0.0 mm/hr 0.00 in0.0 mm
07:23 PM 51.4°F10.8°C 37.6°F3.1°C 59% Calm Calm 7.0 mph11.3 kmh 30.17 in1021.7 mb 0.00 in0.0 mm 0.00 in/hr0.0 mm/hr 0.00 in0.0 mm
07:24 PM 51.4°F10.8°C 37.6°F3.1°C 59% 2.0 mph S3.2 kmh S 7.0 mph11.3 kmh 30.17 in1021.7 mb 0.00 in0.0 mm 0.00 in/hr0.0 mm/hr 0.00 in0.0 mm
07:25 PM 51.4°F10.8°C 37.6°F3.1°C 59% 4.0 mph S6.4 kmh S 7.0 mph11.3 kmh 30.17 in1021.7 mb 0.00 in0.0 mm 0.00 in/hr0.0 mm/hr 0.00 in0.0 mm
07:28 PM 51.2°F10.7°C 37.4°F3.0°C 59% 1.0 mph S1.6 kmh S 7.0 mph11.3 kmh 30.16 in1021.3 mb 0.00 in0.0 mm 0.00 in/hr0.0 mm/hr 0.00 in0.0 mm
07:29 PM 51.1°F10.6°C 37.7°F3.2°C 60% Calm Calm 7.0 mph11.3 kmh 30.16 in1021.3 mb 0.00 in0.0 mm 0.00 in/hr0.0 mm/hr 0.00 in0.0 mm
07:30 PM 51.1°F10.6°C 37.7°F3.2°C 60% Calm Calm 7.0 mph11.3 kmh 30.16 in1021.3 mb 0.00 in0.0 mm 0.00 in/hr0.0 mm/hr 0.00 in0.0 mm
07:33 PM 50.9°F10.5°C 37.5°F3.1°C 60% 1.0 mph S1.6 kmh S 7.0 mph11.3 kmh 30.16 in1021.3 mb 0.00 in0.0 mm 0.00 in/hr0.0 mm/hr 0.00 in0.0 mm
07:34 PM 50.9°F10.5°C 37.5°F3.1°C 60% 2.0 mph S3.2 kmh S 7.0 mph11.3 kmh 30.16 in1021.3 mb 0.00 in0.0 mm 0.00 in/hr0.0 mm/hr 0.00 in0.0 mm
07:35 PM 50.9°F10.5°C 37.5°F3.1°C 60% 1.0 mph S1.6 kmh S 7.0 mph11.3 kmh 30.16 in1021.3 mb 0.00 in0.0 mm 0.00 in/hr0.0 mm/hr 0.00 in0.0 mm
07:38 PM 50.9°F10.5°C 37.5°F3.1°C 60% 2.0 mph S3.2 kmh S 7.0 mph11.3 kmh 30.16 in1021.3 mb 0.00 in0.0 mm 0.00 in/hr0.0 mm/hr 0.00 in0.0 mm
07:39 PM 50.9°F10.5°C 37.5°F3.1°C 60% 3.0 mph S4.8 kmh S 7.0 mph11.3 kmh 30.17 in1021.7 mb 0.00 in0.0 mm 0.00 in/hr0.0 mm/hr 0.00 in0.0 mm
07:40 PM 50.9°F10.5°C 37.5°F3.1°C 60% 3.0 mph S4.8 kmh S 7.0 mph11.3 kmh 30.17 in1021.7 mb 0.00 in0.0 mm 0.00 in/hr0.0 mm/hr 0.00 in0.0 mm
07:43 PM 50.9°F10.5°C 38.0°F3.3°C 61% Calm Calm 7.0 mph11.3 kmh 30.17 in1021.7 mb 0.00 in0.0 mm 0.00 in/hr0.0 mm/hr 0.00 in0.0 mm
07:44 PM 50.9°F10.5°C 38.0°F3.3°C 61% 2.0 mph S3.2 kmh S 7.0 mph11.3 kmh 30.16 in1021.3 mb 0.00 in0.0 mm 0.00 in/hr0.0 mm/hr 0.00 in0.0 mm
07:45 PM 50.8°F10.4°C 37.9°F3.3°C 61% 4.0 mph S6.4 kmh S 7.0 mph11.3 kmh 30.17 in1021.7 mb 0.00 in0.0 mm 0.00 in/hr0.0 mm/hr 0.00 in0.0 mm
07:48 PM 50.6°F10.3°C 37.7°F3.2°C 61% 1.0 mph S1.6 kmh S 7.0 mph11.3 kmh 30.17 in1021.7 mb 0.00 in0.0 mm 0.00 in/hr0.0 mm/hr 0.00 in0.0 mm
07:49 PM 50.6°F10.3°C 37.7°F3.2°C 61% Calm Calm 7.0 mph11.3 kmh 30.17 in1021.7 mb 0.00 in0.0 mm 0.00 in/hr0.0 mm/hr 0.00 in0.0 mm
07:50 PM 50.6°F10.3°C 38.1°F3.4°C 62% 1.0 mph S1.6 kmh S 7.0 mph11.3 kmh 30.16 in1021.3 mb 0.00 in0.0 mm 0.00 in/hr0.0 mm/hr 0.00 in0.0 mm
07:53 PM 50.6°F10.3°C 38.1°F3.4°C 62% 1.0 mph S1.6 kmh S 7.0 mph11.3 kmh 30.17 in1021.7 mb 0.00 in0.0 mm 0.00 in/hr0.0 mm/hr 0.00 in0.0 mm
07:54 PM 50.5°F10.3°C 38.0°F3.3°C 62% 1.0 mph S1.6 kmh S 7.0 mph11.3 kmh 30.16 in1021.3 mb 0.00 in0.0 mm 0.00 in/hr0.0 mm/hr 0.00 in0.0 mm
07:55 PM 50.5°F10.3°C 38.0°F3.3°C 62% 2.0 mph S3.2 kmh S 7.0 mph11.3 kmh 30.16 in1021.3 mb 0.00 in0.0 mm 0.00 in/hr0.0 mm/hr 0.00 in0.0 mm
07:58 PM 50.4°F10.2°C 37.9°F3.3°C 62% 3.0 mph S4.8 kmh S 7.0 mph11.3 kmh 30.17 in1021.7 mb 0.00 in0.0 mm 0.00 in/hr0.0 mm/hr 0.00 in0.0 mm
07:59 PM 50.4°F10.2°C 37.9°F3.3°C 62% 3.0 mph S4.8 kmh S 7.0 mph11.3 kmh 30.17 in1021.7 mb 0.00 in0.0 mm 0.00 in/hr0.0 mm/hr 0.00 in0.0 mm
08:00 PM 50.3°F10.2°C 38.2°F3.4°C 63% 1.0 mph S1.6 kmh S 2.0 mph3.2 kmh 30.16 in1021.3 mb 0.00 in0.0 mm 0.00 in/hr0.0 mm/hr 0.00 in0.0 mm
08:03 PM 50.3°F10.2°C 38.2°F3.4°C 63% Calm Calm 3.0 mph4.8 kmh 30.17 in1021.7 mb 0.00 in0.0 mm 0.00 in/hr0.0 mm/hr 0.00 in0.0 mm
08:04 PM 50.3°F10.2°C 38.2°F3.4°C 63% Calm Calm 3.0 mph4.8 kmh 30.17 in1021.7 mb 0.00 in0.0 mm 0.00 in/hr0.0 mm/hr 0.00 in0.0 mm
08:05 PM 50.3°F10.2°C 38.2°F3.4°C 63% Calm Calm 3.0 mph4.8 kmh 30.17 in1021.7 mb 0.00 in0.0 mm 0.00 in/hr0.0 mm/hr 0.00 in0.0 mm
08:08 PM 50.3°F10.2°C 38.2°F3.4°C 63% 3.0 mph S4.8 kmh S 5.0 mph8.0 kmh 30.17 in1021.7 mb 0.00 in0.0 mm 0.00 in/hr0.0 mm/hr 0.00 in0.0 mm
08:09 PM 50.3°F10.2°C 38.2°F3.4°C 63% Calm Calm 5.0 mph8.0 kmh 30.17 in1021.7 mb 0.00 in0.0 mm 0.00 in/hr0.0 mm/hr 0.00 in0.0 mm
08:10 PM 50.3°F10.2°C 38.2°F3.4°C 63% 2.0 mph S3.2 kmh S 5.0 mph8.0 kmh 30.17 in1021.7 mb 0.00 in0.0 mm 0.00 in/hr0.0 mm/hr 0.00 in0.0 mm
08:13 PM 50.4°F10.2°C 38.3°F3.5°C 63% Calm Calm 5.0 mph8.0 kmh 30.17 in1021.7 mb 0.00 in0.0 mm 0.00 in/hr0.0 mm/hr 0.00 in0.0 mm
08:14 PM 50.4°F10.2°C 38.3°F3.5°C 63% 2.0 mph S3.2 kmh S 5.0 mph8.0 kmh 30.17 in1021.7 mb 0.00 in0.0 mm 0.00 in/hr0.0 mm/hr 0.00 in0.0 mm
08:15 PM 50.4°F10.2°C 38.3°F3.5°C 63% 4.0 mph S6.4 kmh S 5.0 mph8.0 kmh 30.17 in1021.7 mb 0.00 in0.0 mm 0.00 in/hr0.0 mm/hr 0.00 in0.0 mm
08:18 PM 50.5°F10.3°C 38.4°F3.6°C 63% 2.0 mph S3.2 kmh S 5.0 mph8.0 kmh 30.17 in1021.7 mb 0.00 in0.0 mm 0.00 in/hr0.0 mm/hr 0.00 in0.0 mm
08:19 PM 50.5°F10.3°C 38.4°F3.6°C 63% 2.0 mph S3.2 kmh S 5.0 mph8.0 kmh 30.17 in1021.7 mb 0.00 in0.0 mm 0.00 in/hr0.0 mm/hr 0.00 in0.0 mm
08:20 PM 50.5°F10.3°C 38.4°F3.6°C 63% 1.0 mph S1.6 kmh S 5.0 mph8.0 kmh 30.17 in1021.7 mb 0.00 in0.0 mm 0.00 in/hr0.0 mm/hr 0.00 in0.0 mm
08:23 PM 50.7°F10.4°C 38.6°F3.7°C 63% 2.0 mph S3.2 kmh S 5.0 mph8.0 kmh 30.17 in1021.7 mb 0.00 in0.0 mm 0.00 in/hr0.0 mm/hr 0.00 in0.0 mm
08:24 PM 50.7°F10.4°C 38.2°F3.4°C 62% 1.0 mph S1.6 kmh S 5.0 mph8.0 kmh 30.17 in1021.7 mb 0.00 in0.0 mm 0.00 in/hr0.0 mm/hr 0.00 in0.0 mm
08:25 PM 50.7°F10.4°C 38.2°F3.4°C 62% Calm Calm 5.0 mph8.0 kmh 30.17 in1021.7 mb 0.00 in0.0 mm 0.00 in/hr0.0 mm/hr 0.00 in0.0 mm
08:28 PM 50.9°F10.5°C 38.4°F3.6°C 62% 1.0 mph S1.6 kmh S 5.0 mph8.0 kmh 30.17 in1021.7 mb 0.00 in0.0 mm 0.00 in/hr0.0 mm/hr 0.00 in0.0 mm
08:29 PM 50.9°F10.5°C 38.4°F3.6°C 62% 3.0 mph S4.8 kmh S 5.0 mph8.0 kmh 30.17 in1021.7 mb 0.00 in0.0 mm 0.00 in/hr0.0 mm/hr 0.00 in0.0 mm
08:30 PM 50.9°F10.5°C 38.4°F3.6°C 62% Calm Calm 5.0 mph8.0 kmh 30.17 in1021.7 mb 0.00 in0.0 mm 0.00 in/hr0.0 mm/hr 0.00 in0.0 mm
08:33 PM 51.0°F10.6°C 38.0°F3.3°C 61% Calm Calm 5.0 mph8.0 kmh 30.17 in1021.7 mb 0.00 in0.0 mm 0.00 in/hr0.0 mm/hr 0.00 in0.0 mm
08:34 PM 51.0°F10.6°C 38.0°F3.3°C 61% 3.0 mph S4.8 kmh S 5.0 mph8.0 kmh 30.17 in1021.7 mb 0.00 in0.0 mm 0.00 in/hr0.0 mm/hr 0.00 in0.0 mm
08:35 PM 51.1°F10.6°C 38.1°F3.4°C 61% 4.0 mph S6.4 kmh S 5.0 mph8.0 kmh 30.17 in1021.7 mb 0.00 in0.0 mm 0.00 in/hr0.0 mm/hr 0.00 in0.0 mm
08:38 PM 51.2°F10.7°C 37.8°F3.2°C 60% Calm Calm 5.0 mph8.0 kmh 30.17 in1021.7 mb 0.00 in0.0 mm 0.00 in/hr0.0 mm/hr 0.00 in0.0 mm
08:39 PM 51.3°F10.7°C 37.9°F3.3°C 60% Calm Calm 5.0 mph8.0 kmh 30.17 in1021.7 mb 0.00 in0.0 mm 0.00 in/hr0.0 mm/hr 0.00 in0.0 mm
08:40 PM 51.3°F10.7°C 37.9°F3.3°C 60% Calm Calm 5.0 mph8.0 kmh 30.17 in1021.7 mb 0.00 in0.0 mm 0.00 in/hr0.0 mm/hr 0.00 in0.0 mm
08:43 PM 51.5°F10.8°C 37.7°F3.2°C 59% Calm Calm 5.0 mph8.0 kmh 30.17 in1021.7 mb 0.00 in0.0 mm 0.00 in/hr0.0 mm/hr 0.00 in0.0 mm
08:44 PM 51.5°F10.8°C 37.7°F3.2°C 59% 2.0 mph S3.2 kmh S 5.0 mph8.0 kmh 30.17 in1021.7 mb 0.00 in0.0 mm 0.00 in/hr0.0 mm/hr 0.00 in0.0 mm
08:45 PM 51.6°F10.9°C 37.8°F3.2°C 59% 2.0 mph S3.2 kmh S 5.0 mph8.0 kmh 30.17 in1021.7 mb 0.00 in0.0 mm 0.00 in/hr0.0 mm/hr 0.00 in0.0 mm
08:48 PM 51.7°F10.9°C 37.4°F3.0°C 58% 1.0 mph S1.6 kmh S 5.0 mph8.0 kmh 30.17 in1021.7 mb 0.00 in0.0 mm 0.00 in/hr0.0 mm/hr 0.00 in0.0 mm
08:49 PM 51.7°F10.9°C 37.4°F3.0°C 58% 2.0 mph S3.2 kmh S 5.0 mph8.0 kmh 30.17 in1021.7 mb 0.00 in0.0 mm 0.00 in/hr0.0 mm/hr 0.00 in0.0 mm
08:50 PM 51.8°F11.0°C 37.5°F3.1°C 58% Calm Calm 5.0 mph8.0 kmh 30.17 in1021.7 mb 0.00 in0.0 mm 0.00 in/hr0.0 mm/hr 0.00 in0.0 mm
08:53 PM 51.8°F11.0°C 37.5°F3.1°C 58% 5.0 mph S8.0 kmh S 5.0 mph8.0 kmh 30.17 in1021.7 mb 0.00 in0.0 mm 0.00 in/hr0.0 mm/hr 0.00 in0.0 mm
08:54 PM 51.9°F11.1°C 36.7°F2.6°C 56% 4.0 mph S6.4 kmh S 6.0 mph9.7 kmh 30.17 in1021.7 mb 0.00 in0.0 mm 0.00 in/hr0.0 mm/hr 0.00 in0.0 mm
08:55 PM 52.0°F11.1°C 36.8°F2.7°C 56% 4.0 mph S6.4 kmh S 7.0 mph11.3 kmh 30.17 in1021.7 mb 0.00 in0.0 mm 0.00 in/hr0.0 mm/hr 0.00 in0.0 mm
08:58 PM 52.3°F11.3°C 36.2°F2.3°C 54% 6.0 mph SSE9.7 kmh SSE 7.0 mph11.3 kmh 30.17 in1021.7 mb 0.00 in0.0 mm 0.00 in/hr0.0 mm/hr 0.00 in0.0 mm
08:59 PM 52.4°F11.3°C 35.8°F2.1°C 53% 5.0 mph SE8.0 kmh SE 7.0 mph11.3 kmh 30.17 in1021.7 mb 0.00 in0.0 mm 0.00 in/hr0.0 mm/hr 0.00 in0.0 mm
09:00 PM 52.4°F11.3°C 35.3°F1.8°C 52% 4.0 mph SE6.4 kmh SE 5.0 mph8.0 kmh 30.17 in1021.7 mb 0.00 in0.0 mm 0.00 in/hr0.0 mm/hr 0.00 in0.0 mm
09:03 PM 52.6°F11.4°C 34.5°F1.4°C 50% 1.0 mph ESE1.6 kmh ESE 8.0 mph12.9 kmh 30.17 in1021.7 mb 0.00 in0.0 mm 0.00 in/hr0.0 mm/hr 0.00 in0.0 mm
09:04 PM 52.6°F11.4°C 34.5°F1.4°C 50% 5.0 mph ESE8.0 kmh ESE 8.0 mph12.9 kmh 30.17 in1021.7 mb 0.00 in0.0 mm 0.00 in/hr0.0 mm/hr 0.00 in0.0 mm
09:05 PM 52.7°F11.5°C 34.6°F1.4°C 50% Calm Calm 8.0 mph12.9 kmh 30.17 in1021.7 mb 0.00 in0.0 mm 0.00 in/hr0.0 mm/hr 0.00 in0.0 mm
09:08 PM 52.7°F11.5°C 34.1°F1.2°C 49% Calm Calm 8.0 mph12.9 kmh 30.17 in1021.7 mb 0.00 in0.0 mm 0.00 in/hr0.0 mm/hr 0.00 in0.0 mm
09:09 PM 52.7°F11.5°C 34.1°F1.2°C 49% 5.0 mph ESE8.0 kmh ESE 8.0 mph12.9 kmh 30.17 in1021.7 mb 0.00 in0.0 mm 0.00 in/hr0.0 mm/hr 0.00 in0.0 mm
09:10 PM 52.7°F11.5°C 33.6°F0.9°C 48% 1.0 mph ESE1.6 kmh ESE 8.0 mph12.9 kmh 30.17 in1021.7 mb 0.00 in0.0 mm 0.00 in/hr0.0 mm/hr 0.00 in0.0 mm
09:13 PM 52.7°F11.5°C 33.6°F0.9°C 48% 5.0 mph ESE8.0 kmh ESE 8.0 mph12.9 kmh 30.17 in1021.7 mb 0.00 in0.0 mm 0.00 in/hr0.0 mm/hr 0.00 in0.0 mm
09:14 PM 52.8°F11.6°C 33.2°F0.7°C 47% 4.0 mph ESE6.4 kmh ESE 8.0 mph12.9 kmh 30.17 in1021.7 mb 0.00 in0.0 mm 0.00 in/hr0.0 mm/hr 0.00 in0.0 mm
09:15 PM 52.7°F11.5°C 33.1°F0.6°C 47% Calm Calm 8.0 mph12.9 kmh 30.17 in1021.7 mb 0.00 in0.0 mm 0.00 in/hr0.0 mm/hr 0.00 in0.0 mm
09:18 PM 52.7°F11.5°C 33.1°F0.6°C 47% 4.0 mph ESE6.4 kmh ESE 8.0 mph12.9 kmh 30.18 in1022.0 mb 0.00 in0.0 mm 0.00 in/hr0.0 mm/hr 0.00 in0.0 mm
09:19 PM 52.7°F11.5°C 33.1°F0.6°C 47% 4.0 mph ESE6.4 kmh ESE 8.0 mph12.9 kmh 30.18 in1022.0 mb 0.00 in0.0 mm 0.00 in/hr0.0 mm/hr 0.00 in0.0 mm
09:20 PM 52.7°F11.5°C 33.1°F0.6°C 47% 1.0 mph ESE1.6 kmh ESE 8.0 mph12.9 kmh 30.18 in1022.0 mb 0.00 in0.0 mm 0.00 in/hr0.0 mm/hr 0.00 in0.0 mm
09:23 PM 52.6°F11.4°C 33.0°F0.6°C 47% Calm Calm 8.0 mph12.9 kmh 30.18 in1022.0 mb 0.00 in0.0 mm 0.00 in/hr0.0 mm/hr 0.00 in0.0 mm
09:24 PM 52.6°F11.4°C 32.4°F0.2°C 46% 1.0 mph ESE1.6 kmh ESE 8.0 mph12.9 kmh 30.18 in1022.0 mb 0.00 in0.0 mm 0.00 in/hr0.0 mm/hr 0.00 in0.0 mm
09:25 PM 52.5°F11.4°C 32.9°F0.5°C 47% 4.0 mph ESE6.4 kmh ESE 8.0 mph12.9 kmh 30.18 in1022.0 mb 0.00 in0.0 mm 0.00 in/hr0.0 mm/hr 0.00 in0.0 mm
09:28 PM 52.5°F11.4°C 32.3°F0.2°C 46% 2.0 mph ESE3.2 kmh ESE 8.0 mph12.9 kmh 30.18 in1022.0 mb 0.00 in0.0 mm 0.00 in/hr0.0 mm/hr 0.00 in0.0 mm
09:29 PM 52.4°F11.3°C 32.2°F0.1°C 46% 4.0 mph ESE6.4 kmh ESE 8.0 mph12.9 kmh 30.18 in1022.0 mb 0.00 in0.0 mm 0.00 in/hr0.0 mm/hr 0.00 in0.0 mm
09:30 PM 52.4°F11.3°C 32.2°F0.1°C 46% 1.0 mph ESE1.6 kmh ESE 8.0 mph12.9 kmh 30.18 in1022.0 mb 0.00 in0.0 mm 0.00 in/hr0.0 mm/hr 0.00 in0.0 mm
09:33 PM 52.4°F11.3°C 32.2°F0.1°C 46% 1.0 mph E1.6 kmh E 8.0 mph12.9 kmh 30.18 in1022.0 mb 0.00 in0.0 mm 0.00 in/hr0.0 mm/hr 0.00 in0.0 mm
09:34 PM 52.3°F11.3°C 32.2°F0.1°C 46% 4.0 mph E6.4 kmh E 8.0 mph12.9 kmh 30.18 in1022.0 mb 0.00 in0.0 mm 0.00 in/hr0.0 mm/hr 0.00 in0.0 mm
09:35 PM 52.3°F11.3°C 31.6°F-0.2°C 45% 4.0 mph E6.4 kmh E 8.0 mph12.9 kmh 30.18 in1022.0 mb 0.00 in0.0 mm 0.00 in/hr0.0 mm/hr 0.00 in0.0 mm
09:38 PM 52.3°F11.3°C 31.6°F-0.2°C 45% 1.0 mph E1.6 kmh E 8.0 mph12.9 kmh 30.18 in1022.0 mb 0.00 in0.0 mm 0.00 in/hr0.0 mm/hr 0.00 in0.0 mm
09:39 PM 52.2°F11.2°C 31.5°F-0.3°C 45% 1.0 mph E1.6 kmh E 8.0 mph12.9 kmh 30.18 in1022.0 mb 0.00 in0.0 mm 0.00 in/hr0.0 mm/hr 0.00 in0.0 mm
09:40 PM 52.2°F11.2°C 31.5°F-0.3°C 45% 2.0 mph E3.2 kmh E 8.0 mph12.9 kmh 30.18 in1022.0 mb 0.00 in0.0 mm 0.00 in/hr0.0 mm/hr 0.00 in0.0 mm
09:43 PM 52.1°F11.2°C 31.4°F-0.3°C 45% 4.0 mph E6.4 kmh E 8.0 mph12.9 kmh 30.18 in1022.0 mb 0.00 in0.0 mm 0.00 in/hr0.0 mm/hr 0.00 in0.0 mm
09:44 PM 52.1°F11.2°C 31.4°F-0.3°C 45% 4.0 mph E6.4 kmh E 8.0 mph12.9 kmh 30.18 in1022.0 mb 0.00 in0.0 mm 0.00 in/hr0.0 mm/hr 0.00 in0.0 mm
09:45 PM 52.0°F11.1°C 31.3°F-0.4°C 45% 2.0 mph E3.2 kmh E 8.0 mph12.9 kmh 30.17 in1021.7 mb 0.00 in0.0 mm 0.00 in/hr0.0 mm/hr 0.00 in0.0 mm
09:48 PM 52.0°F11.1°C 31.9°F-0.1°C 46% 2.0 mph E3.2 kmh E 8.0 mph12.9 kmh 30.18 in1022.0 mb 0.00 in0.0 mm 0.00 in/hr0.0 mm/hr 0.00 in0.0 mm
09:49 PM 51.9°F11.1°C 31.8°F-0.1°C 46% 2.0 mph E3.2 kmh E 8.0 mph12.9 kmh 30.18 in1022.0 mb 0.00 in0.0 mm 0.00 in/hr0.0 mm/hr 0.00 in0.0 mm
09:50 PM 51.9°F11.1°C 31.2°F-0.4°C 45% 2.0 mph E3.2 kmh E 8.0 mph12.9 kmh 30.18 in1022.0 mb 0.00 in0.0 mm 0.00 in/hr0.0 mm/hr 0.00 in0.0 mm
09:53 PM 51.9°F11.1°C 31.8°F-0.1°C 46% Calm Calm 8.0 mph12.9 kmh 30.18 in1022.0 mb 0.00 in0.0 mm 0.00 in/hr0.0 mm/hr 0.00 in0.0 mm
09:54 PM 51.8°F11.0°C 31.7°F-0.2°C 46% 4.0 mph E6.4 kmh E 8.0 mph12.9 kmh 30.18 in1022.0 mb 0.00 in0.0 mm 0.00 in/hr0.0 mm/hr 0.00 in0.0 mm
09:55 PM 51.8°F11.0°C 31.7°F-0.2°C 46% 2.0 mph E3.2 kmh E 8.0 mph12.9 kmh 30.18 in1022.0 mb 0.00 in0.0 mm 0.00 in/hr0.0 mm/hr 0.00 in0.0 mm
09:58 PM 51.8°F11.0°C 31.7°F-0.2°C 46% 2.0 mph E3.2 kmh E 8.0 mph12.9 kmh 30.18 in1022.0 mb 0.00 in0.0 mm 0.00 in/hr0.0 mm/hr 0.00 in0.0 mm
09:59 PM 51.7°F10.9°C 31.6°F-0.2°C 46% 1.0 mph E1.6 kmh E 8.0 mph12.9 kmh 30.18 in1022.0 mb 0.00 in0.0 mm 0.00 in/hr0.0 mm/hr 0.00 in0.0 mm
10:00 PM 51.7°F10.9°C 31.6°F-0.2°C 46% Calm Calm 1.0 mph1.6 kmh 30.17 in1021.7 mb 0.00 in0.0 mm 0.00 in/hr0.0 mm/hr 0.00 in0.0 mm
10:03 PM 51.5°F10.8°C 31.4°F-0.3°C 46% Calm Calm 2.0 mph3.2 kmh 30.18 in1022.0 mb 0.00 in0.0 mm 0.00 in/hr0.0 mm/hr 0.00 in0.0 mm
10:04 PM 51.4°F10.8°C 31.3°F-0.4°C 46% 4.0 mph E6.4 kmh E 4.0 mph6.4 kmh 30.18 in1022.0 mb 0.00 in0.0 mm 0.00 in/hr0.0 mm/hr 0.00 in0.0 mm
10:05 PM 51.4°F10.8°C 31.9°F-0.1°C 47% Calm Calm 4.0 mph6.4 kmh 30.18 in1022.0 mb 0.00 in0.0 mm 0.00 in/hr0.0 mm/hr 0.00 in0.0 mm
10:08 PM 51.3°F10.7°C 31.8°F-0.1°C 47% 1.0 mph E1.6 kmh E 4.0 mph6.4 kmh 30.18 in1022.0 mb 0.00 in0.0 mm 0.00 in/hr0.0 mm/hr 0.00 in0.0 mm
10:09 PM 51.3°F10.7°C 31.8°F-0.1°C 47% 2.0 mph E3.2 kmh E 4.0 mph6.4 kmh 30.18 in1022.0 mb 0.00 in0.0 mm 0.00 in/hr0.0 mm/hr 0.00 in0.0 mm
10:10 PM 51.2°F10.7°C 31.7°F-0.2°C 47% 2.0 mph E3.2 kmh E 4.0 mph6.4 kmh 30.18 in1022.0 mb 0.00 in0.0 mm 0.00 in/hr0.0 mm/hr 0.00 in0.0 mm
10:13 PM 51.1°F10.6°C 31.6°F-0.2°C 47% Calm Calm 5.0 mph8.0 kmh 30.18 in1022.0 mb 0.00 in0.0 mm 0.00 in/hr0.0 mm/hr 0.00 in0.0 mm
10:14 PM 51.1°F10.6°C 31.6°F-0.2°C 47% 1.0 mph E1.6 kmh E 5.0 mph8.0 kmh 30.18 in1022.0 mb 0.00 in0.0 mm 0.00 in/hr0.0 mm/hr 0.00 in0.0 mm
10:15 PM 51.1°F10.6°C 31.6°F-0.2°C 47% 2.0 mph E3.2 kmh E 5.0 mph8.0 kmh 30.18 in1022.0 mb 0.00 in0.0 mm 0.00 in/hr0.0 mm/hr 0.00 in0.0 mm
10:18 PM 50.9°F10.5°C 31.4°F-0.3°C 47% Calm Calm 5.0 mph8.0 kmh 30.18 in1022.0 mb 0.00 in0.0 mm 0.00 in/hr0.0 mm/hr 0.00 in0.0 mm
10:19 PM 50.9°F10.5°C 31.4°F-0.3°C 47% Calm Calm 5.0 mph8.0 kmh 30.18 in1022.0 mb 0.00 in0.0 mm 0.00 in/hr0.0 mm/hr 0.00 in0.0 mm
10:20 PM 50.9°F10.5°C 31.4°F-0.3°C 47% 1.0 mph E1.6 kmh E 5.0 mph8.0 kmh 30.18 in1022.0 mb 0.00 in0.0 mm 0.00 in/hr0.0 mm/hr 0.00 in0.0 mm
10:23 PM 50.7°F10.4°C 31.2°F-0.4°C 47% 1.0 mph E1.6 kmh E 5.0 mph8.0 kmh 30.18 in1022.0 mb 0.00 in0.0 mm 0.00 in/hr0.0 mm/hr 0.00 in0.0 mm
10:24 PM 50.7°F10.4°C 31.2°F-0.4°C 47% Calm Calm 5.0 mph8.0 kmh 30.18 in1022.0 mb 0.00 in0.0 mm 0.00 in/hr0.0 mm/hr 0.00 in0.0 mm
10:25 PM 50.7°F10.4°C 31.2°F-0.4°C 47% Calm Calm 5.0 mph8.0 kmh 30.18 in1022.0 mb 0.00 in0.0 mm 0.00 in/hr0.0 mm/hr 0.00 in0.0 mm
10:28 PM 50.6°F10.3°C 31.7°F-0.2°C 48% 2.0 mph E3.2 kmh E 5.0 mph8.0 kmh 30.18 in1022.0 mb 0.00 in0.0 mm 0.00 in/hr0.0 mm/hr 0.00 in0.0 mm
10:29 PM 50.5°F10.3°C 31.6°F-0.2°C 48% Calm Calm 5.0 mph8.0 kmh 30.18 in1022.0 mb 0.00 in0.0 mm 0.00 in/hr0.0 mm/hr 0.00 in0.0 mm
10:30 PM 50.5°F10.3°C 31.6°F-0.2°C 48% Calm Calm 5.0 mph8.0 kmh 30.18 in1022.0 mb 0.00 in0.0 mm 0.00 in/hr0.0 mm/hr 0.00 in0.0 mm
10:33 PM 50.3°F10.2°C 31.4°F-0.3°C 48% Calm Calm 5.0 mph8.0 kmh 30.18 in1022.0 mb 0.00 in0.0 mm 0.00 in/hr0.0 mm/hr 0.00 in0.0 mm
10:34 PM 50.3°F10.2°C 31.4°F-0.3°C 48% Calm Calm 5.0 mph8.0 kmh 30.18 in1022.0 mb 0.00 in0.0 mm 0.00 in/hr0.0 mm/hr 0.00 in0.0 mm
10:35 PM 50.3°F10.2°C 31.4°F-0.3°C 48% Calm Calm 5.0 mph8.0 kmh 30.18 in1022.0 mb 0.00 in0.0 mm 0.00 in/hr0.0 mm/hr 0.00 in0.0 mm
10:38 PM 50.2°F10.1°C 31.3°F-0.4°C 48% Calm Calm 5.0 mph8.0 kmh 30.18 in1022.0 mb 0.00 in0.0 mm 0.00 in/hr0.0 mm/hr 0.00 in0.0 mm
10:39 PM 50.2°F10.1°C 31.3°F-0.4°C 48% 2.0 mph E3.2 kmh E 5.0 mph8.0 kmh 30.18 in1022.0 mb 0.00 in0.0 mm 0.00 in/hr0.0 mm/hr 0.00 in0.0 mm
10:40 PM 50.2°F10.1°C 31.3°F-0.4°C 48% 1.0 mph E1.6 kmh E 5.0 mph8.0 kmh 30.18 in1022.0 mb 0.00 in0.0 mm 0.00 in/hr0.0 mm/hr 0.00 in0.0 mm
10:43 PM 50.1°F10.1°C 31.2°F-0.4°C 48% Calm Calm 5.0 mph8.0 kmh 30.18 in1022.0 mb 0.00 in0.0 mm 0.00 in/hr0.0 mm/hr 0.00 in0.0 mm
10:44 PM 50.1°F10.1°C 31.2°F-0.4°C 48% Calm Calm 5.0 mph8.0 kmh 30.18 in1022.0 mb 0.00 in0.0 mm 0.00 in/hr0.0 mm/hr 0.00 in0.0 mm
10:45 PM 50.1°F10.1°C 31.2°F-0.4°C 48% Calm Calm 5.0 mph8.0 kmh 30.18 in1022.0 mb 0.00 in0.0 mm 0.00 in/hr0.0 mm/hr 0.00 in0.0 mm
10:48 PM 50.0°F10.0°C 31.1°F-0.5°C 48% 1.0 mph E1.6 kmh E 5.0 mph8.0 kmh 30.18 in1022.0 mb 0.00 in0.0 mm 0.00 in/hr0.0 mm/hr 0.00 in0.0 mm
10:49 PM 50.0°F10.0°C 31.1°F-0.5°C 48% 1.0 mph E1.6 kmh E 5.0 mph8.0 kmh 30.18 in1022.0 mb 0.00 in0.0 mm 0.00 in/hr0.0 mm/hr 0.00 in0.0 mm
10:50 PM 50.0°F10.0°C 31.1°F-0.5°C 48% 1.0 mph E1.6 kmh E 5.0 mph8.0 kmh 30.18 in1022.0 mb 0.00 in0.0 mm 0.00 in/hr0.0 mm/hr 0.00 in0.0 mm
10:53 PM 50.1°F10.1°C 31.2°F-0.4°C 48% 4.0 mph E6.4 kmh E 5.0 mph8.0 kmh 30.18 in1022.0 mb 0.00 in0.0 mm 0.00 in/hr0.0 mm/hr 0.00 in0.0 mm
10:54 PM 50.1°F10.1°C 30.7°F-0.7°C 47% 2.0 mph E3.2 kmh E 5.0 mph8.0 kmh 30.18 in1022.0 mb 0.00 in0.0 mm 0.00 in/hr0.0 mm/hr 0.00 in0.0 mm
10:55 PM 50.1°F10.1°C 30.7°F-0.7°C 47% Calm Calm 5.0 mph8.0 kmh 30.18 in1022.0 mb 0.00 in0.0 mm 0.00 in/hr0.0 mm/hr 0.00 in0.0 mm
10:58 PM 50.1°F10.1°C 31.2°F-0.4°C 48% Calm Calm 5.0 mph8.0 kmh 30.19 in1022.4 mb 0.00 in0.0 mm 0.00 in/hr0.0 mm/hr 0.00 in0.0 mm
10:59 PM 50.1°F10.1°C 30.7°F-0.7°C 47% 2.0 mph E3.2 kmh E 5.0 mph8.0 kmh 30.19 in1022.4 mb 0.00 in0.0 mm 0.00 in/hr0.0 mm/hr 0.00 in0.0 mm
11:00 PM 50.1°F10.1°C 31.2°F-0.4°C 48% 6.0 mph E9.7 kmh E 6.0 mph9.7 kmh 30.19 in1022.4 mb 0.00 in0.0 mm 0.00 in/hr0.0 mm/hr 0.00 in0.0 mm
11:04 PM 49.8°F9.9°C 31.4°F-0.3°C 49% 1.0 mph E1.6 kmh E 6.0 mph9.7 kmh 30.18 in1022.0 mb 0.00 in0.0 mm 0.00 in/hr0.0 mm/hr 0.00 in0.0 mm
11:05 PM 49.7°F9.8°C 31.8°F-0.1°C 50% 1.0 mph E1.6 kmh E 6.0 mph9.7 kmh 30.18 in1022.0 mb 0.00 in0.0 mm 0.00 in/hr0.0 mm/hr 0.00 in0.0 mm
11:08 PM 49.4°F9.7°C 31.6°F-0.2°C 50% 2.0 mph E3.2 kmh E 6.0 mph9.7 kmh 30.18 in1022.0 mb 0.00 in0.0 mm 0.00 in/hr0.0 mm/hr 0.00 in0.0 mm
11:09 PM 49.3°F9.6°C 32.0°F0.0°C 51% 4.0 mph E6.4 kmh E 6.0 mph9.7 kmh 30.18 in1022.0 mb 0.00 in0.0 mm 0.00 in/hr0.0 mm/hr 0.00 in0.0 mm
11:10 PM 49.3°F9.6°C 32.0°F0.0°C 51% 2.0 mph E3.2 kmh E 6.0 mph9.7 kmh 30.18 in1022.0 mb 0.00 in0.0 mm 0.00 in/hr0.0 mm/hr 0.00 in0.0 mm
11:13 PM 49.1°F9.5°C 32.3°F0.2°C 52% 1.0 mph E1.6 kmh E 6.0 mph9.7 kmh 30.18 in1022.0 mb 0.00 in0.0 mm 0.00 in/hr0.0 mm/hr 0.00 in0.0 mm
11:14 PM 49.1°F9.5°C 32.3°F0.2°C 52% Calm Calm 6.0 mph9.7 kmh 30.18 in1022.0 mb 0.00 in0.0 mm 0.00 in/hr0.0 mm/hr 0.00 in0.0 mm
11:15 PM 49.1°F9.5°C 32.3°F0.2°C 52% Calm Calm 6.0 mph9.7 kmh 30.18 in1022.0 mb 0.00 in0.0 mm 0.00 in/hr0.0 mm/hr 0.00 in0.0 mm
11:18 PM 49.0°F9.4°C 32.2°F0.1°C 52% 1.0 mph E1.6 kmh E 6.0 mph9.7 kmh 30.18 in1022.0 mb 0.00 in0.0 mm 0.00 in/hr0.0 mm/hr 0.00 in0.0 mm
11:19 PM 49.0°F9.4°C 32.2°F0.1°C 52% 4.0 mph E6.4 kmh E 6.0 mph9.7 kmh 30.18 in1022.0 mb 0.00 in0.0 mm 0.00 in/hr0.0 mm/hr 0.00 in0.0 mm
11:20 PM 49.0°F9.4°C 32.6°F0.3°C 53% 2.0 mph E3.2 kmh E 6.0 mph9.7 kmh 30.18 in1022.0 mb 0.00 in0.0 mm 0.00 in/hr0.0 mm/hr 0.00 in0.0 mm
11:23 PM 49.0°F9.4°C 32.6°F0.3°C 53% 2.0 mph E3.2 kmh E 6.0 mph9.7 kmh 30.18 in1022.0 mb 0.00 in0.0 mm 0.00 in/hr0.0 mm/hr 0.00 in0.0 mm
11:24 PM 49.0°F9.4°C 32.2°F0.1°C 52% Calm Calm 6.0 mph9.7 kmh 30.18 in1022.0 mb 0.00 in0.0 mm 0.00 in/hr0.0 mm/hr 0.00 in0.0 mm
11:25 PM 49.0°F9.4°C 32.2°F0.1°C 52% Calm Calm 6.0 mph9.7 kmh 30.18 in1022.0 mb 0.00 in0.0 mm 0.00 in/hr0.0 mm/hr 0.00 in0.0 mm
11:28 PM 49.0°F9.4°C 32.6°F0.3°C 53% Calm Calm 6.0 mph9.7 kmh 30.18 in1022.0 mb 0.00 in0.0 mm 0.00 in/hr0.0 mm/hr 0.00 in0.0 mm
11:29 PM 49.0°F9.4°C 32.2°F0.1°C 52% Calm Calm 6.0 mph9.7 kmh 30.18 in1022.0 mb 0.00 in0.0 mm 0.00 in/hr0.0 mm/hr 0.00 in0.0 mm
11:30 PM 49.0°F9.4°C 32.2°F0.1°C 52% Calm Calm 6.0 mph9.7 kmh 30.18 in1022.0 mb 0.00 in0.0 mm 0.00 in/hr0.0 mm/hr 0.00 in0.0 mm
11:33 PM 49.0°F9.4°C 32.2°F0.1°C 52% 1.0 mph E1.6 kmh E 6.0 mph9.7 kmh 30.17 in1021.7 mb 0.00 in0.0 mm 0.00 in/hr0.0 mm/hr 0.00 in0.0 mm
11:34 PM 49.0°F9.4°C 32.2°F0.1°C 52% 1.0 mph E1.6 kmh E 6.0 mph9.7 kmh 30.18 in1022.0 mb 0.00 in0.0 mm 0.00 in/hr0.0 mm/hr 0.00 in0.0 mm
11:35 PM 49.0°F9.4°C 32.2°F0.1°C 52% 2.0 mph E3.2 kmh E 6.0 mph9.7 kmh 30.18 in1022.0 mb 0.00 in0.0 mm 0.00 in/hr0.0 mm/hr 0.00 in0.0 mm
11:38 PM 48.9°F9.4°C 32.1°F0.1°C 52% 2.0 mph E3.2 kmh E 6.0 mph9.7 kmh 30.17 in1021.7 mb 0.00 in0.0 mm 0.00 in/hr0.0 mm/hr 0.00 in0.0 mm
11:39 PM 48.9°F9.4°C 32.1°F0.1°C 52% 1.0 mph E1.6 kmh E 6.0 mph9.7 kmh 30.17 in1021.7 mb 0.00 in0.0 mm 0.00 in/hr0.0 mm/hr 0.00 in0.0 mm
11:40 PM 48.9°F9.4°C 32.1°F0.1°C 52% 2.0 mph E3.2 kmh E 6.0 mph9.7 kmh 30.17 in1021.7 mb 0.00 in0.0 mm 0.00 in/hr0.0 mm/hr 0.00 in0.0 mm
11:43 PM 48.7°F9.3°C 31.9°F-0.1°C 52% Calm Calm 6.0 mph9.7 kmh 30.17 in1021.7 mb 0.00 in0.0 mm 0.00 in/hr0.0 mm/hr 0.00 in0.0 mm
11:44 PM 48.7°F9.3°C 31.9°F-0.1°C 52% 2.0 mph E3.2 kmh E 6.0 mph9.7 kmh 30.17 in1021.7 mb 0.00 in0.0 mm 0.00 in/hr0.0 mm/hr 0.00 in0.0 mm
11:45 PM 48.7°F9.3°C 31.9°F-0.1°C 52% 1.0 mph E1.6 kmh E 6.0 mph9.7 kmh 30.17 in1021.7 mb 0.00 in0.0 mm 0.00 in/hr0.0 mm/hr 0.00 in0.0 mm
11:48 PM 48.5°F9.2°C 31.2°F-0.4°C 51% 2.0 mph E3.2 kmh E 6.0 mph9.7 kmh 30.17 in1021.7 mb 0.00 in0.0 mm 0.00 in/hr0.0 mm/hr 0.00 in0.0 mm
11:49 PM 48.5°F9.2°C 31.2°F-0.4°C 51% 1.0 mph E1.6 kmh E 6.0 mph9.7 kmh 30.17 in1021.7 mb 0.00 in0.0 mm 0.00 in/hr0.0 mm/hr 0.00 in0.0 mm
11:50 PM 48.4°F9.1°C 31.1°F-0.5°C 51% 1.0 mph E1.6 kmh E 6.0 mph9.7 kmh 30.17 in1021.7 mb 0.00 in0.0 mm 0.00 in/hr0.0 mm/hr 0.00 in0.0 mm
11:53 PM 48.3°F9.1°C 31.0°F-0.6°C 51% 4.0 mph E6.4 kmh E 6.0 mph9.7 kmh 30.17 in1021.7 mb 0.00 in0.0 mm 0.00 in/hr0.0 mm/hr 0.00 in0.0 mm
11:54 PM 48.3°F9.1°C 31.0°F-0.6°C 51% 4.0 mph E6.4 kmh E 6.0 mph9.7 kmh 30.17 in1021.7 mb 0.00 in0.0 mm 0.00 in/hr0.0 mm/hr 0.00 in0.0 mm
11:55 PM 48.2°F9.0°C 30.9°F-0.6°C 51% 2.0 mph E3.2 kmh E 6.0 mph9.7 kmh 30.17 in1021.7 mb 0.00 in0.0 mm 0.00 in/hr0.0 mm/hr 0.00 in0.0 mm
11:58 PM 48.1°F8.9°C 31.3°F-0.4°C 52% 2.0 mph E3.2 kmh E 6.0 mph9.7 kmh 30.17 in1021.7 mb 0.00 in0.0 mm 0.00 in/hr0.0 mm/hr 0.00 in0.0 mm
11:59 PM 48.0°F8.9°C 31.2°F-0.4°C 52% 2.0 mph E3.2 kmh E 6.0 mph9.7 kmh 30.17 in1021.7 mb 0.00 in0.0 mm 0.00 in/hr0.0 mm/hr 0.00 in0.0 mm